<?xml version="1.0" encoding="UTF-8" standalone="no" ?>
<gpx xmlns="http://www.topografix.com/GPX/1/1" xmlns:xsi="http://www.w3.org/2001/XMLSchema-instance" xsi:schemaLocation="http://www.topografix.com/GPX/1/1 http://www.topografix.com/GPX/1/1/gpx.xsd" version="1.1" creator="VisuGPX - https://www.visugpx.com">
  <metadata>
    <name>Montagne de Ceuse</name>
    <desc><![CDATA[Départ Furmeyer, direction Chateluce en passant par un sentier en balcon.
Suivre le petit Buech d'abord rive gauche puis rive droite jusqu'au Clot de Sagne, puis les Allemands, Manteyer.
Prendre la piste qui passe par la sud du massif et remonter jusqu'aux crêtes ouest de la montagne de Ceuse.
Redescendre sur Furmeyer par des singles et pistes.]]></desc>
  </metadata>
  <trk>
    <name><![CDATA[ceuse]]></name>
    <desc><![CDATA[<h1>OruxMaps</h1><br /><hr align="center" width="480" style="height: 2px; width: 517px"/><h2>Nom: ceuse</h2><br /><p>Temps de départ: 09/30/2013 10:47</p><p>Temps d'arrivée: 09/30/2013 16:58</p><p>Distance: 34,5 km (06:10)</p><p>Temps déplacement: 04:02</p><p>Vitesse moyenne: 5,6 km/h</p><p>Vitesse moyenne: 8,5 km/h</p><p>Vitess Max.: 37,3 km/h</p><p>Altitude minimale: 710 m</p><p>Altitude maximale: 1821 m</p><p>Vitesse d'élévation: 530,1 m/h</p><p>Vitesse de descente: -825,1 m/h</p><p>Gain Altitude: 1556 m</p><p>Perte Altitude: -1614 m</p><p>Temps d'élévation: 02:56</p><p>Temps de descente: 01:57</p><hr align="center" width="480" style="height: 2px; width: 517px"/>]]></desc>
    <trkseg>
      <trkpt lat="44.54274" lon="5.86918">
        <ele>1007</ele>
        <time>2013-09-30T08:47:54Z</time>
      </trkpt>
      <trkpt lat="44.54294" lon="5.86918">
        <ele>1012</ele>
        <time>2013-09-30T08:50:59Z</time>
      </trkpt>
      <trkpt lat="44.54306" lon="5.86898">
        <ele>1004</ele>
        <time>2013-09-30T09:03:04Z</time>
      </trkpt>
      <trkpt lat="44.5432" lon="5.86874">
        <ele>1002</ele>
        <time>2013-09-30T09:03:08Z</time>
      </trkpt>
      <trkpt lat="44.54332" lon="5.86853">
        <ele>1000</ele>
        <time>2013-09-30T09:03:11Z</time>
      </trkpt>
      <trkpt lat="44.54337" lon="5.86826">
        <ele>1002</ele>
        <time>2013-09-30T09:03:17Z</time>
      </trkpt>
      <trkpt lat="44.54339" lon="5.86799">
        <ele>1003</ele>
        <time>2013-09-30T09:03:37Z</time>
      </trkpt>
      <trkpt lat="44.5435" lon="5.86778">
        <ele>1001</ele>
        <time>2013-09-30T09:03:53Z</time>
      </trkpt>
      <trkpt lat="44.54366" lon="5.86764">
        <ele>1003</ele>
        <time>2013-09-30T09:04:19Z</time>
      </trkpt>
      <trkpt lat="44.54377" lon="5.86744">
        <ele>991</ele>
        <time>2013-09-30T09:04:41Z</time>
      </trkpt>
      <trkpt lat="44.5439" lon="5.86725">
        <ele>991</ele>
        <time>2013-09-30T09:05:12Z</time>
      </trkpt>
      <trkpt lat="44.54408" lon="5.86712">
        <ele>991</ele>
        <time>2013-09-30T09:05:20Z</time>
      </trkpt>
      <trkpt lat="44.54426" lon="5.86702">
        <ele>1003</ele>
        <time>2013-09-30T09:05:32Z</time>
      </trkpt>
      <trkpt lat="44.54443" lon="5.86692">
        <ele>1003</ele>
        <time>2013-09-30T09:05:50Z</time>
      </trkpt>
      <trkpt lat="44.54461" lon="5.86689">
        <ele>1006</ele>
        <time>2013-09-30T09:05:59Z</time>
      </trkpt>
      <trkpt lat="44.54479" lon="5.86685">
        <ele>1007</ele>
        <time>2013-09-30T09:06:07Z</time>
      </trkpt>
      <trkpt lat="44.54498" lon="5.86682">
        <ele>1007</ele>
        <time>2013-09-30T09:06:16Z</time>
      </trkpt>
      <trkpt lat="44.54516" lon="5.86674">
        <ele>1016</ele>
        <time>2013-09-30T09:06:26Z</time>
      </trkpt>
      <trkpt lat="44.54532" lon="5.86663">
        <ele>993</ele>
        <time>2013-09-30T09:06:36Z</time>
      </trkpt>
      <trkpt lat="44.54549" lon="5.86653">
        <ele>993</ele>
        <time>2013-09-30T09:07:02Z</time>
      </trkpt>
      <trkpt lat="44.54566" lon="5.86663">
        <ele>1001</ele>
        <time>2013-09-30T09:07:19Z</time>
      </trkpt>
      <trkpt lat="44.5458" lon="5.8668">
        <ele>1022</ele>
        <time>2013-09-30T09:07:47Z</time>
      </trkpt>
      <trkpt lat="44.54731" lon="5.86657">
        <ele>965</ele>
        <time>2013-09-30T09:08:20Z</time>
      </trkpt>
      <trkpt lat="44.54749" lon="5.86654">
        <ele>966</ele>
        <time>2013-09-30T09:08:32Z</time>
      </trkpt>
      <trkpt lat="44.54766" lon="5.86645">
        <ele>938</ele>
        <time>2013-09-30T09:08:52Z</time>
      </trkpt>
      <trkpt lat="44.54782" lon="5.86634">
        <ele>926</ele>
        <time>2013-09-30T09:08:56Z</time>
      </trkpt>
      <trkpt lat="44.54704" lon="5.86654">
        <ele>969</ele>
        <time>2013-09-30T09:10:15Z</time>
      </trkpt>
      <trkpt lat="44.54686" lon="5.86651">
        <ele>976</ele>
        <time>2013-09-30T09:11:32Z</time>
      </trkpt>
      <trkpt lat="44.54703" lon="5.86666">
        <ele>972</ele>
        <time>2013-09-30T09:13:22Z</time>
      </trkpt>
      <trkpt lat="44.5472" lon="5.86662">
        <ele>967</ele>
        <time>2013-09-30T09:13:50Z</time>
      </trkpt>
      <trkpt lat="44.5474" lon="5.86677">
        <ele>990</ele>
        <time>2013-09-30T09:14:08Z</time>
      </trkpt>
      <trkpt lat="44.54753" lon="5.86695">
        <ele>971</ele>
        <time>2013-09-30T09:14:16Z</time>
      </trkpt>
      <trkpt lat="44.54762" lon="5.86718">
        <ele>976</ele>
        <time>2013-09-30T09:14:20Z</time>
      </trkpt>
      <trkpt lat="44.54781" lon="5.86734">
        <ele>975</ele>
        <time>2013-09-30T09:14:25Z</time>
      </trkpt>
      <trkpt lat="44.54799" lon="5.86743">
        <ele>968</ele>
        <time>2013-09-30T09:14:36Z</time>
      </trkpt>
      <trkpt lat="44.5482" lon="5.86743">
        <ele>961</ele>
        <time>2013-09-30T09:14:53Z</time>
      </trkpt>
      <trkpt lat="44.54829" lon="5.86765">
        <ele>976</ele>
        <time>2013-09-30T09:15:04Z</time>
      </trkpt>
      <trkpt lat="44.54832" lon="5.86793">
        <ele>988</ele>
        <time>2013-09-30T09:15:14Z</time>
      </trkpt>
      <trkpt lat="44.54844" lon="5.86817">
        <ele>964</ele>
        <time>2013-09-30T09:15:26Z</time>
      </trkpt>
      <trkpt lat="44.54862" lon="5.86839">
        <ele>970</ele>
        <time>2013-09-30T09:15:31Z</time>
      </trkpt>
      <trkpt lat="44.54875" lon="5.86861">
        <ele>966</ele>
        <time>2013-09-30T09:15:34Z</time>
      </trkpt>
      <trkpt lat="44.5489" lon="5.86879">
        <ele>963</ele>
        <time>2013-09-30T09:15:37Z</time>
      </trkpt>
      <trkpt lat="44.54904" lon="5.86898">
        <ele>959</ele>
        <time>2013-09-30T09:15:40Z</time>
      </trkpt>
      <trkpt lat="44.54917" lon="5.8692">
        <ele>946</ele>
        <time>2013-09-30T09:15:44Z</time>
      </trkpt>
      <trkpt lat="44.54932" lon="5.86937">
        <ele>939</ele>
        <time>2013-09-30T09:15:48Z</time>
      </trkpt>
      <trkpt lat="44.54945" lon="5.86961">
        <ele>937</ele>
        <time>2013-09-30T09:15:56Z</time>
      </trkpt>
      <trkpt lat="44.54964" lon="5.86976">
        <ele>933</ele>
        <time>2013-09-30T09:16:08Z</time>
      </trkpt>
      <trkpt lat="44.54985" lon="5.86986">
        <ele>926</ele>
        <time>2013-09-30T09:16:12Z</time>
      </trkpt>
      <trkpt lat="44.55003" lon="5.87009">
        <ele>913</ele>
        <time>2013-09-30T09:16:15Z</time>
      </trkpt>
      <trkpt lat="44.55011" lon="5.87031">
        <ele>907</ele>
        <time>2013-09-30T09:16:24Z</time>
      </trkpt>
      <trkpt lat="44.55009" lon="5.8706">
        <ele>908</ele>
        <time>2013-09-30T09:16:32Z</time>
      </trkpt>
      <trkpt lat="44.55003" lon="5.87086">
        <ele>914</ele>
        <time>2013-09-30T09:17:13Z</time>
      </trkpt>
      <trkpt lat="44.54993" lon="5.87108">
        <ele>926</ele>
        <time>2013-09-30T09:17:19Z</time>
      </trkpt>
      <trkpt lat="44.54991" lon="5.87142">
        <ele>925</ele>
        <time>2013-09-30T09:17:24Z</time>
      </trkpt>
      <trkpt lat="44.54996" lon="5.8717">
        <ele>917</ele>
        <time>2013-09-30T09:17:27Z</time>
      </trkpt>
      <trkpt lat="44.5501" lon="5.87194">
        <ele>905</ele>
        <time>2013-09-30T09:17:30Z</time>
      </trkpt>
      <trkpt lat="44.55022" lon="5.87215">
        <ele>903</ele>
        <time>2013-09-30T09:17:33Z</time>
      </trkpt>
      <trkpt lat="44.55042" lon="5.87233">
        <ele>900</ele>
        <time>2013-09-30T09:17:36Z</time>
      </trkpt>
      <trkpt lat="44.55059" lon="5.87246">
        <ele>896</ele>
        <time>2013-09-30T09:17:39Z</time>
      </trkpt>
      <trkpt lat="44.55077" lon="5.8726">
        <ele>895</ele>
        <time>2013-09-30T09:17:41Z</time>
      </trkpt>
      <trkpt lat="44.55092" lon="5.87277">
        <ele>885</ele>
        <time>2013-09-30T09:17:43Z</time>
      </trkpt>
      <trkpt lat="44.55111" lon="5.87297">
        <ele>884</ele>
        <time>2013-09-30T09:18:06Z</time>
      </trkpt>
      <trkpt lat="44.55129" lon="5.87289">
        <ele>881</ele>
        <time>2013-09-30T09:18:29Z</time>
      </trkpt>
      <trkpt lat="44.55147" lon="5.87304">
        <ele>879</ele>
        <time>2013-09-30T09:18:44Z</time>
      </trkpt>
      <trkpt lat="44.55149" lon="5.87331">
        <ele>878</ele>
        <time>2013-09-30T09:18:53Z</time>
      </trkpt>
      <trkpt lat="44.5515" lon="5.87362">
        <ele>886</ele>
        <time>2013-09-30T09:19:00Z</time>
      </trkpt>
      <trkpt lat="44.5516" lon="5.87386">
        <ele>887</ele>
        <time>2013-09-30T09:19:04Z</time>
      </trkpt>
      <trkpt lat="44.55169" lon="5.87411">
        <ele>878</ele>
        <time>2013-09-30T09:19:08Z</time>
      </trkpt>
      <trkpt lat="44.55171" lon="5.87439">
        <ele>879</ele>
        <time>2013-09-30T09:19:14Z</time>
      </trkpt>
      <trkpt lat="44.5521" lon="5.87484">
        <ele>876</ele>
        <time>2013-09-30T09:19:16Z</time>
      </trkpt>
      <trkpt lat="44.5523" lon="5.87501">
        <ele>880</ele>
        <time>2013-09-30T09:19:18Z</time>
      </trkpt>
      <trkpt lat="44.55251" lon="5.87512">
        <ele>867</ele>
        <time>2013-09-30T09:19:20Z</time>
      </trkpt>
      <trkpt lat="44.5527" lon="5.8752">
        <ele>867</ele>
        <time>2013-09-30T09:19:23Z</time>
      </trkpt>
      <trkpt lat="44.55288" lon="5.87537">
        <ele>868</ele>
        <time>2013-09-30T09:19:26Z</time>
      </trkpt>
      <trkpt lat="44.55302" lon="5.87561">
        <ele>868</ele>
        <time>2013-09-30T09:19:28Z</time>
      </trkpt>
      <trkpt lat="44.55315" lon="5.87588">
        <ele>876</ele>
        <time>2013-09-30T09:19:31Z</time>
      </trkpt>
      <trkpt lat="44.55327" lon="5.87615">
        <ele>881</ele>
        <time>2013-09-30T09:19:34Z</time>
      </trkpt>
      <trkpt lat="44.55339" lon="5.87636">
        <ele>869</ele>
        <time>2013-09-30T09:19:37Z</time>
      </trkpt>
      <trkpt lat="44.55354" lon="5.87659">
        <ele>871</ele>
        <time>2013-09-30T09:19:40Z</time>
      </trkpt>
      <trkpt lat="44.55367" lon="5.87679">
        <ele>877</ele>
        <time>2013-09-30T09:19:44Z</time>
      </trkpt>
      <trkpt lat="44.5538" lon="5.87705">
        <ele>877</ele>
        <time>2013-09-30T09:19:49Z</time>
      </trkpt>
      <trkpt lat="44.55387" lon="5.87729">
        <ele>876</ele>
        <time>2013-09-30T09:19:54Z</time>
      </trkpt>
      <trkpt lat="44.55394" lon="5.87761">
        <ele>883</ele>
        <time>2013-09-30T09:19:58Z</time>
      </trkpt>
      <trkpt lat="44.55411" lon="5.87781">
        <ele>882</ele>
        <time>2013-09-30T09:20:03Z</time>
      </trkpt>
      <trkpt lat="44.55428" lon="5.87802">
        <ele>865</ele>
        <time>2013-09-30T09:20:07Z</time>
      </trkpt>
      <trkpt lat="44.55445" lon="5.87821">
        <ele>865</ele>
        <time>2013-09-30T09:20:11Z</time>
      </trkpt>
      <trkpt lat="44.55457" lon="5.8785">
        <ele>869</ele>
        <time>2013-09-30T09:20:16Z</time>
      </trkpt>
      <trkpt lat="44.55469" lon="5.87875">
        <ele>870</ele>
        <time>2013-09-30T09:20:24Z</time>
      </trkpt>
      <trkpt lat="44.55477" lon="5.87901">
        <ele>869</ele>
        <time>2013-09-30T09:20:31Z</time>
      </trkpt>
      <trkpt lat="44.55479" lon="5.87928">
        <ele>874</ele>
        <time>2013-09-30T09:20:39Z</time>
      </trkpt>
      <trkpt lat="44.5548" lon="5.87956">
        <ele>876</ele>
        <time>2013-09-30T09:20:48Z</time>
      </trkpt>
      <trkpt lat="44.55489" lon="5.87986">
        <ele>874</ele>
        <time>2013-09-30T09:20:52Z</time>
      </trkpt>
      <trkpt lat="44.55507" lon="5.88007">
        <ele>866</ele>
        <time>2013-09-30T09:20:56Z</time>
      </trkpt>
      <trkpt lat="44.55521" lon="5.88026">
        <ele>865</ele>
        <time>2013-09-30T09:20:59Z</time>
      </trkpt>
      <trkpt lat="44.55536" lon="5.88042">
        <ele>864</ele>
        <time>2013-09-30T09:21:02Z</time>
      </trkpt>
      <trkpt lat="44.55555" lon="5.88063">
        <ele>863</ele>
        <time>2013-09-30T09:21:05Z</time>
      </trkpt>
      <trkpt lat="44.55568" lon="5.88083">
        <ele>863</ele>
        <time>2013-09-30T09:21:09Z</time>
      </trkpt>
      <trkpt lat="44.55578" lon="5.88107">
        <ele>864</ele>
        <time>2013-09-30T09:21:13Z</time>
      </trkpt>
      <trkpt lat="44.55573" lon="5.88132">
        <ele>865</ele>
        <time>2013-09-30T09:21:17Z</time>
      </trkpt>
      <trkpt lat="44.55561" lon="5.88156">
        <ele>865</ele>
        <time>2013-09-30T09:21:21Z</time>
      </trkpt>
      <trkpt lat="44.55549" lon="5.88179">
        <ele>872</ele>
        <time>2013-09-30T09:21:26Z</time>
      </trkpt>
      <trkpt lat="44.55551" lon="5.88207">
        <ele>873</ele>
        <time>2013-09-30T09:21:30Z</time>
      </trkpt>
      <trkpt lat="44.55563" lon="5.88231">
        <ele>872</ele>
        <time>2013-09-30T09:21:34Z</time>
      </trkpt>
      <trkpt lat="44.55573" lon="5.88256">
        <ele>872</ele>
        <time>2013-09-30T09:21:39Z</time>
      </trkpt>
      <trkpt lat="44.55589" lon="5.88273">
        <ele>865</ele>
        <time>2013-09-30T09:21:44Z</time>
      </trkpt>
      <trkpt lat="44.55607" lon="5.88287">
        <ele>865</ele>
        <time>2013-09-30T09:21:48Z</time>
      </trkpt>
      <trkpt lat="44.55626" lon="5.883">
        <ele>865</ele>
        <time>2013-09-30T09:21:53Z</time>
      </trkpt>
      <trkpt lat="44.55642" lon="5.88317">
        <ele>864</ele>
        <time>2013-09-30T09:21:58Z</time>
      </trkpt>
      <trkpt lat="44.55656" lon="5.88336">
        <ele>865</ele>
        <time>2013-09-30T09:22:02Z</time>
      </trkpt>
      <trkpt lat="44.55668" lon="5.88355">
        <ele>864</ele>
        <time>2013-09-30T09:22:07Z</time>
      </trkpt>
      <trkpt lat="44.55679" lon="5.88376">
        <ele>865</ele>
        <time>2013-09-30T09:22:12Z</time>
      </trkpt>
      <trkpt lat="44.55688" lon="5.88399">
        <ele>865</ele>
        <time>2013-09-30T09:22:24Z</time>
      </trkpt>
      <trkpt lat="44.55697" lon="5.88424">
        <ele>865</ele>
        <time>2013-09-30T09:22:50Z</time>
      </trkpt>
      <trkpt lat="44.557" lon="5.88451">
        <ele>865</ele>
        <time>2013-09-30T09:22:55Z</time>
      </trkpt>
      <trkpt lat="44.55699" lon="5.88477">
        <ele>866</ele>
        <time>2013-09-30T09:23:00Z</time>
      </trkpt>
      <trkpt lat="44.55695" lon="5.88502">
        <ele>867</ele>
        <time>2013-09-30T09:23:04Z</time>
      </trkpt>
      <trkpt lat="44.55692" lon="5.88527">
        <ele>867</ele>
        <time>2013-09-30T09:23:08Z</time>
      </trkpt>
      <trkpt lat="44.55688" lon="5.88553">
        <ele>868</ele>
        <time>2013-09-30T09:23:13Z</time>
      </trkpt>
      <trkpt lat="44.55683" lon="5.88582">
        <ele>868</ele>
        <time>2013-09-30T09:23:19Z</time>
      </trkpt>
      <trkpt lat="44.55677" lon="5.88607">
        <ele>870</ele>
        <time>2013-09-30T09:23:24Z</time>
      </trkpt>
      <trkpt lat="44.55672" lon="5.88631">
        <ele>870</ele>
        <time>2013-09-30T09:23:29Z</time>
      </trkpt>
      <trkpt lat="44.55672" lon="5.88658">
        <ele>871</ele>
        <time>2013-09-30T09:23:35Z</time>
      </trkpt>
      <trkpt lat="44.55668" lon="5.88683">
        <ele>872</ele>
        <time>2013-09-30T09:23:41Z</time>
      </trkpt>
      <trkpt lat="44.55657" lon="5.88706">
        <ele>879</ele>
        <time>2013-09-30T09:23:47Z</time>
      </trkpt>
      <trkpt lat="44.55647" lon="5.88731">
        <ele>880</ele>
        <time>2013-09-30T09:23:52Z</time>
      </trkpt>
      <trkpt lat="44.55645" lon="5.88759">
        <ele>882</ele>
        <time>2013-09-30T09:23:56Z</time>
      </trkpt>
      <trkpt lat="44.5565" lon="5.88786">
        <ele>883</ele>
        <time>2013-09-30T09:24:01Z</time>
      </trkpt>
      <trkpt lat="44.55657" lon="5.88814">
        <ele>881</ele>
        <time>2013-09-30T09:24:07Z</time>
      </trkpt>
      <trkpt lat="44.55662" lon="5.88841">
        <ele>878</ele>
        <time>2013-09-30T09:24:14Z</time>
      </trkpt>
      <trkpt lat="44.55664" lon="5.88869">
        <ele>884</ele>
        <time>2013-09-30T09:24:36Z</time>
      </trkpt>
      <trkpt lat="44.55669" lon="5.88894">
        <ele>876</ele>
        <time>2013-09-30T09:24:46Z</time>
      </trkpt>
      <trkpt lat="44.55673" lon="5.88921">
        <ele>880</ele>
        <time>2013-09-30T09:24:58Z</time>
      </trkpt>
      <trkpt lat="44.55675" lon="5.88947">
        <ele>880</ele>
        <time>2013-09-30T09:25:08Z</time>
      </trkpt>
      <trkpt lat="44.55674" lon="5.88975">
        <ele>881</ele>
        <time>2013-09-30T09:25:18Z</time>
      </trkpt>
      <trkpt lat="44.5568" lon="5.89001">
        <ele>884</ele>
        <time>2013-09-30T09:25:30Z</time>
      </trkpt>
      <trkpt lat="44.55677" lon="5.89028">
        <ele>884</ele>
        <time>2013-09-30T09:25:43Z</time>
      </trkpt>
      <trkpt lat="44.55668" lon="5.8905">
        <ele>885</ele>
        <time>2013-09-30T09:25:48Z</time>
      </trkpt>
      <trkpt lat="44.55661" lon="5.89073">
        <ele>898</ele>
        <time>2013-09-30T09:25:56Z</time>
      </trkpt>
      <trkpt lat="44.55663" lon="5.891">
        <ele>900</ele>
        <time>2013-09-30T09:26:08Z</time>
      </trkpt>
      <trkpt lat="44.55664" lon="5.89125">
        <ele>902</ele>
        <time>2013-09-30T09:26:17Z</time>
      </trkpt>
      <trkpt lat="44.55659" lon="5.89153">
        <ele>899</ele>
        <time>2013-09-30T09:26:23Z</time>
      </trkpt>
      <trkpt lat="44.55654" lon="5.89178">
        <ele>896</ele>
        <time>2013-09-30T09:26:34Z</time>
      </trkpt>
      <trkpt lat="44.55645" lon="5.89203">
        <ele>898</ele>
        <time>2013-09-30T09:26:44Z</time>
      </trkpt>
      <trkpt lat="44.55635" lon="5.89226">
        <ele>898</ele>
        <time>2013-09-30T09:26:50Z</time>
      </trkpt>
      <trkpt lat="44.55626" lon="5.89251">
        <ele>896</ele>
        <time>2013-09-30T09:26:56Z</time>
      </trkpt>
      <trkpt lat="44.55619" lon="5.89275">
        <ele>897</ele>
        <time>2013-09-30T09:27:03Z</time>
      </trkpt>
      <trkpt lat="44.55618" lon="5.89303">
        <ele>898</ele>
        <time>2013-09-30T09:27:17Z</time>
      </trkpt>
      <trkpt lat="44.55612" lon="5.89328">
        <ele>900</ele>
        <time>2013-09-30T09:27:23Z</time>
      </trkpt>
      <trkpt lat="44.55606" lon="5.89352">
        <ele>902</ele>
        <time>2013-09-30T09:27:30Z</time>
      </trkpt>
      <trkpt lat="44.55602" lon="5.89379">
        <ele>903</ele>
        <time>2013-09-30T09:27:39Z</time>
      </trkpt>
      <trkpt lat="44.55601" lon="5.89405">
        <ele>906</ele>
        <time>2013-09-30T09:27:46Z</time>
      </trkpt>
      <trkpt lat="44.55597" lon="5.89433">
        <ele>906</ele>
        <time>2013-09-30T09:27:54Z</time>
      </trkpt>
      <trkpt lat="44.5559" lon="5.89457">
        <ele>904</ele>
        <time>2013-09-30T09:28:00Z</time>
      </trkpt>
      <trkpt lat="44.55583" lon="5.89484">
        <ele>922</ele>
        <time>2013-09-30T09:28:06Z</time>
      </trkpt>
      <trkpt lat="44.55573" lon="5.89507">
        <ele>920</ele>
        <time>2013-09-30T09:28:14Z</time>
      </trkpt>
      <trkpt lat="44.55565" lon="5.89534">
        <ele>925</ele>
        <time>2013-09-30T09:28:23Z</time>
      </trkpt>
      <trkpt lat="44.55562" lon="5.89559">
        <ele>924</ele>
        <time>2013-09-30T09:28:29Z</time>
      </trkpt>
      <trkpt lat="44.55554" lon="5.89586">
        <ele>918</ele>
        <time>2013-09-30T09:28:35Z</time>
      </trkpt>
      <trkpt lat="44.55545" lon="5.8961">
        <ele>920</ele>
        <time>2013-09-30T09:28:41Z</time>
      </trkpt>
      <trkpt lat="44.55536" lon="5.89634">
        <ele>920</ele>
        <time>2013-09-30T09:28:47Z</time>
      </trkpt>
      <trkpt lat="44.55528" lon="5.89658">
        <ele>921</ele>
        <time>2013-09-30T09:28:53Z</time>
      </trkpt>
      <trkpt lat="44.55519" lon="5.89681">
        <ele>915</ele>
        <time>2013-09-30T09:29:00Z</time>
      </trkpt>
      <trkpt lat="44.55515" lon="5.8971">
        <ele>911</ele>
        <time>2013-09-30T09:29:05Z</time>
      </trkpt>
      <trkpt lat="44.55508" lon="5.89736">
        <ele>911</ele>
        <time>2013-09-30T09:29:12Z</time>
      </trkpt>
      <trkpt lat="44.55498" lon="5.89763">
        <ele>920</ele>
        <time>2013-09-30T09:29:17Z</time>
      </trkpt>
      <trkpt lat="44.55489" lon="5.89791">
        <ele>922</ele>
        <time>2013-09-30T09:29:21Z</time>
      </trkpt>
      <trkpt lat="44.55481" lon="5.89817">
        <ele>919</ele>
        <time>2013-09-30T09:29:24Z</time>
      </trkpt>
      <trkpt lat="44.55474" lon="5.89843">
        <ele>913</ele>
        <time>2013-09-30T09:29:27Z</time>
      </trkpt>
      <trkpt lat="44.5547" lon="5.89871">
        <ele>913</ele>
        <time>2013-09-30T09:29:30Z</time>
      </trkpt>
      <trkpt lat="44.55472" lon="5.89901">
        <ele>910</ele>
        <time>2013-09-30T09:29:33Z</time>
      </trkpt>
      <trkpt lat="44.55478" lon="5.89927">
        <ele>903</ele>
        <time>2013-09-30T09:29:35Z</time>
      </trkpt>
      <trkpt lat="44.55485" lon="5.89952">
        <ele>903</ele>
        <time>2013-09-30T09:29:37Z</time>
      </trkpt>
      <trkpt lat="44.55491" lon="5.89978">
        <ele>901</ele>
        <time>2013-09-30T09:29:39Z</time>
      </trkpt>
      <trkpt lat="44.55499" lon="5.90008">
        <ele>897</ele>
        <time>2013-09-30T09:29:42Z</time>
      </trkpt>
      <trkpt lat="44.55507" lon="5.90038">
        <ele>896</ele>
        <time>2013-09-30T09:29:45Z</time>
      </trkpt>
      <trkpt lat="44.55513" lon="5.90064">
        <ele>896</ele>
        <time>2013-09-30T09:29:48Z</time>
      </trkpt>
      <trkpt lat="44.55521" lon="5.90087">
        <ele>898</ele>
        <time>2013-09-30T09:29:51Z</time>
      </trkpt>
      <trkpt lat="44.55529" lon="5.90112">
        <ele>897</ele>
        <time>2013-09-30T09:29:54Z</time>
      </trkpt>
      <trkpt lat="44.55534" lon="5.90136">
        <ele>897</ele>
        <time>2013-09-30T09:29:57Z</time>
      </trkpt>
      <trkpt lat="44.55542" lon="5.90158">
        <ele>897</ele>
        <time>2013-09-30T09:30:00Z</time>
      </trkpt>
      <trkpt lat="44.55553" lon="5.90186">
        <ele>898</ele>
        <time>2013-09-30T09:30:04Z</time>
      </trkpt>
      <trkpt lat="44.5556" lon="5.90209">
        <ele>898</ele>
        <time>2013-09-30T09:30:09Z</time>
      </trkpt>
      <trkpt lat="44.55578" lon="5.90226">
        <ele>898</ele>
        <time>2013-09-30T09:31:55Z</time>
      </trkpt>
      <trkpt lat="44.55587" lon="5.90249">
        <ele>896</ele>
        <time>2013-09-30T09:31:58Z</time>
      </trkpt>
      <trkpt lat="44.55596" lon="5.90274">
        <ele>894</ele>
        <time>2013-09-30T09:32:01Z</time>
      </trkpt>
      <trkpt lat="44.55611" lon="5.90296">
        <ele>894</ele>
        <time>2013-09-30T09:32:04Z</time>
      </trkpt>
      <trkpt lat="44.55631" lon="5.90318">
        <ele>892</ele>
        <time>2013-09-30T09:32:07Z</time>
      </trkpt>
      <trkpt lat="44.55647" lon="5.90331">
        <ele>889</ele>
        <time>2013-09-30T09:32:09Z</time>
      </trkpt>
      <trkpt lat="44.55668" lon="5.90347">
        <ele>884</ele>
        <time>2013-09-30T09:32:12Z</time>
      </trkpt>
      <trkpt lat="44.55688" lon="5.90356">
        <ele>884</ele>
        <time>2013-09-30T09:32:17Z</time>
      </trkpt>
      <trkpt lat="44.55709" lon="5.9035">
        <ele>883</ele>
        <time>2013-09-30T09:32:23Z</time>
      </trkpt>
      <trkpt lat="44.55727" lon="5.90343">
        <ele>882</ele>
        <time>2013-09-30T09:32:29Z</time>
      </trkpt>
      <trkpt lat="44.55748" lon="5.90341">
        <ele>882</ele>
        <time>2013-09-30T09:32:36Z</time>
      </trkpt>
      <trkpt lat="44.55767" lon="5.90345">
        <ele>881</ele>
        <time>2013-09-30T09:32:44Z</time>
      </trkpt>
      <trkpt lat="44.55771" lon="5.90376">
        <ele>881</ele>
        <time>2013-09-30T09:32:49Z</time>
      </trkpt>
      <trkpt lat="44.55776" lon="5.90401">
        <ele>881</ele>
        <time>2013-09-30T09:32:53Z</time>
      </trkpt>
      <trkpt lat="44.55782" lon="5.90426">
        <ele>881</ele>
        <time>2013-09-30T09:32:57Z</time>
      </trkpt>
      <trkpt lat="44.55789" lon="5.90453">
        <ele>881</ele>
        <time>2013-09-30T09:33:02Z</time>
      </trkpt>
      <trkpt lat="44.55798" lon="5.9048">
        <ele>882</ele>
        <time>2013-09-30T09:33:09Z</time>
      </trkpt>
      <trkpt lat="44.55802" lon="5.90507">
        <ele>882</ele>
        <time>2013-09-30T09:33:15Z</time>
      </trkpt>
      <trkpt lat="44.55793" lon="5.90529">
        <ele>882</ele>
        <time>2013-09-30T09:33:27Z</time>
      </trkpt>
      <trkpt lat="44.55779" lon="5.90545">
        <ele>883</ele>
        <time>2013-09-30T09:33:54Z</time>
      </trkpt>
      <trkpt lat="44.55782" lon="5.90573">
        <ele>883</ele>
        <time>2013-09-30T09:34:04Z</time>
      </trkpt>
      <trkpt lat="44.55786" lon="5.90602">
        <ele>883</ele>
        <time>2013-09-30T09:34:14Z</time>
      </trkpt>
      <trkpt lat="44.55796" lon="5.9063">
        <ele>883</ele>
        <time>2013-09-30T09:34:23Z</time>
      </trkpt>
      <trkpt lat="44.55803" lon="5.90667">
        <ele>884</ele>
        <time>2013-09-30T09:34:33Z</time>
      </trkpt>
      <trkpt lat="44.55809" lon="5.90694">
        <ele>884</ele>
        <time>2013-09-30T09:34:38Z</time>
      </trkpt>
      <trkpt lat="44.55812" lon="5.9072">
        <ele>884</ele>
        <time>2013-09-30T09:34:41Z</time>
      </trkpt>
      <trkpt lat="44.55814" lon="5.90749">
        <ele>884</ele>
        <time>2013-09-30T09:34:45Z</time>
      </trkpt>
      <trkpt lat="44.55821" lon="5.90785">
        <ele>885</ele>
        <time>2013-09-30T09:34:50Z</time>
      </trkpt>
      <trkpt lat="44.55825" lon="5.90813">
        <ele>884</ele>
        <time>2013-09-30T09:34:54Z</time>
      </trkpt>
      <trkpt lat="44.55831" lon="5.90839">
        <ele>884</ele>
        <time>2013-09-30T09:34:59Z</time>
      </trkpt>
      <trkpt lat="44.55838" lon="5.90866">
        <ele>884</ele>
        <time>2013-09-30T09:35:04Z</time>
      </trkpt>
      <trkpt lat="44.55843" lon="5.90893">
        <ele>885</ele>
        <time>2013-09-30T09:35:10Z</time>
      </trkpt>
      <trkpt lat="44.55851" lon="5.90927">
        <ele>886</ele>
        <time>2013-09-30T09:35:17Z</time>
      </trkpt>
      <trkpt lat="44.5586" lon="5.90954">
        <ele>886</ele>
        <time>2013-09-30T09:35:23Z</time>
      </trkpt>
      <trkpt lat="44.55869" lon="5.90978">
        <ele>886</ele>
        <time>2013-09-30T09:35:29Z</time>
      </trkpt>
      <trkpt lat="44.55878" lon="5.91009">
        <ele>886</ele>
        <time>2013-09-30T09:35:35Z</time>
      </trkpt>
      <trkpt lat="44.55883" lon="5.91034">
        <ele>887</ele>
        <time>2013-09-30T09:35:40Z</time>
      </trkpt>
      <trkpt lat="44.55886" lon="5.91066">
        <ele>887</ele>
        <time>2013-09-30T09:35:46Z</time>
      </trkpt>
      <trkpt lat="44.55891" lon="5.91091">
        <ele>887</ele>
        <time>2013-09-30T09:35:51Z</time>
      </trkpt>
      <trkpt lat="44.55896" lon="5.91115">
        <ele>887</ele>
        <time>2013-09-30T09:35:56Z</time>
      </trkpt>
      <trkpt lat="44.55901" lon="5.9114">
        <ele>887</ele>
        <time>2013-09-30T09:36:01Z</time>
      </trkpt>
      <trkpt lat="44.55907" lon="5.91165">
        <ele>887</ele>
        <time>2013-09-30T09:36:06Z</time>
      </trkpt>
      <trkpt lat="44.55913" lon="5.91194">
        <ele>887</ele>
        <time>2013-09-30T09:36:11Z</time>
      </trkpt>
      <trkpt lat="44.55916" lon="5.91223">
        <ele>887</ele>
        <time>2013-09-30T09:36:18Z</time>
      </trkpt>
      <trkpt lat="44.5592" lon="5.91258">
        <ele>887</ele>
        <time>2013-09-30T09:36:26Z</time>
      </trkpt>
      <trkpt lat="44.55925" lon="5.91283">
        <ele>887</ele>
        <time>2013-09-30T09:36:31Z</time>
      </trkpt>
      <trkpt lat="44.55935" lon="5.91315">
        <ele>887</ele>
        <time>2013-09-30T09:36:38Z</time>
      </trkpt>
      <trkpt lat="44.55937" lon="5.91343">
        <ele>887</ele>
        <time>2013-09-30T09:36:44Z</time>
      </trkpt>
      <trkpt lat="44.5594" lon="5.91371">
        <ele>887</ele>
        <time>2013-09-30T09:36:50Z</time>
      </trkpt>
      <trkpt lat="44.55943" lon="5.91399">
        <ele>887</ele>
        <time>2013-09-30T09:36:55Z</time>
      </trkpt>
      <trkpt lat="44.55947" lon="5.91427">
        <ele>887</ele>
        <time>2013-09-30T09:37:00Z</time>
      </trkpt>
      <trkpt lat="44.5595" lon="5.91453">
        <ele>887</ele>
        <time>2013-09-30T09:37:16Z</time>
      </trkpt>
      <trkpt lat="44.55957" lon="5.91478">
        <ele>887</ele>
        <time>2013-09-30T09:37:24Z</time>
      </trkpt>
      <trkpt lat="44.55965" lon="5.91501">
        <ele>888</ele>
        <time>2013-09-30T09:37:37Z</time>
      </trkpt>
      <trkpt lat="44.55973" lon="5.91526">
        <ele>888</ele>
        <time>2013-09-30T09:37:45Z</time>
      </trkpt>
      <trkpt lat="44.55981" lon="5.91554">
        <ele>889</ele>
        <time>2013-09-30T09:37:52Z</time>
      </trkpt>
      <trkpt lat="44.55986" lon="5.91581">
        <ele>889</ele>
        <time>2013-09-30T09:37:56Z</time>
      </trkpt>
      <trkpt lat="44.5599" lon="5.9161">
        <ele>890</ele>
        <time>2013-09-30T09:37:59Z</time>
      </trkpt>
      <trkpt lat="44.55996" lon="5.91637">
        <ele>890</ele>
        <time>2013-09-30T09:38:04Z</time>
      </trkpt>
      <trkpt lat="44.56001" lon="5.91663">
        <ele>891</ele>
        <time>2013-09-30T09:38:11Z</time>
      </trkpt>
      <trkpt lat="44.56004" lon="5.91688">
        <ele>892</ele>
        <time>2013-09-30T09:38:23Z</time>
      </trkpt>
      <trkpt lat="44.56003" lon="5.91663">
        <ele>891</ele>
        <time>2013-09-30T09:39:20Z</time>
      </trkpt>
      <trkpt lat="44.55994" lon="5.91637">
        <ele>890</ele>
        <time>2013-09-30T09:39:26Z</time>
      </trkpt>
      <trkpt lat="44.55986" lon="5.91613">
        <ele>890</ele>
        <time>2013-09-30T09:39:32Z</time>
      </trkpt>
      <trkpt lat="44.55979" lon="5.91588">
        <ele>890</ele>
        <time>2013-09-30T09:39:39Z</time>
      </trkpt>
      <trkpt lat="44.55975" lon="5.9156">
        <ele>889</ele>
        <time>2013-09-30T09:39:48Z</time>
      </trkpt>
      <trkpt lat="44.55974" lon="5.9153">
        <ele>888</ele>
        <time>2013-09-30T09:40:01Z</time>
      </trkpt>
      <trkpt lat="44.55969" lon="5.91506">
        <ele>888</ele>
        <time>2013-09-30T09:40:05Z</time>
      </trkpt>
      <trkpt lat="44.55963" lon="5.91481">
        <ele>887</ele>
        <time>2013-09-30T09:40:08Z</time>
      </trkpt>
      <trkpt lat="44.55945" lon="5.91459">
        <ele>887</ele>
        <time>2013-09-30T09:40:13Z</time>
      </trkpt>
      <trkpt lat="44.55926" lon="5.91454">
        <ele>887</ele>
        <time>2013-09-30T09:40:17Z</time>
      </trkpt>
      <trkpt lat="44.55907" lon="5.91453">
        <ele>891</ele>
        <time>2013-09-30T09:40:22Z</time>
      </trkpt>
      <trkpt lat="44.55888" lon="5.91453">
        <ele>893</ele>
        <time>2013-09-30T09:40:34Z</time>
      </trkpt>
      <trkpt lat="44.55873" lon="5.91438">
        <ele>894</ele>
        <time>2013-09-30T09:40:42Z</time>
      </trkpt>
      <trkpt lat="44.55889" lon="5.9145">
        <ele>893</ele>
        <time>2013-09-30T09:43:29Z</time>
      </trkpt>
      <trkpt lat="44.55878" lon="5.91471">
        <ele>893</ele>
        <time>2013-09-30T09:43:46Z</time>
      </trkpt>
      <trkpt lat="44.55882" lon="5.91497">
        <ele>893</ele>
        <time>2013-09-30T09:44:09Z</time>
      </trkpt>
      <trkpt lat="44.55889" lon="5.9152">
        <ele>891</ele>
        <time>2013-09-30T09:44:24Z</time>
      </trkpt>
      <trkpt lat="44.55892" lon="5.91546">
        <ele>892</ele>
        <time>2013-09-30T09:44:42Z</time>
      </trkpt>
      <trkpt lat="44.55904" lon="5.91566">
        <ele>891</ele>
        <time>2013-09-30T09:44:51Z</time>
      </trkpt>
      <trkpt lat="44.55911" lon="5.91592">
        <ele>890</ele>
        <time>2013-09-30T09:45:04Z</time>
      </trkpt>
      <trkpt lat="44.55894" lon="5.91601">
        <ele>891</ele>
        <time>2013-09-30T09:49:00Z</time>
      </trkpt>
      <trkpt lat="44.55889" lon="5.91626">
        <ele>892</ele>
        <time>2013-09-30T09:50:29Z</time>
      </trkpt>
      <trkpt lat="44.5587" lon="5.91629">
        <ele>892</ele>
        <time>2013-09-30T09:50:50Z</time>
      </trkpt>
      <trkpt lat="44.55874" lon="5.91654">
        <ele>892</ele>
        <time>2013-09-30T09:51:07Z</time>
      </trkpt>
      <trkpt lat="44.5587" lon="5.91681">
        <ele>892</ele>
        <time>2013-09-30T09:51:16Z</time>
      </trkpt>
      <trkpt lat="44.55864" lon="5.91706">
        <ele>892</ele>
        <time>2013-09-30T09:51:25Z</time>
      </trkpt>
      <trkpt lat="44.55856" lon="5.91729">
        <ele>892</ele>
        <time>2013-09-30T09:51:31Z</time>
      </trkpt>
      <trkpt lat="44.55847" lon="5.91753">
        <ele>893</ele>
        <time>2013-09-30T09:51:37Z</time>
      </trkpt>
      <trkpt lat="44.55837" lon="5.91775">
        <ele>893</ele>
        <time>2013-09-30T09:51:43Z</time>
      </trkpt>
      <trkpt lat="44.55824" lon="5.91793">
        <ele>898</ele>
        <time>2013-09-30T09:51:53Z</time>
      </trkpt>
      <trkpt lat="44.55805" lon="5.91806">
        <ele>899</ele>
        <time>2013-09-30T09:52:00Z</time>
      </trkpt>
      <trkpt lat="44.55793" lon="5.91825">
        <ele>899</ele>
        <time>2013-09-30T09:52:11Z</time>
      </trkpt>
      <trkpt lat="44.55782" lon="5.91849">
        <ele>898</ele>
        <time>2013-09-30T09:52:18Z</time>
      </trkpt>
      <trkpt lat="44.55774" lon="5.91873">
        <ele>898</ele>
        <time>2013-09-30T09:52:25Z</time>
      </trkpt>
      <trkpt lat="44.55765" lon="5.919">
        <ele>897</ele>
        <time>2013-09-30T09:52:32Z</time>
      </trkpt>
      <trkpt lat="44.55753" lon="5.91921">
        <ele>897</ele>
        <time>2013-09-30T09:52:37Z</time>
      </trkpt>
      <trkpt lat="44.55757" lon="5.91948">
        <ele>895</ele>
        <time>2013-09-30T09:52:44Z</time>
      </trkpt>
      <trkpt lat="44.55754" lon="5.91975">
        <ele>895</ele>
        <time>2013-09-30T09:52:53Z</time>
      </trkpt>
      <trkpt lat="44.55741" lon="5.91995">
        <ele>898</ele>
        <time>2013-09-30T09:53:02Z</time>
      </trkpt>
      <trkpt lat="44.55733" lon="5.9202">
        <ele>897</ele>
        <time>2013-09-30T09:53:06Z</time>
      </trkpt>
      <trkpt lat="44.55728" lon="5.92045">
        <ele>898</ele>
        <time>2013-09-30T09:53:11Z</time>
      </trkpt>
      <trkpt lat="44.55721" lon="5.9207">
        <ele>898</ele>
        <time>2013-09-30T09:53:20Z</time>
      </trkpt>
      <trkpt lat="44.55716" lon="5.92095">
        <ele>898</ele>
        <time>2013-09-30T09:53:30Z</time>
      </trkpt>
      <trkpt lat="44.55698" lon="5.92102">
        <ele>899</ele>
        <time>2013-09-30T09:53:45Z</time>
      </trkpt>
      <trkpt lat="44.55686" lon="5.92124">
        <ele>899</ele>
        <time>2013-09-30T09:53:53Z</time>
      </trkpt>
      <trkpt lat="44.55676" lon="5.92147">
        <ele>901</ele>
        <time>2013-09-30T09:54:01Z</time>
      </trkpt>
      <trkpt lat="44.5569" lon="5.92168">
        <ele>901</ele>
        <time>2013-09-30T09:54:12Z</time>
      </trkpt>
      <trkpt lat="44.55692" lon="5.92196">
        <ele>901</ele>
        <time>2013-09-30T09:54:23Z</time>
      </trkpt>
      <trkpt lat="44.55685" lon="5.92225">
        <ele>901</ele>
        <time>2013-09-30T09:54:28Z</time>
      </trkpt>
      <trkpt lat="44.55688" lon="5.92254">
        <ele>901</ele>
        <time>2013-09-30T09:54:31Z</time>
      </trkpt>
      <trkpt lat="44.55694" lon="5.92283">
        <ele>899</ele>
        <time>2013-09-30T09:54:34Z</time>
      </trkpt>
      <trkpt lat="44.55689" lon="5.92309">
        <ele>899</ele>
        <time>2013-09-30T09:54:39Z</time>
      </trkpt>
      <trkpt lat="44.55683" lon="5.92337">
        <ele>899</ele>
        <time>2013-09-30T09:54:45Z</time>
      </trkpt>
      <trkpt lat="44.55682" lon="5.92366">
        <ele>898</ele>
        <time>2013-09-30T09:54:53Z</time>
      </trkpt>
      <trkpt lat="44.55669" lon="5.9239">
        <ele>899</ele>
        <time>2013-09-30T09:54:58Z</time>
      </trkpt>
      <trkpt lat="44.55648" lon="5.92403">
        <ele>902</ele>
        <time>2013-09-30T09:55:06Z</time>
      </trkpt>
      <trkpt lat="44.55632" lon="5.92425">
        <ele>903</ele>
        <time>2013-09-30T09:55:10Z</time>
      </trkpt>
      <trkpt lat="44.55622" lon="5.92451">
        <ele>903</ele>
        <time>2013-09-30T09:55:15Z</time>
      </trkpt>
      <trkpt lat="44.55609" lon="5.92468">
        <ele>904</ele>
        <time>2013-09-30T09:55:21Z</time>
      </trkpt>
      <trkpt lat="44.55614" lon="5.92493">
        <ele>904</ele>
        <time>2013-09-30T09:55:27Z</time>
      </trkpt>
      <trkpt lat="44.55622" lon="5.9252">
        <ele>903</ele>
        <time>2013-09-30T09:55:32Z</time>
      </trkpt>
      <trkpt lat="44.55629" lon="5.92545">
        <ele>903</ele>
        <time>2013-09-30T09:55:37Z</time>
      </trkpt>
      <trkpt lat="44.55635" lon="5.92572">
        <ele>902</ele>
        <time>2013-09-30T09:55:43Z</time>
      </trkpt>
      <trkpt lat="44.55635" lon="5.926">
        <ele>902</ele>
        <time>2013-09-30T09:55:50Z</time>
      </trkpt>
      <trkpt lat="44.55634" lon="5.92629">
        <ele>902</ele>
        <time>2013-09-30T09:55:57Z</time>
      </trkpt>
      <trkpt lat="44.55632" lon="5.92654">
        <ele>902</ele>
        <time>2013-09-30T09:56:02Z</time>
      </trkpt>
      <trkpt lat="44.55627" lon="5.92681">
        <ele>903</ele>
        <time>2013-09-30T09:56:08Z</time>
      </trkpt>
      <trkpt lat="44.55626" lon="5.92707">
        <ele>903</ele>
        <time>2013-09-30T09:56:13Z</time>
      </trkpt>
      <trkpt lat="44.55625" lon="5.92733">
        <ele>904</ele>
        <time>2013-09-30T09:56:17Z</time>
      </trkpt>
      <trkpt lat="44.55625" lon="5.9276">
        <ele>904</ele>
        <time>2013-09-30T09:56:21Z</time>
      </trkpt>
      <trkpt lat="44.55617" lon="5.92786">
        <ele>905</ele>
        <time>2013-09-30T09:56:27Z</time>
      </trkpt>
      <trkpt lat="44.55607" lon="5.92808">
        <ele>905</ele>
        <time>2013-09-30T09:56:35Z</time>
      </trkpt>
      <trkpt lat="44.55594" lon="5.9283">
        <ele>907</ele>
        <time>2013-09-30T09:56:42Z</time>
      </trkpt>
      <trkpt lat="44.55578" lon="5.92842">
        <ele>911</ele>
        <time>2013-09-30T09:56:50Z</time>
      </trkpt>
      <trkpt lat="44.55567" lon="5.92862">
        <ele>914</ele>
        <time>2013-09-30T09:56:59Z</time>
      </trkpt>
      <trkpt lat="44.55561" lon="5.92886">
        <ele>914</ele>
        <time>2013-09-30T09:57:06Z</time>
      </trkpt>
      <trkpt lat="44.5555" lon="5.92907">
        <ele>915</ele>
        <time>2013-09-30T09:57:12Z</time>
      </trkpt>
      <trkpt lat="44.55535" lon="5.92927">
        <ele>914</ele>
        <time>2013-09-30T09:57:17Z</time>
      </trkpt>
      <trkpt lat="44.55525" lon="5.92949">
        <ele>915</ele>
        <time>2013-09-30T09:57:21Z</time>
      </trkpt>
      <trkpt lat="44.55514" lon="5.9297">
        <ele>915</ele>
        <time>2013-09-30T09:57:25Z</time>
      </trkpt>
      <trkpt lat="44.55501" lon="5.92995">
        <ele>916</ele>
        <time>2013-09-30T09:57:31Z</time>
      </trkpt>
      <trkpt lat="44.55495" lon="5.93025">
        <ele>925</ele>
        <time>2013-09-30T09:57:35Z</time>
      </trkpt>
      <trkpt lat="44.55492" lon="5.93052">
        <ele>925</ele>
        <time>2013-09-30T09:57:40Z</time>
      </trkpt>
      <trkpt lat="44.5549" lon="5.93081">
        <ele>920</ele>
        <time>2013-09-30T09:57:46Z</time>
      </trkpt>
      <trkpt lat="44.55485" lon="5.93106">
        <ele>921</ele>
        <time>2013-09-30T09:57:51Z</time>
      </trkpt>
      <trkpt lat="44.55477" lon="5.93135">
        <ele>923</ele>
        <time>2013-09-30T09:57:57Z</time>
      </trkpt>
      <trkpt lat="44.55466" lon="5.93161">
        <ele>923</ele>
        <time>2013-09-30T09:58:02Z</time>
      </trkpt>
      <trkpt lat="44.55457" lon="5.93186">
        <ele>923</ele>
        <time>2013-09-30T09:58:08Z</time>
      </trkpt>
      <trkpt lat="44.55456" lon="5.93215">
        <ele>924</ele>
        <time>2013-09-30T09:58:15Z</time>
      </trkpt>
      <trkpt lat="44.55458" lon="5.93246">
        <ele>923</ele>
        <time>2013-09-30T09:58:20Z</time>
      </trkpt>
      <trkpt lat="44.5546" lon="5.93272">
        <ele>922</ele>
        <time>2013-09-30T09:58:25Z</time>
      </trkpt>
      <trkpt lat="44.55469" lon="5.93297">
        <ele>920</ele>
        <time>2013-09-30T09:58:59Z</time>
      </trkpt>
      <trkpt lat="44.55467" lon="5.93325">
        <ele>920</ele>
        <time>2013-09-30T09:59:05Z</time>
      </trkpt>
      <trkpt lat="44.55456" lon="5.93349">
        <ele>918</ele>
        <time>2013-09-30T09:59:09Z</time>
      </trkpt>
      <trkpt lat="44.55447" lon="5.93372">
        <ele>919</ele>
        <time>2013-09-30T09:59:13Z</time>
      </trkpt>
      <trkpt lat="44.55437" lon="5.934">
        <ele>919</ele>
        <time>2013-09-30T09:59:17Z</time>
      </trkpt>
      <trkpt lat="44.55428" lon="5.93427">
        <ele>918</ele>
        <time>2013-09-30T09:59:22Z</time>
      </trkpt>
      <trkpt lat="44.55424" lon="5.93457">
        <ele>916</ele>
        <time>2013-09-30T09:59:27Z</time>
      </trkpt>
      <trkpt lat="44.55421" lon="5.93485">
        <ele>916</ele>
        <time>2013-09-30T09:59:32Z</time>
      </trkpt>
      <trkpt lat="44.55423" lon="5.93517">
        <ele>915</ele>
        <time>2013-09-30T09:59:37Z</time>
      </trkpt>
      <trkpt lat="44.55425" lon="5.93545">
        <ele>914</ele>
        <time>2013-09-30T09:59:42Z</time>
      </trkpt>
      <trkpt lat="44.55417" lon="5.93571">
        <ele>914</ele>
        <time>2013-09-30T09:59:47Z</time>
      </trkpt>
      <trkpt lat="44.55411" lon="5.93596">
        <ele>920</ele>
        <time>2013-09-30T09:59:52Z</time>
      </trkpt>
      <trkpt lat="44.55406" lon="5.93622">
        <ele>924</ele>
        <time>2013-09-30T09:59:57Z</time>
      </trkpt>
      <trkpt lat="44.55395" lon="5.93647">
        <ele>924</ele>
        <time>2013-09-30T10:00:02Z</time>
      </trkpt>
      <trkpt lat="44.55383" lon="5.93671">
        <ele>923</ele>
        <time>2013-09-30T10:00:07Z</time>
      </trkpt>
      <trkpt lat="44.55376" lon="5.93697">
        <ele>924</ele>
        <time>2013-09-30T10:00:12Z</time>
      </trkpt>
      <trkpt lat="44.55363" lon="5.93723">
        <ele>924</ele>
        <time>2013-09-30T10:00:17Z</time>
      </trkpt>
      <trkpt lat="44.55353" lon="5.93746">
        <ele>924</ele>
        <time>2013-09-30T10:00:21Z</time>
      </trkpt>
      <trkpt lat="44.55343" lon="5.93768">
        <ele>921</ele>
        <time>2013-09-30T10:00:25Z</time>
      </trkpt>
      <trkpt lat="44.55329" lon="5.9379">
        <ele>931</ele>
        <time>2013-09-30T10:00:29Z</time>
      </trkpt>
      <trkpt lat="44.55314" lon="5.93814">
        <ele>929</ele>
        <time>2013-09-30T10:00:33Z</time>
      </trkpt>
      <trkpt lat="44.55304" lon="5.93837">
        <ele>924</ele>
        <time>2013-09-30T10:00:37Z</time>
      </trkpt>
      <trkpt lat="44.55295" lon="5.93861">
        <ele>925</ele>
        <time>2013-09-30T10:00:41Z</time>
      </trkpt>
      <trkpt lat="44.55298" lon="5.93888">
        <ele>923</ele>
        <time>2013-09-30T10:00:46Z</time>
      </trkpt>
      <trkpt lat="44.55301" lon="5.93914">
        <ele>922</ele>
        <time>2013-09-30T10:00:50Z</time>
      </trkpt>
      <trkpt lat="44.55296" lon="5.9394">
        <ele>919</ele>
        <time>2013-09-30T10:00:55Z</time>
      </trkpt>
      <trkpt lat="44.55285" lon="5.93964">
        <ele>919</ele>
        <time>2013-09-30T10:01:01Z</time>
      </trkpt>
      <trkpt lat="44.55279" lon="5.93988">
        <ele>919</ele>
        <time>2013-09-30T10:01:07Z</time>
      </trkpt>
      <trkpt lat="44.55274" lon="5.94012">
        <ele>919</ele>
        <time>2013-09-30T10:01:12Z</time>
      </trkpt>
      <trkpt lat="44.55275" lon="5.94039">
        <ele>918</ele>
        <time>2013-09-30T10:01:17Z</time>
      </trkpt>
      <trkpt lat="44.55275" lon="5.94071">
        <ele>919</ele>
        <time>2013-09-30T10:01:22Z</time>
      </trkpt>
      <trkpt lat="44.55275" lon="5.94103">
        <ele>919</ele>
        <time>2013-09-30T10:01:26Z</time>
      </trkpt>
      <trkpt lat="44.55274" lon="5.9413">
        <ele>919</ele>
        <time>2013-09-30T10:01:31Z</time>
      </trkpt>
      <trkpt lat="44.55274" lon="5.9416">
        <ele>919</ele>
        <time>2013-09-30T10:01:36Z</time>
      </trkpt>
      <trkpt lat="44.55273" lon="5.94185">
        <ele>919</ele>
        <time>2013-09-30T10:01:40Z</time>
      </trkpt>
      <trkpt lat="44.55274" lon="5.94214">
        <ele>919</ele>
        <time>2013-09-30T10:01:45Z</time>
      </trkpt>
      <trkpt lat="44.55273" lon="5.94241">
        <ele>919</ele>
        <time>2013-09-30T10:01:50Z</time>
      </trkpt>
      <trkpt lat="44.55271" lon="5.94272">
        <ele>920</ele>
        <time>2013-09-30T10:01:55Z</time>
      </trkpt>
      <trkpt lat="44.5527" lon="5.94298">
        <ele>921</ele>
        <time>2013-09-30T10:01:59Z</time>
      </trkpt>
      <trkpt lat="44.5527" lon="5.94324">
        <ele>921</ele>
        <time>2013-09-30T10:02:04Z</time>
      </trkpt>
      <trkpt lat="44.55271" lon="5.94352">
        <ele>923</ele>
        <time>2013-09-30T10:02:10Z</time>
      </trkpt>
      <trkpt lat="44.55279" lon="5.94378">
        <ele>924</ele>
        <time>2013-09-30T10:05:25Z</time>
      </trkpt>
      <trkpt lat="44.55286" lon="5.94403">
        <ele>924</ele>
        <time>2013-09-30T10:05:31Z</time>
      </trkpt>
      <trkpt lat="44.55291" lon="5.94428">
        <ele>925</ele>
        <time>2013-09-30T10:05:36Z</time>
      </trkpt>
      <trkpt lat="44.55295" lon="5.94453">
        <ele>925</ele>
        <time>2013-09-30T10:05:41Z</time>
      </trkpt>
      <trkpt lat="44.55296" lon="5.94481">
        <ele>925</ele>
        <time>2013-09-30T10:05:47Z</time>
      </trkpt>
      <trkpt lat="44.55292" lon="5.94509">
        <ele>926</ele>
        <time>2013-09-30T10:05:52Z</time>
      </trkpt>
      <trkpt lat="44.55285" lon="5.94538">
        <ele>926</ele>
        <time>2013-09-30T10:05:56Z</time>
      </trkpt>
      <trkpt lat="44.55273" lon="5.94558">
        <ele>927</ele>
        <time>2013-09-30T10:06:00Z</time>
      </trkpt>
      <trkpt lat="44.55261" lon="5.94576">
        <ele>927</ele>
        <time>2013-09-30T10:06:04Z</time>
      </trkpt>
      <trkpt lat="44.55247" lon="5.94597">
        <ele>930</ele>
        <time>2013-09-30T10:06:09Z</time>
      </trkpt>
      <trkpt lat="44.55235" lon="5.94616">
        <ele>930</ele>
        <time>2013-09-30T10:06:14Z</time>
      </trkpt>
      <trkpt lat="44.55223" lon="5.94639">
        <ele>930</ele>
        <time>2013-09-30T10:06:20Z</time>
      </trkpt>
      <trkpt lat="44.55213" lon="5.9466">
        <ele>930</ele>
        <time>2013-09-30T10:06:25Z</time>
      </trkpt>
      <trkpt lat="44.55203" lon="5.94686">
        <ele>928</ele>
        <time>2013-09-30T10:06:30Z</time>
      </trkpt>
      <trkpt lat="44.55197" lon="5.94715">
        <ele>928</ele>
        <time>2013-09-30T10:06:35Z</time>
      </trkpt>
      <trkpt lat="44.552" lon="5.94744">
        <ele>928</ele>
        <time>2013-09-30T10:06:41Z</time>
      </trkpt>
      <trkpt lat="44.55202" lon="5.94769">
        <ele>928</ele>
        <time>2013-09-30T10:06:47Z</time>
      </trkpt>
      <trkpt lat="44.552" lon="5.94796">
        <ele>928</ele>
        <time>2013-09-30T10:06:52Z</time>
      </trkpt>
      <trkpt lat="44.55191" lon="5.94824">
        <ele>929</ele>
        <time>2013-09-30T10:06:58Z</time>
      </trkpt>
      <trkpt lat="44.55182" lon="5.94848">
        <ele>929</ele>
        <time>2013-09-30T10:07:03Z</time>
      </trkpt>
      <trkpt lat="44.55172" lon="5.94875">
        <ele>929</ele>
        <time>2013-09-30T10:07:08Z</time>
      </trkpt>
      <trkpt lat="44.55163" lon="5.94898">
        <ele>931</ele>
        <time>2013-09-30T10:07:12Z</time>
      </trkpt>
      <trkpt lat="44.55156" lon="5.94923">
        <ele>930</ele>
        <time>2013-09-30T10:07:17Z</time>
      </trkpt>
      <trkpt lat="44.55152" lon="5.94952">
        <ele>931</ele>
        <time>2013-09-30T10:07:22Z</time>
      </trkpt>
      <trkpt lat="44.55145" lon="5.94977">
        <ele>931</ele>
        <time>2013-09-30T10:07:27Z</time>
      </trkpt>
      <trkpt lat="44.55135" lon="5.95003">
        <ele>930</ele>
        <time>2013-09-30T10:07:32Z</time>
      </trkpt>
      <trkpt lat="44.55129" lon="5.95027">
        <ele>931</ele>
        <time>2013-09-30T10:07:36Z</time>
      </trkpt>
      <trkpt lat="44.55123" lon="5.95054">
        <ele>931</ele>
        <time>2013-09-30T10:07:41Z</time>
      </trkpt>
      <trkpt lat="44.55116" lon="5.9508">
        <ele>931</ele>
        <time>2013-09-30T10:07:46Z</time>
      </trkpt>
      <trkpt lat="44.5511" lon="5.95108">
        <ele>931</ele>
        <time>2013-09-30T10:07:51Z</time>
      </trkpt>
      <trkpt lat="44.55101" lon="5.95134">
        <ele>931</ele>
        <time>2013-09-30T10:07:56Z</time>
      </trkpt>
      <trkpt lat="44.55092" lon="5.95158">
        <ele>932</ele>
        <time>2013-09-30T10:08:00Z</time>
      </trkpt>
      <trkpt lat="44.55084" lon="5.95185">
        <ele>932</ele>
        <time>2013-09-30T10:08:05Z</time>
      </trkpt>
      <trkpt lat="44.55075" lon="5.9521">
        <ele>934</ele>
        <time>2013-09-30T10:08:10Z</time>
      </trkpt>
      <trkpt lat="44.55066" lon="5.95238">
        <ele>934</ele>
        <time>2013-09-30T10:08:15Z</time>
      </trkpt>
      <trkpt lat="44.55058" lon="5.95261">
        <ele>934</ele>
        <time>2013-09-30T10:08:19Z</time>
      </trkpt>
      <trkpt lat="44.55049" lon="5.95289">
        <ele>934</ele>
        <time>2013-09-30T10:08:24Z</time>
      </trkpt>
      <trkpt lat="44.5504" lon="5.95312">
        <ele>934</ele>
        <time>2013-09-30T10:08:28Z</time>
      </trkpt>
      <trkpt lat="44.55033" lon="5.95337">
        <ele>934</ele>
        <time>2013-09-30T10:08:32Z</time>
      </trkpt>
      <trkpt lat="44.55025" lon="5.95361">
        <ele>934</ele>
        <time>2013-09-30T10:08:36Z</time>
      </trkpt>
      <trkpt lat="44.55016" lon="5.95388">
        <ele>934</ele>
        <time>2013-09-30T10:08:41Z</time>
      </trkpt>
      <trkpt lat="44.55008" lon="5.95412">
        <ele>934</ele>
        <time>2013-09-30T10:08:45Z</time>
      </trkpt>
      <trkpt lat="44.55" lon="5.95437">
        <ele>935</ele>
        <time>2013-09-30T10:08:49Z</time>
      </trkpt>
      <trkpt lat="44.54991" lon="5.95464">
        <ele>935</ele>
        <time>2013-09-30T10:08:54Z</time>
      </trkpt>
      <trkpt lat="44.54982" lon="5.95487">
        <ele>935</ele>
        <time>2013-09-30T10:08:58Z</time>
      </trkpt>
      <trkpt lat="44.54974" lon="5.9551">
        <ele>936</ele>
        <time>2013-09-30T10:09:02Z</time>
      </trkpt>
      <trkpt lat="44.54966" lon="5.95538">
        <ele>936</ele>
        <time>2013-09-30T10:09:07Z</time>
      </trkpt>
      <trkpt lat="44.54963" lon="5.95563">
        <ele>936</ele>
        <time>2013-09-30T10:09:13Z</time>
      </trkpt>
      <trkpt lat="44.54967" lon="5.95591">
        <ele>936</ele>
        <time>2013-09-30T10:10:08Z</time>
      </trkpt>
      <trkpt lat="44.54968" lon="5.95619">
        <ele>936</ele>
        <time>2013-09-30T10:10:13Z</time>
      </trkpt>
      <trkpt lat="44.54965" lon="5.95651">
        <ele>936</ele>
        <time>2013-09-30T10:10:18Z</time>
      </trkpt>
      <trkpt lat="44.5496" lon="5.95679">
        <ele>936</ele>
        <time>2013-09-30T10:10:23Z</time>
      </trkpt>
      <trkpt lat="44.54952" lon="5.95706">
        <ele>936</ele>
        <time>2013-09-30T10:10:28Z</time>
      </trkpt>
      <trkpt lat="44.54944" lon="5.95731">
        <ele>936</ele>
        <time>2013-09-30T10:10:33Z</time>
      </trkpt>
      <trkpt lat="44.54936" lon="5.95757">
        <ele>937</ele>
        <time>2013-09-30T10:10:38Z</time>
      </trkpt>
      <trkpt lat="44.5493" lon="5.95781">
        <ele>937</ele>
        <time>2013-09-30T10:10:43Z</time>
      </trkpt>
      <trkpt lat="44.54923" lon="5.95808">
        <ele>937</ele>
        <time>2013-09-30T10:10:49Z</time>
      </trkpt>
      <trkpt lat="44.54914" lon="5.95834">
        <ele>938</ele>
        <time>2013-09-30T10:10:55Z</time>
      </trkpt>
      <trkpt lat="44.54906" lon="5.95861">
        <ele>939</ele>
        <time>2013-09-30T10:11:01Z</time>
      </trkpt>
      <trkpt lat="44.549" lon="5.95885">
        <ele>939</ele>
        <time>2013-09-30T10:11:07Z</time>
      </trkpt>
      <trkpt lat="44.54895" lon="5.9591">
        <ele>939</ele>
        <time>2013-09-30T10:11:12Z</time>
      </trkpt>
      <trkpt lat="44.54891" lon="5.95936">
        <ele>940</ele>
        <time>2013-09-30T10:11:18Z</time>
      </trkpt>
      <trkpt lat="44.54887" lon="5.95961">
        <ele>941</ele>
        <time>2013-09-30T10:11:23Z</time>
      </trkpt>
      <trkpt lat="44.54883" lon="5.95986">
        <ele>941</ele>
        <time>2013-09-30T10:11:28Z</time>
      </trkpt>
      <trkpt lat="44.54878" lon="5.96015">
        <ele>942</ele>
        <time>2013-09-30T10:11:34Z</time>
      </trkpt>
      <trkpt lat="44.54872" lon="5.96045">
        <ele>942</ele>
        <time>2013-09-30T10:11:40Z</time>
      </trkpt>
      <trkpt lat="44.54867" lon="5.9607">
        <ele>942</ele>
        <time>2013-09-30T10:11:45Z</time>
      </trkpt>
      <trkpt lat="44.54862" lon="5.96099">
        <ele>943</ele>
        <time>2013-09-30T10:11:51Z</time>
      </trkpt>
      <trkpt lat="44.54857" lon="5.96123">
        <ele>943</ele>
        <time>2013-09-30T10:11:56Z</time>
      </trkpt>
      <trkpt lat="44.5485" lon="5.96147">
        <ele>944</ele>
        <time>2013-09-30T10:12:01Z</time>
      </trkpt>
      <trkpt lat="44.54843" lon="5.96171">
        <ele>945</ele>
        <time>2013-09-30T10:12:06Z</time>
      </trkpt>
      <trkpt lat="44.54836" lon="5.96195">
        <ele>945</ele>
        <time>2013-09-30T10:12:11Z</time>
      </trkpt>
      <trkpt lat="44.54828" lon="5.96222">
        <ele>947</ele>
        <time>2013-09-30T10:12:17Z</time>
      </trkpt>
      <trkpt lat="44.54822" lon="5.96248">
        <ele>946</ele>
        <time>2013-09-30T10:12:23Z</time>
      </trkpt>
      <trkpt lat="44.54816" lon="5.96277">
        <ele>948</ele>
        <time>2013-09-30T10:12:29Z</time>
      </trkpt>
      <trkpt lat="44.5481" lon="5.96306">
        <ele>948</ele>
        <time>2013-09-30T10:12:34Z</time>
      </trkpt>
      <trkpt lat="44.54802" lon="5.96332">
        <ele>948</ele>
        <time>2013-09-30T10:12:40Z</time>
      </trkpt>
      <trkpt lat="44.54795" lon="5.96356">
        <ele>949</ele>
        <time>2013-09-30T10:12:50Z</time>
      </trkpt>
      <trkpt lat="44.54807" lon="5.96379">
        <ele>949</ele>
        <time>2013-09-30T10:14:05Z</time>
      </trkpt>
      <trkpt lat="44.54817" lon="5.96402">
        <ele>949</ele>
        <time>2013-09-30T10:14:10Z</time>
      </trkpt>
      <trkpt lat="44.54828" lon="5.96423">
        <ele>949</ele>
        <time>2013-09-30T10:14:14Z</time>
      </trkpt>
      <trkpt lat="44.54841" lon="5.96447">
        <ele>949</ele>
        <time>2013-09-30T10:14:19Z</time>
      </trkpt>
      <trkpt lat="44.5485" lon="5.96469">
        <ele>949</ele>
        <time>2013-09-30T10:14:23Z</time>
      </trkpt>
      <trkpt lat="44.54855" lon="5.96494">
        <ele>949</ele>
        <time>2013-09-30T10:14:28Z</time>
      </trkpt>
      <trkpt lat="44.54851" lon="5.9652">
        <ele>950</ele>
        <time>2013-09-30T10:14:33Z</time>
      </trkpt>
      <trkpt lat="44.5484" lon="5.96541">
        <ele>950</ele>
        <time>2013-09-30T10:14:41Z</time>
      </trkpt>
      <trkpt lat="44.54821" lon="5.96547">
        <ele>951</ele>
        <time>2013-09-30T10:14:48Z</time>
      </trkpt>
      <trkpt lat="44.54804" lon="5.96561">
        <ele>951</ele>
        <time>2013-09-30T10:14:56Z</time>
      </trkpt>
      <trkpt lat="44.54787" lon="5.96575">
        <ele>952</ele>
        <time>2013-09-30T10:15:01Z</time>
      </trkpt>
      <trkpt lat="44.5477" lon="5.96589">
        <ele>951</ele>
        <time>2013-09-30T10:15:05Z</time>
      </trkpt>
      <trkpt lat="44.54754" lon="5.966">
        <ele>951</ele>
        <time>2013-09-30T10:15:09Z</time>
      </trkpt>
      <trkpt lat="44.54735" lon="5.96597">
        <ele>952</ele>
        <time>2013-09-30T10:15:13Z</time>
      </trkpt>
      <trkpt lat="44.54717" lon="5.96587">
        <ele>953</ele>
        <time>2013-09-30T10:15:18Z</time>
      </trkpt>
      <trkpt lat="44.54698" lon="5.96577">
        <ele>954</ele>
        <time>2013-09-30T10:15:24Z</time>
      </trkpt>
      <trkpt lat="44.54681" lon="5.96568">
        <ele>954</ele>
        <time>2013-09-30T10:16:42Z</time>
      </trkpt>
      <trkpt lat="44.54664" lon="5.96559">
        <ele>956</ele>
        <time>2013-09-30T10:16:50Z</time>
      </trkpt>
      <trkpt lat="44.54646" lon="5.96551">
        <ele>956</ele>
        <time>2013-09-30T10:16:55Z</time>
      </trkpt>
      <trkpt lat="44.54628" lon="5.9654">
        <ele>956</ele>
        <time>2013-09-30T10:17:01Z</time>
      </trkpt>
      <trkpt lat="44.54609" lon="5.96532">
        <ele>957</ele>
        <time>2013-09-30T10:17:07Z</time>
      </trkpt>
      <trkpt lat="44.54591" lon="5.96524">
        <ele>957</ele>
        <time>2013-09-30T10:17:13Z</time>
      </trkpt>
      <trkpt lat="44.54572" lon="5.96517">
        <ele>959</ele>
        <time>2013-09-30T10:17:19Z</time>
      </trkpt>
      <trkpt lat="44.54554" lon="5.96512">
        <ele>959</ele>
        <time>2013-09-30T10:17:26Z</time>
      </trkpt>
      <trkpt lat="44.54535" lon="5.96509">
        <ele>960</ele>
        <time>2013-09-30T10:17:32Z</time>
      </trkpt>
      <trkpt lat="44.54515" lon="5.96506">
        <ele>961</ele>
        <time>2013-09-30T10:18:00Z</time>
      </trkpt>
      <trkpt lat="44.54496" lon="5.96505">
        <ele>963</ele>
        <time>2013-09-30T10:18:09Z</time>
      </trkpt>
      <trkpt lat="44.54476" lon="5.96507">
        <ele>966</ele>
        <time>2013-09-30T10:18:15Z</time>
      </trkpt>
      <trkpt lat="44.54455" lon="5.96507">
        <ele>968</ele>
        <time>2013-09-30T10:18:23Z</time>
      </trkpt>
      <trkpt lat="44.54435" lon="5.96505">
        <ele>969</ele>
        <time>2013-09-30T10:18:30Z</time>
      </trkpt>
      <trkpt lat="44.54415" lon="5.96503">
        <ele>970</ele>
        <time>2013-09-30T10:18:37Z</time>
      </trkpt>
      <trkpt lat="44.54396" lon="5.96502">
        <ele>973</ele>
        <time>2013-09-30T10:18:43Z</time>
      </trkpt>
      <trkpt lat="44.54378" lon="5.96499">
        <ele>969</ele>
        <time>2013-09-30T10:18:49Z</time>
      </trkpt>
      <trkpt lat="44.54357" lon="5.96496">
        <ele>970</ele>
        <time>2013-09-30T10:18:57Z</time>
      </trkpt>
      <trkpt lat="44.54338" lon="5.96497">
        <ele>971</ele>
        <time>2013-09-30T10:19:04Z</time>
      </trkpt>
      <trkpt lat="44.54318" lon="5.96495">
        <ele>972</ele>
        <time>2013-09-30T10:19:11Z</time>
      </trkpt>
      <trkpt lat="44.54297" lon="5.96496">
        <ele>972</ele>
        <time>2013-09-30T10:19:16Z</time>
      </trkpt>
      <trkpt lat="44.54276" lon="5.96498">
        <ele>972</ele>
        <time>2013-09-30T10:19:21Z</time>
      </trkpt>
      <trkpt lat="44.54257" lon="5.96505">
        <ele>975</ele>
        <time>2013-09-30T10:19:27Z</time>
      </trkpt>
      <trkpt lat="44.54239" lon="5.96514">
        <ele>976</ele>
        <time>2013-09-30T10:19:32Z</time>
      </trkpt>
      <trkpt lat="44.54219" lon="5.96521">
        <ele>977</ele>
        <time>2013-09-30T10:19:37Z</time>
      </trkpt>
      <trkpt lat="44.54201" lon="5.96531">
        <ele>977</ele>
        <time>2013-09-30T10:19:42Z</time>
      </trkpt>
      <trkpt lat="44.54181" lon="5.96542">
        <ele>978</ele>
        <time>2013-09-30T10:19:48Z</time>
      </trkpt>
      <trkpt lat="44.54164" lon="5.96551">
        <ele>981</ele>
        <time>2013-09-30T10:19:54Z</time>
      </trkpt>
      <trkpt lat="44.54145" lon="5.96563">
        <ele>981</ele>
        <time>2013-09-30T10:20:02Z</time>
      </trkpt>
      <trkpt lat="44.54128" lon="5.96575">
        <ele>982</ele>
        <time>2013-09-30T10:20:09Z</time>
      </trkpt>
      <trkpt lat="44.54111" lon="5.96583">
        <ele>983</ele>
        <time>2013-09-30T10:20:15Z</time>
      </trkpt>
      <trkpt lat="44.54093" lon="5.96591">
        <ele>985</ele>
        <time>2013-09-30T10:20:21Z</time>
      </trkpt>
      <trkpt lat="44.54075" lon="5.96598">
        <ele>987</ele>
        <time>2013-09-30T10:20:27Z</time>
      </trkpt>
      <trkpt lat="44.54058" lon="5.96613">
        <ele>988</ele>
        <time>2013-09-30T10:20:34Z</time>
      </trkpt>
      <trkpt lat="44.5404" lon="5.96618">
        <ele>989</ele>
        <time>2013-09-30T10:20:41Z</time>
      </trkpt>
      <trkpt lat="44.5402" lon="5.96617">
        <ele>989</ele>
        <time>2013-09-30T10:20:47Z</time>
      </trkpt>
      <trkpt lat="44.54" lon="5.96621">
        <ele>990</ele>
        <time>2013-09-30T10:20:53Z</time>
      </trkpt>
      <trkpt lat="44.53981" lon="5.96622">
        <ele>992</ele>
        <time>2013-09-30T10:20:59Z</time>
      </trkpt>
      <trkpt lat="44.53961" lon="5.96633">
        <ele>992</ele>
        <time>2013-09-30T10:21:07Z</time>
      </trkpt>
      <trkpt lat="44.53944" lon="5.96651">
        <ele>993</ele>
        <time>2013-09-30T10:21:12Z</time>
      </trkpt>
      <trkpt lat="44.53933" lon="5.9667">
        <ele>993</ele>
        <time>2013-09-30T10:21:18Z</time>
      </trkpt>
      <trkpt lat="44.53919" lon="5.96694">
        <ele>994</ele>
        <time>2013-09-30T10:21:24Z</time>
      </trkpt>
      <trkpt lat="44.53905" lon="5.96712">
        <ele>993</ele>
        <time>2013-09-30T10:21:30Z</time>
      </trkpt>
      <trkpt lat="44.53893" lon="5.96692">
        <ele>993</ele>
        <time>2013-09-30T10:21:42Z</time>
      </trkpt>
      <trkpt lat="44.53886" lon="5.96668">
        <ele>993</ele>
        <time>2013-09-30T10:21:51Z</time>
      </trkpt>
      <trkpt lat="44.53878" lon="5.96645">
        <ele>993</ele>
        <time>2013-09-30T10:22:00Z</time>
      </trkpt>
      <trkpt lat="44.5387" lon="5.96618">
        <ele>994</ele>
        <time>2013-09-30T10:22:08Z</time>
      </trkpt>
      <trkpt lat="44.53861" lon="5.96593">
        <ele>994</ele>
        <time>2013-09-30T10:22:17Z</time>
      </trkpt>
      <trkpt lat="44.53811" lon="5.96457">
        <ele>1007</ele>
        <time>2013-09-30T10:25:33Z</time>
      </trkpt>
      <trkpt lat="44.53804" lon="5.96433">
        <ele>1007</ele>
        <time>2013-09-30T10:25:49Z</time>
      </trkpt>
      <trkpt lat="44.53803" lon="5.96407">
        <ele>1009</ele>
        <time>2013-09-30T10:26:08Z</time>
      </trkpt>
      <trkpt lat="44.53817" lon="5.9639">
        <ele>1008</ele>
        <time>2013-09-30T10:27:17Z</time>
      </trkpt>
      <trkpt lat="44.53826" lon="5.96394">
        <ele>1008</ele>
        <time>2013-09-30T10:54:56Z</time>
      </trkpt>
      <trkpt lat="44.53806" lon="5.96395">
        <ele>1009</ele>
        <time>2013-09-30T10:58:12Z</time>
      </trkpt>
      <trkpt lat="44.53791" lon="5.96379">
        <ele>1010</ele>
        <time>2013-09-30T10:58:21Z</time>
      </trkpt>
      <trkpt lat="44.53774" lon="5.96364">
        <ele>1011</ele>
        <time>2013-09-30T10:58:31Z</time>
      </trkpt>
      <trkpt lat="44.53756" lon="5.96357">
        <ele>1012</ele>
        <time>2013-09-30T10:58:41Z</time>
      </trkpt>
      <trkpt lat="44.53737" lon="5.96349">
        <ele>1018</ele>
        <time>2013-09-30T10:58:51Z</time>
      </trkpt>
      <trkpt lat="44.53722" lon="5.96367">
        <ele>1019</ele>
        <time>2013-09-30T10:59:00Z</time>
      </trkpt>
      <trkpt lat="44.53721" lon="5.96392">
        <ele>1019</ele>
        <time>2013-09-30T10:59:06Z</time>
      </trkpt>
      <trkpt lat="44.53723" lon="5.96419">
        <ele>1019</ele>
        <time>2013-09-30T10:59:14Z</time>
      </trkpt>
      <trkpt lat="44.53724" lon="5.96446">
        <ele>1019</ele>
        <time>2013-09-30T10:59:20Z</time>
      </trkpt>
      <trkpt lat="44.53716" lon="5.96475">
        <ele>1019</ele>
        <time>2013-09-30T10:59:25Z</time>
      </trkpt>
      <trkpt lat="44.53717" lon="5.96501">
        <ele>1015</ele>
        <time>2013-09-30T10:59:31Z</time>
      </trkpt>
      <trkpt lat="44.53715" lon="5.9653">
        <ele>1015</ele>
        <time>2013-09-30T10:59:36Z</time>
      </trkpt>
      <trkpt lat="44.53698" lon="5.96551">
        <ele>1016</ele>
        <time>2013-09-30T10:59:39Z</time>
      </trkpt>
      <trkpt lat="44.53684" lon="5.96573">
        <ele>1017</ele>
        <time>2013-09-30T10:59:42Z</time>
      </trkpt>
      <trkpt lat="44.5367" lon="5.96603">
        <ele>1014</ele>
        <time>2013-09-30T10:59:45Z</time>
      </trkpt>
      <trkpt lat="44.53661" lon="5.96628">
        <ele>1024</ele>
        <time>2013-09-30T10:59:48Z</time>
      </trkpt>
      <trkpt lat="44.53654" lon="5.96652">
        <ele>1022</ele>
        <time>2013-09-30T10:59:53Z</time>
      </trkpt>
      <trkpt lat="44.53644" lon="5.96675">
        <ele>1023</ele>
        <time>2013-09-30T10:59:58Z</time>
      </trkpt>
      <trkpt lat="44.53646" lon="5.96704">
        <ele>1024</ele>
        <time>2013-09-30T11:00:03Z</time>
      </trkpt>
      <trkpt lat="44.53651" lon="5.96732">
        <ele>1022</ele>
        <time>2013-09-30T11:00:08Z</time>
      </trkpt>
      <trkpt lat="44.53651" lon="5.96762">
        <ele>1020</ele>
        <time>2013-09-30T11:00:14Z</time>
      </trkpt>
      <trkpt lat="44.5365" lon="5.96791">
        <ele>1021</ele>
        <time>2013-09-30T11:00:19Z</time>
      </trkpt>
      <trkpt lat="44.53646" lon="5.9682">
        <ele>1020</ele>
        <time>2013-09-30T11:00:23Z</time>
      </trkpt>
      <trkpt lat="44.53638" lon="5.96848">
        <ele>1018</ele>
        <time>2013-09-30T11:00:27Z</time>
      </trkpt>
      <trkpt lat="44.5363" lon="5.96872">
        <ele>1019</ele>
        <time>2013-09-30T11:00:30Z</time>
      </trkpt>
      <trkpt lat="44.53624" lon="5.96897">
        <ele>1018</ele>
        <time>2013-09-30T11:00:33Z</time>
      </trkpt>
      <trkpt lat="44.53618" lon="5.96925">
        <ele>1016</ele>
        <time>2013-09-30T11:00:36Z</time>
      </trkpt>
      <trkpt lat="44.53614" lon="5.96953">
        <ele>1015</ele>
        <time>2013-09-30T11:00:40Z</time>
      </trkpt>
      <trkpt lat="44.5361" lon="5.96984">
        <ele>1015</ele>
        <time>2013-09-30T11:00:45Z</time>
      </trkpt>
      <trkpt lat="44.53609" lon="5.97013">
        <ele>1014</ele>
        <time>2013-09-30T11:00:50Z</time>
      </trkpt>
      <trkpt lat="44.53597" lon="5.97036">
        <ele>1014</ele>
        <time>2013-09-30T11:01:53Z</time>
      </trkpt>
      <trkpt lat="44.53585" lon="5.97057">
        <ele>1015</ele>
        <time>2013-09-30T11:02:00Z</time>
      </trkpt>
      <trkpt lat="44.53575" lon="5.97082">
        <ele>1019</ele>
        <time>2013-09-30T11:02:08Z</time>
      </trkpt>
      <trkpt lat="44.5357" lon="5.97108">
        <ele>1022</ele>
        <time>2013-09-30T11:02:17Z</time>
      </trkpt>
      <trkpt lat="44.53565" lon="5.97132">
        <ele>1023</ele>
        <time>2013-09-30T11:02:25Z</time>
      </trkpt>
      <trkpt lat="44.53554" lon="5.97155">
        <ele>1024</ele>
        <time>2013-09-30T11:02:32Z</time>
      </trkpt>
      <trkpt lat="44.53542" lon="5.97177">
        <ele>1024</ele>
        <time>2013-09-30T11:02:39Z</time>
      </trkpt>
      <trkpt lat="44.53533" lon="5.97204">
        <ele>1024</ele>
        <time>2013-09-30T11:02:45Z</time>
      </trkpt>
      <trkpt lat="44.53523" lon="5.9723">
        <ele>1025</ele>
        <time>2013-09-30T11:02:50Z</time>
      </trkpt>
      <trkpt lat="44.53514" lon="5.97253">
        <ele>1024</ele>
        <time>2013-09-30T11:03:33Z</time>
      </trkpt>
      <trkpt lat="44.53508" lon="5.97278">
        <ele>1023</ele>
        <time>2013-09-30T11:03:44Z</time>
      </trkpt>
      <trkpt lat="44.53502" lon="5.97308">
        <ele>1021</ele>
        <time>2013-09-30T11:03:50Z</time>
      </trkpt>
      <trkpt lat="44.53491" lon="5.97332">
        <ele>1024</ele>
        <time>2013-09-30T11:03:54Z</time>
      </trkpt>
      <trkpt lat="44.53474" lon="5.97351">
        <ele>1025</ele>
        <time>2013-09-30T11:03:57Z</time>
      </trkpt>
      <trkpt lat="44.53458" lon="5.97369">
        <ele>1025</ele>
        <time>2013-09-30T11:04:00Z</time>
      </trkpt>
      <trkpt lat="44.53442" lon="5.97389">
        <ele>1026</ele>
        <time>2013-09-30T11:04:04Z</time>
      </trkpt>
      <trkpt lat="44.53425" lon="5.97407">
        <ele>1026</ele>
        <time>2013-09-30T11:04:08Z</time>
      </trkpt>
      <trkpt lat="44.53409" lon="5.97422">
        <ele>1029</ele>
        <time>2013-09-30T11:04:15Z</time>
      </trkpt>
      <trkpt lat="44.53395" lon="5.97442">
        <ele>1032</ele>
        <time>2013-09-30T11:04:41Z</time>
      </trkpt>
      <trkpt lat="44.53389" lon="5.97468">
        <ele>1033</ele>
        <time>2013-09-30T11:04:51Z</time>
      </trkpt>
      <trkpt lat="44.53377" lon="5.97491">
        <ele>1034</ele>
        <time>2013-09-30T11:05:02Z</time>
      </trkpt>
      <trkpt lat="44.53369" lon="5.97517">
        <ele>1035</ele>
        <time>2013-09-30T11:05:08Z</time>
      </trkpt>
      <trkpt lat="44.53364" lon="5.97542">
        <ele>1035</ele>
        <time>2013-09-30T11:05:16Z</time>
      </trkpt>
      <trkpt lat="44.53359" lon="5.97568">
        <ele>1035</ele>
        <time>2013-09-30T11:05:25Z</time>
      </trkpt>
      <trkpt lat="44.53361" lon="5.97594">
        <ele>1037</ele>
        <time>2013-09-30T11:05:38Z</time>
      </trkpt>
      <trkpt lat="44.53369" lon="5.97617">
        <ele>1037</ele>
        <time>2013-09-30T11:05:53Z</time>
      </trkpt>
      <trkpt lat="44.53383" lon="5.97636">
        <ele>1038</ele>
        <time>2013-09-30T11:06:06Z</time>
      </trkpt>
      <trkpt lat="44.53395" lon="5.97655">
        <ele>1039</ele>
        <time>2013-09-30T11:06:13Z</time>
      </trkpt>
      <trkpt lat="44.53389" lon="5.97681">
        <ele>1044</ele>
        <time>2013-09-30T11:06:26Z</time>
      </trkpt>
      <trkpt lat="44.53384" lon="5.97705">
        <ele>1045</ele>
        <time>2013-09-30T11:06:45Z</time>
      </trkpt>
      <trkpt lat="44.5338" lon="5.9773">
        <ele>1047</ele>
        <time>2013-09-30T11:06:57Z</time>
      </trkpt>
      <trkpt lat="44.53392" lon="5.97749">
        <ele>1048</ele>
        <time>2013-09-30T11:07:49Z</time>
      </trkpt>
      <trkpt lat="44.53391" lon="5.97774">
        <ele>1054</ele>
        <time>2013-09-30T11:08:03Z</time>
      </trkpt>
      <trkpt lat="44.53383" lon="5.97799">
        <ele>1055</ele>
        <time>2013-09-30T11:08:18Z</time>
      </trkpt>
      <trkpt lat="44.53367" lon="5.97811">
        <ele>1055</ele>
        <time>2013-09-30T11:08:35Z</time>
      </trkpt>
      <trkpt lat="44.53353" lon="5.9783">
        <ele>1056</ele>
        <time>2013-09-30T11:08:46Z</time>
      </trkpt>
      <trkpt lat="44.53343" lon="5.97851">
        <ele>1060</ele>
        <time>2013-09-30T11:08:56Z</time>
      </trkpt>
      <trkpt lat="44.53336" lon="5.97875">
        <ele>1061</ele>
        <time>2013-09-30T11:09:07Z</time>
      </trkpt>
      <trkpt lat="44.53321" lon="5.97891">
        <ele>1062</ele>
        <time>2013-09-30T11:09:17Z</time>
      </trkpt>
      <trkpt lat="44.53303" lon="5.97904">
        <ele>1062</ele>
        <time>2013-09-30T11:09:25Z</time>
      </trkpt>
      <trkpt lat="44.5329" lon="5.97921">
        <ele>1065</ele>
        <time>2013-09-30T11:09:38Z</time>
      </trkpt>
      <trkpt lat="44.53278" lon="5.97942">
        <ele>1065</ele>
        <time>2013-09-30T11:09:48Z</time>
      </trkpt>
      <trkpt lat="44.53265" lon="5.9796">
        <ele>1065</ele>
        <time>2013-09-30T11:09:56Z</time>
      </trkpt>
      <trkpt lat="44.53249" lon="5.97976">
        <ele>1068</ele>
        <time>2013-09-30T11:10:05Z</time>
      </trkpt>
      <trkpt lat="44.53237" lon="5.98">
        <ele>1068</ele>
        <time>2013-09-30T11:10:14Z</time>
      </trkpt>
      <trkpt lat="44.53228" lon="5.98024">
        <ele>1070</ele>
        <time>2013-09-30T11:10:21Z</time>
      </trkpt>
      <trkpt lat="44.53221" lon="5.98049">
        <ele>1071</ele>
        <time>2013-09-30T11:10:29Z</time>
      </trkpt>
      <trkpt lat="44.53209" lon="5.98071">
        <ele>1071</ele>
        <time>2013-09-30T11:10:39Z</time>
      </trkpt>
      <trkpt lat="44.53199" lon="5.98095">
        <ele>1072</ele>
        <time>2013-09-30T11:10:48Z</time>
      </trkpt>
      <trkpt lat="44.53188" lon="5.98115">
        <ele>1073</ele>
        <time>2013-09-30T11:10:55Z</time>
      </trkpt>
      <trkpt lat="44.5317" lon="5.98121">
        <ele>1073</ele>
        <time>2013-09-30T11:11:26Z</time>
      </trkpt>
      <trkpt lat="44.53156" lon="5.981">
        <ele>1076</ele>
        <time>2013-09-30T11:11:47Z</time>
      </trkpt>
      <trkpt lat="44.53146" lon="5.98076">
        <ele>1077</ele>
        <time>2013-09-30T11:11:55Z</time>
      </trkpt>
      <trkpt lat="44.53129" lon="5.98062">
        <ele>1079</ele>
        <time>2013-09-30T11:12:05Z</time>
      </trkpt>
      <trkpt lat="44.53113" lon="5.98046">
        <ele>1080</ele>
        <time>2013-09-30T11:12:16Z</time>
      </trkpt>
      <trkpt lat="44.53097" lon="5.98034">
        <ele>1081</ele>
        <time>2013-09-30T11:12:30Z</time>
      </trkpt>
      <trkpt lat="44.53078" lon="5.98037">
        <ele>1092</ele>
        <time>2013-09-30T11:12:41Z</time>
      </trkpt>
      <trkpt lat="44.53062" lon="5.98051">
        <ele>1092</ele>
        <time>2013-09-30T11:12:53Z</time>
      </trkpt>
      <trkpt lat="44.53056" lon="5.98027">
        <ele>1093</ele>
        <time>2013-09-30T11:13:13Z</time>
      </trkpt>
      <trkpt lat="44.53041" lon="5.98013">
        <ele>1096</ele>
        <time>2013-09-30T11:13:41Z</time>
      </trkpt>
      <trkpt lat="44.53023" lon="5.98018">
        <ele>1098</ele>
        <time>2013-09-30T11:14:03Z</time>
      </trkpt>
      <trkpt lat="44.53005" lon="5.98025">
        <ele>1099</ele>
        <time>2013-09-30T11:14:29Z</time>
      </trkpt>
      <trkpt lat="44.52987" lon="5.98028">
        <ele>1108</ele>
        <time>2013-09-30T11:14:48Z</time>
      </trkpt>
      <trkpt lat="44.52969" lon="5.98034">
        <ele>1108</ele>
        <time>2013-09-30T11:15:09Z</time>
      </trkpt>
      <trkpt lat="44.52951" lon="5.98043">
        <ele>1109</ele>
        <time>2013-09-30T11:15:32Z</time>
      </trkpt>
      <trkpt lat="44.52933" lon="5.98042">
        <ele>1110</ele>
        <time>2013-09-30T11:15:53Z</time>
      </trkpt>
      <trkpt lat="44.52939" lon="5.98017">
        <ele>1112</ele>
        <time>2013-09-30T11:16:16Z</time>
      </trkpt>
      <trkpt lat="44.52928" lon="5.97993">
        <ele>1117</ele>
        <time>2013-09-30T11:16:29Z</time>
      </trkpt>
      <trkpt lat="44.52911" lon="5.97984">
        <ele>1120</ele>
        <time>2013-09-30T11:16:36Z</time>
      </trkpt>
      <trkpt lat="44.52893" lon="5.97974">
        <ele>1121</ele>
        <time>2013-09-30T11:16:51Z</time>
      </trkpt>
      <trkpt lat="44.52876" lon="5.97962">
        <ele>1121</ele>
        <time>2013-09-30T11:17:24Z</time>
      </trkpt>
      <trkpt lat="44.52861" lon="5.97944">
        <ele>1122</ele>
        <time>2013-09-30T11:17:32Z</time>
      </trkpt>
      <trkpt lat="44.52845" lon="5.97931">
        <ele>1123</ele>
        <time>2013-09-30T11:17:44Z</time>
      </trkpt>
      <trkpt lat="44.52828" lon="5.97921">
        <ele>1126</ele>
        <time>2013-09-30T11:18:08Z</time>
      </trkpt>
      <trkpt lat="44.52811" lon="5.97914">
        <ele>1129</ele>
        <time>2013-09-30T11:18:24Z</time>
      </trkpt>
      <trkpt lat="44.52793" lon="5.97922">
        <ele>1132</ele>
        <time>2013-09-30T11:18:45Z</time>
      </trkpt>
      <trkpt lat="44.52774" lon="5.97917">
        <ele>1135</ele>
        <time>2013-09-30T11:19:00Z</time>
      </trkpt>
      <trkpt lat="44.52768" lon="5.97893">
        <ele>1135</ele>
        <time>2013-09-30T11:19:24Z</time>
      </trkpt>
      <trkpt lat="44.52757" lon="5.97872">
        <ele>1135</ele>
        <time>2013-09-30T11:19:53Z</time>
      </trkpt>
      <trkpt lat="44.52743" lon="5.97856">
        <ele>1146</ele>
        <time>2013-09-30T11:20:13Z</time>
      </trkpt>
      <trkpt lat="44.52723" lon="5.97855">
        <ele>1148</ele>
        <time>2013-09-30T11:20:34Z</time>
      </trkpt>
      <trkpt lat="44.52706" lon="5.97848">
        <ele>1151</ele>
        <time>2013-09-30T11:20:53Z</time>
      </trkpt>
      <trkpt lat="44.52688" lon="5.97843">
        <ele>1154</ele>
        <time>2013-09-30T11:21:18Z</time>
      </trkpt>
      <trkpt lat="44.52671" lon="5.97855">
        <ele>1155</ele>
        <time>2013-09-30T11:21:36Z</time>
      </trkpt>
      <trkpt lat="44.52653" lon="5.97859">
        <ele>1165</ele>
        <time>2013-09-30T11:21:54Z</time>
      </trkpt>
      <trkpt lat="44.52635" lon="5.97856">
        <ele>1166</ele>
        <time>2013-09-30T11:22:23Z</time>
      </trkpt>
      <trkpt lat="44.52617" lon="5.97852">
        <ele>1169</ele>
        <time>2013-09-30T11:22:52Z</time>
      </trkpt>
      <trkpt lat="44.526" lon="5.97843">
        <ele>1173</ele>
        <time>2013-09-30T11:24:05Z</time>
      </trkpt>
      <trkpt lat="44.52582" lon="5.97838">
        <ele>1182</ele>
        <time>2013-09-30T11:24:30Z</time>
      </trkpt>
      <trkpt lat="44.52564" lon="5.97838">
        <ele>1184</ele>
        <time>2013-09-30T11:24:54Z</time>
      </trkpt>
      <trkpt lat="44.52546" lon="5.97844">
        <ele>1186</ele>
        <time>2013-09-30T11:25:45Z</time>
      </trkpt>
      <trkpt lat="44.52528" lon="5.97847">
        <ele>1190</ele>
        <time>2013-09-30T11:26:09Z</time>
      </trkpt>
      <trkpt lat="44.52509" lon="5.9785">
        <ele>1193</ele>
        <time>2013-09-30T11:26:34Z</time>
      </trkpt>
      <trkpt lat="44.52504" lon="5.97825">
        <ele>1200</ele>
        <time>2013-09-30T11:26:57Z</time>
      </trkpt>
      <trkpt lat="44.52488" lon="5.97836">
        <ele>1203</ele>
        <time>2013-09-30T11:27:41Z</time>
      </trkpt>
      <trkpt lat="44.52472" lon="5.97849">
        <ele>1204</ele>
        <time>2013-09-30T11:28:20Z</time>
      </trkpt>
      <trkpt lat="44.52453" lon="5.97846">
        <ele>1206</ele>
        <time>2013-09-30T11:28:46Z</time>
      </trkpt>
      <trkpt lat="44.52435" lon="5.97849">
        <ele>1209</ele>
        <time>2013-09-30T11:29:05Z</time>
      </trkpt>
      <trkpt lat="44.52418" lon="5.97861">
        <ele>1209</ele>
        <time>2013-09-30T11:29:36Z</time>
      </trkpt>
      <trkpt lat="44.52406" lon="5.9788">
        <ele>1216</ele>
        <time>2013-09-30T11:29:58Z</time>
      </trkpt>
      <trkpt lat="44.52388" lon="5.97878">
        <ele>1218</ele>
        <time>2013-09-30T11:30:27Z</time>
      </trkpt>
      <trkpt lat="44.5237" lon="5.97878">
        <ele>1220</ele>
        <time>2013-09-30T11:30:49Z</time>
      </trkpt>
      <trkpt lat="44.52352" lon="5.97879">
        <ele>1222</ele>
        <time>2013-09-30T11:31:09Z</time>
      </trkpt>
      <trkpt lat="44.52334" lon="5.97888">
        <ele>1221</ele>
        <time>2013-09-30T11:31:29Z</time>
      </trkpt>
      <trkpt lat="44.52316" lon="5.97886">
        <ele>1232</ele>
        <time>2013-09-30T11:31:53Z</time>
      </trkpt>
      <trkpt lat="44.52299" lon="5.97875">
        <ele>1235</ele>
        <time>2013-09-30T11:32:19Z</time>
      </trkpt>
      <trkpt lat="44.52283" lon="5.97863">
        <ele>1238</ele>
        <time>2013-09-30T11:32:43Z</time>
      </trkpt>
      <trkpt lat="44.52265" lon="5.97857">
        <ele>1242</ele>
        <time>2013-09-30T11:33:08Z</time>
      </trkpt>
      <trkpt lat="44.52248" lon="5.97867">
        <ele>1248</ele>
        <time>2013-09-30T11:33:23Z</time>
      </trkpt>
      <trkpt lat="44.5223" lon="5.97867">
        <ele>1248</ele>
        <time>2013-09-30T11:33:49Z</time>
      </trkpt>
      <trkpt lat="44.52224" lon="5.97842">
        <ele>1251</ele>
        <time>2013-09-30T11:34:35Z</time>
      </trkpt>
      <trkpt lat="44.52234" lon="5.97821">
        <ele>1261</ele>
        <time>2013-09-30T11:34:52Z</time>
      </trkpt>
      <trkpt lat="44.52246" lon="5.97802">
        <ele>1263</ele>
        <time>2013-09-30T11:35:11Z</time>
      </trkpt>
      <trkpt lat="44.52239" lon="5.97777">
        <ele>1266</ele>
        <time>2013-09-30T11:35:33Z</time>
      </trkpt>
      <trkpt lat="44.52229" lon="5.97756">
        <ele>1267</ele>
        <time>2013-09-30T11:36:44Z</time>
      </trkpt>
      <trkpt lat="44.5222" lon="5.97779">
        <ele>1267</ele>
        <time>2013-09-30T11:39:01Z</time>
      </trkpt>
      <trkpt lat="44.52207" lon="5.97797">
        <ele>1266</ele>
        <time>2013-09-30T11:39:11Z</time>
      </trkpt>
      <trkpt lat="44.52189" lon="5.97803">
        <ele>1266</ele>
        <time>2013-09-30T11:39:21Z</time>
      </trkpt>
      <trkpt lat="44.5217" lon="5.97805">
        <ele>1266</ele>
        <time>2013-09-30T11:39:30Z</time>
      </trkpt>
      <trkpt lat="44.52151" lon="5.97809">
        <ele>1271</ele>
        <time>2013-09-30T11:39:40Z</time>
      </trkpt>
      <trkpt lat="44.52131" lon="5.97806">
        <ele>1273</ele>
        <time>2013-09-30T11:39:50Z</time>
      </trkpt>
      <trkpt lat="44.52113" lon="5.97806">
        <ele>1274</ele>
        <time>2013-09-30T11:39:57Z</time>
      </trkpt>
      <trkpt lat="44.52093" lon="5.97804">
        <ele>1274</ele>
        <time>2013-09-30T11:40:05Z</time>
      </trkpt>
      <trkpt lat="44.52074" lon="5.978">
        <ele>1276</ele>
        <time>2013-09-30T11:40:13Z</time>
      </trkpt>
      <trkpt lat="44.52055" lon="5.97793">
        <ele>1278</ele>
        <time>2013-09-30T11:40:23Z</time>
      </trkpt>
      <trkpt lat="44.52036" lon="5.97792">
        <ele>1278</ele>
        <time>2013-09-30T11:40:31Z</time>
      </trkpt>
      <trkpt lat="44.52018" lon="5.97785">
        <ele>1279</ele>
        <time>2013-09-30T11:40:39Z</time>
      </trkpt>
      <trkpt lat="44.52" lon="5.97787">
        <ele>1278</ele>
        <time>2013-09-30T11:40:47Z</time>
      </trkpt>
      <trkpt lat="44.51982" lon="5.97792">
        <ele>1277</ele>
        <time>2013-09-30T11:40:55Z</time>
      </trkpt>
      <trkpt lat="44.51963" lon="5.97794">
        <ele>1276</ele>
        <time>2013-09-30T11:41:03Z</time>
      </trkpt>
      <trkpt lat="44.51945" lon="5.97782">
        <ele>1278</ele>
        <time>2013-09-30T11:41:13Z</time>
      </trkpt>
      <trkpt lat="44.51924" lon="5.97778">
        <ele>1280</ele>
        <time>2013-09-30T11:41:20Z</time>
      </trkpt>
      <trkpt lat="44.51906" lon="5.97781">
        <ele>1279</ele>
        <time>2013-09-30T11:41:26Z</time>
      </trkpt>
      <trkpt lat="44.51889" lon="5.97767">
        <ele>1280</ele>
        <time>2013-09-30T11:41:36Z</time>
      </trkpt>
      <trkpt lat="44.51883" lon="5.97743">
        <ele>1293</ele>
        <time>2013-09-30T11:41:44Z</time>
      </trkpt>
      <trkpt lat="44.51865" lon="5.97734">
        <ele>1293</ele>
        <time>2013-09-30T11:41:53Z</time>
      </trkpt>
      <trkpt lat="44.51845" lon="5.97737">
        <ele>1291</ele>
        <time>2013-09-30T11:42:03Z</time>
      </trkpt>
      <trkpt lat="44.51828" lon="5.9773">
        <ele>1285</ele>
        <time>2013-09-30T11:42:15Z</time>
      </trkpt>
      <trkpt lat="44.5181" lon="5.97729">
        <ele>1284</ele>
        <time>2013-09-30T11:42:26Z</time>
      </trkpt>
      <trkpt lat="44.51791" lon="5.9772">
        <ele>1282</ele>
        <time>2013-09-30T11:42:36Z</time>
      </trkpt>
      <trkpt lat="44.51787" lon="5.97694">
        <ele>1283</ele>
        <time>2013-09-30T11:42:44Z</time>
      </trkpt>
      <trkpt lat="44.51789" lon="5.97669">
        <ele>1284</ele>
        <time>2013-09-30T11:42:51Z</time>
      </trkpt>
      <trkpt lat="44.51795" lon="5.97644">
        <ele>1289</ele>
        <time>2013-09-30T11:43:01Z</time>
      </trkpt>
      <trkpt lat="44.51803" lon="5.9762">
        <ele>1290</ele>
        <time>2013-09-30T11:43:10Z</time>
      </trkpt>
      <trkpt lat="44.51818" lon="5.97605">
        <ele>1294</ele>
        <time>2013-09-30T11:43:18Z</time>
      </trkpt>
      <trkpt lat="44.51833" lon="5.97589">
        <ele>1300</ele>
        <time>2013-09-30T11:43:24Z</time>
      </trkpt>
      <trkpt lat="44.51837" lon="5.97563">
        <ele>1315</ele>
        <time>2013-09-30T11:43:30Z</time>
      </trkpt>
      <trkpt lat="44.5183" lon="5.97537">
        <ele>1299</ele>
        <time>2013-09-30T11:43:35Z</time>
      </trkpt>
      <trkpt lat="44.51817" lon="5.97516">
        <ele>1301</ele>
        <time>2013-09-30T11:43:42Z</time>
      </trkpt>
      <trkpt lat="44.51814" lon="5.97491">
        <ele>1310</ele>
        <time>2013-09-30T11:43:48Z</time>
      </trkpt>
      <trkpt lat="44.518" lon="5.97472">
        <ele>1311</ele>
        <time>2013-09-30T11:43:57Z</time>
      </trkpt>
      <trkpt lat="44.51784" lon="5.97457">
        <ele>1312</ele>
        <time>2013-09-30T11:44:05Z</time>
      </trkpt>
      <trkpt lat="44.51768" lon="5.97442">
        <ele>1313</ele>
        <time>2013-09-30T11:44:12Z</time>
      </trkpt>
      <trkpt lat="44.5175" lon="5.97435">
        <ele>1315</ele>
        <time>2013-09-30T11:44:21Z</time>
      </trkpt>
      <trkpt lat="44.51734" lon="5.97447">
        <ele>1309</ele>
        <time>2013-09-30T11:44:26Z</time>
      </trkpt>
      <trkpt lat="44.51717" lon="5.97465">
        <ele>1306</ele>
        <time>2013-09-30T11:44:31Z</time>
      </trkpt>
      <trkpt lat="44.51701" lon="5.9748">
        <ele>1304</ele>
        <time>2013-09-30T11:44:37Z</time>
      </trkpt>
      <trkpt lat="44.51682" lon="5.9749">
        <ele>1301</ele>
        <time>2013-09-30T11:44:44Z</time>
      </trkpt>
      <trkpt lat="44.51668" lon="5.97474">
        <ele>1304</ele>
        <time>2013-09-30T11:44:50Z</time>
      </trkpt>
      <trkpt lat="44.51649" lon="5.97464">
        <ele>1307</ele>
        <time>2013-09-30T11:44:55Z</time>
      </trkpt>
      <trkpt lat="44.51627" lon="5.97468">
        <ele>1306</ele>
        <time>2013-09-30T11:45:00Z</time>
      </trkpt>
      <trkpt lat="44.51608" lon="5.97464">
        <ele>1307</ele>
        <time>2013-09-30T11:45:05Z</time>
      </trkpt>
      <trkpt lat="44.51589" lon="5.97459">
        <ele>1308</ele>
        <time>2013-09-30T11:45:10Z</time>
      </trkpt>
      <trkpt lat="44.51568" lon="5.97464">
        <ele>1308</ele>
        <time>2013-09-30T11:45:15Z</time>
      </trkpt>
      <trkpt lat="44.51549" lon="5.97467">
        <ele>1308</ele>
        <time>2013-09-30T11:45:19Z</time>
      </trkpt>
      <trkpt lat="44.5153" lon="5.9747">
        <ele>1308</ele>
        <time>2013-09-30T11:45:24Z</time>
      </trkpt>
      <trkpt lat="44.51511" lon="5.97475">
        <ele>1306</ele>
        <time>2013-09-30T11:45:29Z</time>
      </trkpt>
      <trkpt lat="44.51491" lon="5.97481">
        <ele>1308</ele>
        <time>2013-09-30T11:45:33Z</time>
      </trkpt>
      <trkpt lat="44.5147" lon="5.97481">
        <ele>1312</ele>
        <time>2013-09-30T11:45:38Z</time>
      </trkpt>
      <trkpt lat="44.51452" lon="5.97486">
        <ele>1313</ele>
        <time>2013-09-30T11:45:42Z</time>
      </trkpt>
      <trkpt lat="44.51431" lon="5.9749">
        <ele>1311</ele>
        <time>2013-09-30T11:45:47Z</time>
      </trkpt>
      <trkpt lat="44.51412" lon="5.97487">
        <ele>1316</ele>
        <time>2013-09-30T11:45:52Z</time>
      </trkpt>
      <trkpt lat="44.51391" lon="5.9749">
        <ele>1322</ele>
        <time>2013-09-30T11:45:57Z</time>
      </trkpt>
      <trkpt lat="44.51372" lon="5.97498">
        <ele>1326</ele>
        <time>2013-09-30T11:46:02Z</time>
      </trkpt>
      <trkpt lat="44.51354" lon="5.97513">
        <ele>1308</ele>
        <time>2013-09-30T11:46:07Z</time>
      </trkpt>
      <trkpt lat="44.51339" lon="5.97531">
        <ele>1305</ele>
        <time>2013-09-30T11:46:12Z</time>
      </trkpt>
      <trkpt lat="44.51319" lon="5.97543">
        <ele>1311</ele>
        <time>2013-09-30T11:46:17Z</time>
      </trkpt>
      <trkpt lat="44.51301" lon="5.97554">
        <ele>1310</ele>
        <time>2013-09-30T11:46:21Z</time>
      </trkpt>
      <trkpt lat="44.5128" lon="5.97561">
        <ele>1310</ele>
        <time>2013-09-30T11:46:26Z</time>
      </trkpt>
      <trkpt lat="44.51261" lon="5.97565">
        <ele>1309</ele>
        <time>2013-09-30T11:46:30Z</time>
      </trkpt>
      <trkpt lat="44.51242" lon="5.97569">
        <ele>1311</ele>
        <time>2013-09-30T11:46:34Z</time>
      </trkpt>
      <trkpt lat="44.51221" lon="5.97573">
        <ele>1312</ele>
        <time>2013-09-30T11:46:40Z</time>
      </trkpt>
      <trkpt lat="44.51202" lon="5.97578">
        <ele>1312</ele>
        <time>2013-09-30T11:46:46Z</time>
      </trkpt>
      <trkpt lat="44.51183" lon="5.97587">
        <ele>1298</ele>
        <time>2013-09-30T11:46:51Z</time>
      </trkpt>
      <trkpt lat="44.51165" lon="5.97579">
        <ele>1303</ele>
        <time>2013-09-30T11:46:56Z</time>
      </trkpt>
      <trkpt lat="44.51154" lon="5.97557">
        <ele>1308</ele>
        <time>2013-09-30T11:47:02Z</time>
      </trkpt>
      <trkpt lat="44.51142" lon="5.97538">
        <ele>1311</ele>
        <time>2013-09-30T11:47:09Z</time>
      </trkpt>
      <trkpt lat="44.51126" lon="5.97525">
        <ele>1312</ele>
        <time>2013-09-30T11:47:16Z</time>
      </trkpt>
      <trkpt lat="44.51109" lon="5.97516">
        <ele>1312</ele>
        <time>2013-09-30T11:47:21Z</time>
      </trkpt>
      <trkpt lat="44.51089" lon="5.97513">
        <ele>1313</ele>
        <time>2013-09-30T11:47:26Z</time>
      </trkpt>
      <trkpt lat="44.51069" lon="5.97514">
        <ele>1310</ele>
        <time>2013-09-30T11:47:32Z</time>
      </trkpt>
      <trkpt lat="44.51048" lon="5.97515">
        <ele>1308</ele>
        <time>2013-09-30T11:47:39Z</time>
      </trkpt>
      <trkpt lat="44.5103" lon="5.97518">
        <ele>1308</ele>
        <time>2013-09-30T11:47:44Z</time>
      </trkpt>
      <trkpt lat="44.51009" lon="5.97524">
        <ele>1309</ele>
        <time>2013-09-30T11:47:51Z</time>
      </trkpt>
      <trkpt lat="44.5099" lon="5.97528">
        <ele>1315</ele>
        <time>2013-09-30T11:47:57Z</time>
      </trkpt>
      <trkpt lat="44.50972" lon="5.97537">
        <ele>1315</ele>
        <time>2013-09-30T11:48:02Z</time>
      </trkpt>
      <trkpt lat="44.50953" lon="5.9755">
        <ele>1315</ele>
        <time>2013-09-30T11:48:07Z</time>
      </trkpt>
      <trkpt lat="44.50935" lon="5.97564">
        <ele>1314</ele>
        <time>2013-09-30T11:48:12Z</time>
      </trkpt>
      <trkpt lat="44.50919" lon="5.97581">
        <ele>1312</ele>
        <time>2013-09-30T11:48:17Z</time>
      </trkpt>
      <trkpt lat="44.50905" lon="5.97598">
        <ele>1302</ele>
        <time>2013-09-30T11:48:22Z</time>
      </trkpt>
      <trkpt lat="44.50883" lon="5.97607">
        <ele>1298</ele>
        <time>2013-09-30T11:48:27Z</time>
      </trkpt>
      <trkpt lat="44.50865" lon="5.97607">
        <ele>1298</ele>
        <time>2013-09-30T11:48:32Z</time>
      </trkpt>
      <trkpt lat="44.50849" lon="5.97594">
        <ele>1301</ele>
        <time>2013-09-30T11:48:38Z</time>
      </trkpt>
      <trkpt lat="44.50831" lon="5.9758">
        <ele>1310</ele>
        <time>2013-09-30T11:48:44Z</time>
      </trkpt>
      <trkpt lat="44.50814" lon="5.97568">
        <ele>1314</ele>
        <time>2013-09-30T11:48:48Z</time>
      </trkpt>
      <trkpt lat="44.50796" lon="5.97556">
        <ele>1316</ele>
        <time>2013-09-30T11:48:52Z</time>
      </trkpt>
      <trkpt lat="44.50779" lon="5.97546">
        <ele>1316</ele>
        <time>2013-09-30T11:48:56Z</time>
      </trkpt>
      <trkpt lat="44.5076" lon="5.97543">
        <ele>1316</ele>
        <time>2013-09-30T11:49:01Z</time>
      </trkpt>
      <trkpt lat="44.50739" lon="5.97547">
        <ele>1309</ele>
        <time>2013-09-30T11:49:08Z</time>
      </trkpt>
      <trkpt lat="44.5072" lon="5.97543">
        <ele>1310</ele>
        <time>2013-09-30T11:49:15Z</time>
      </trkpt>
      <trkpt lat="44.50701" lon="5.97535">
        <ele>1311</ele>
        <time>2013-09-30T11:49:20Z</time>
      </trkpt>
      <trkpt lat="44.50681" lon="5.97524">
        <ele>1313</ele>
        <time>2013-09-30T11:49:25Z</time>
      </trkpt>
      <trkpt lat="44.50661" lon="5.97517">
        <ele>1315</ele>
        <time>2013-09-30T11:49:31Z</time>
      </trkpt>
      <trkpt lat="44.50641" lon="5.9752">
        <ele>1312</ele>
        <time>2013-09-30T11:49:36Z</time>
      </trkpt>
      <trkpt lat="44.50621" lon="5.97531">
        <ele>1310</ele>
        <time>2013-09-30T11:49:42Z</time>
      </trkpt>
      <trkpt lat="44.50603" lon="5.97539">
        <ele>1309</ele>
        <time>2013-09-30T11:49:48Z</time>
      </trkpt>
      <trkpt lat="44.50584" lon="5.97541">
        <ele>1309</ele>
        <time>2013-09-30T11:49:54Z</time>
      </trkpt>
      <trkpt lat="44.50564" lon="5.9754">
        <ele>1305</ele>
        <time>2013-09-30T11:50:00Z</time>
      </trkpt>
      <trkpt lat="44.50545" lon="5.97535">
        <ele>1304</ele>
        <time>2013-09-30T11:50:05Z</time>
      </trkpt>
      <trkpt lat="44.50528" lon="5.97526">
        <ele>1304</ele>
        <time>2013-09-30T11:50:10Z</time>
      </trkpt>
      <trkpt lat="44.50514" lon="5.97506">
        <ele>1304</ele>
        <time>2013-09-30T11:50:17Z</time>
      </trkpt>
      <trkpt lat="44.50503" lon="5.97482">
        <ele>1314</ele>
        <time>2013-09-30T11:50:23Z</time>
      </trkpt>
      <trkpt lat="44.50489" lon="5.9746">
        <ele>1302</ele>
        <time>2013-09-30T11:50:28Z</time>
      </trkpt>
      <trkpt lat="44.50474" lon="5.97444">
        <ele>1303</ele>
        <time>2013-09-30T11:50:32Z</time>
      </trkpt>
      <trkpt lat="44.50459" lon="5.97425">
        <ele>1301</ele>
        <time>2013-09-30T11:50:36Z</time>
      </trkpt>
      <trkpt lat="44.50443" lon="5.97408">
        <ele>1310</ele>
        <time>2013-09-30T11:50:40Z</time>
      </trkpt>
      <trkpt lat="44.50428" lon="5.97392">
        <ele>1309</ele>
        <time>2013-09-30T11:50:44Z</time>
      </trkpt>
      <trkpt lat="44.50415" lon="5.97376">
        <ele>1300</ele>
        <time>2013-09-30T11:50:48Z</time>
      </trkpt>
      <trkpt lat="44.50398" lon="5.97363">
        <ele>1303</ele>
        <time>2013-09-30T11:50:54Z</time>
      </trkpt>
      <trkpt lat="44.50379" lon="5.97354">
        <ele>1302</ele>
        <time>2013-09-30T11:50:59Z</time>
      </trkpt>
      <trkpt lat="44.50361" lon="5.97343">
        <ele>1302</ele>
        <time>2013-09-30T11:51:04Z</time>
      </trkpt>
      <trkpt lat="44.50342" lon="5.97332">
        <ele>1313</ele>
        <time>2013-09-30T11:51:09Z</time>
      </trkpt>
      <trkpt lat="44.50324" lon="5.97328">
        <ele>1312</ele>
        <time>2013-09-30T11:51:15Z</time>
      </trkpt>
      <trkpt lat="44.50303" lon="5.97325">
        <ele>1317</ele>
        <time>2013-09-30T11:51:20Z</time>
      </trkpt>
      <trkpt lat="44.50282" lon="5.97323">
        <ele>1317</ele>
        <time>2013-09-30T11:51:26Z</time>
      </trkpt>
      <trkpt lat="44.50263" lon="5.97323">
        <ele>1314</ele>
        <time>2013-09-30T11:51:32Z</time>
      </trkpt>
      <trkpt lat="44.50243" lon="5.97323">
        <ele>1311</ele>
        <time>2013-09-30T11:51:38Z</time>
      </trkpt>
      <trkpt lat="44.50222" lon="5.97322">
        <ele>1314</ele>
        <time>2013-09-30T11:51:45Z</time>
      </trkpt>
      <trkpt lat="44.50201" lon="5.9732">
        <ele>1314</ele>
        <time>2013-09-30T11:51:51Z</time>
      </trkpt>
      <trkpt lat="44.50179" lon="5.97325">
        <ele>1309</ele>
        <time>2013-09-30T11:51:57Z</time>
      </trkpt>
      <trkpt lat="44.50161" lon="5.97323">
        <ele>1304</ele>
        <time>2013-09-30T11:52:02Z</time>
      </trkpt>
      <trkpt lat="44.50147" lon="5.97307">
        <ele>1306</ele>
        <time>2013-09-30T11:52:08Z</time>
      </trkpt>
      <trkpt lat="44.50134" lon="5.97287">
        <ele>1308</ele>
        <time>2013-09-30T11:52:12Z</time>
      </trkpt>
      <trkpt lat="44.50119" lon="5.97267">
        <ele>1308</ele>
        <time>2013-09-30T11:52:18Z</time>
      </trkpt>
      <trkpt lat="44.50103" lon="5.97255">
        <ele>1308</ele>
        <time>2013-09-30T11:52:23Z</time>
      </trkpt>
      <trkpt lat="44.50082" lon="5.97245">
        <ele>1309</ele>
        <time>2013-09-30T11:52:29Z</time>
      </trkpt>
      <trkpt lat="44.50065" lon="5.97235">
        <ele>1310</ele>
        <time>2013-09-30T11:52:34Z</time>
      </trkpt>
      <trkpt lat="44.50045" lon="5.97222">
        <ele>1311</ele>
        <time>2013-09-30T11:52:40Z</time>
      </trkpt>
      <trkpt lat="44.50028" lon="5.97213">
        <ele>1310</ele>
        <time>2013-09-30T11:52:44Z</time>
      </trkpt>
      <trkpt lat="44.5001" lon="5.97205">
        <ele>1310</ele>
        <time>2013-09-30T11:52:48Z</time>
      </trkpt>
      <trkpt lat="44.49991" lon="5.97195">
        <ele>1303</ele>
        <time>2013-09-30T11:52:52Z</time>
      </trkpt>
      <trkpt lat="44.49968" lon="5.97182">
        <ele>1303</ele>
        <time>2013-09-30T11:52:56Z</time>
      </trkpt>
      <trkpt lat="44.49951" lon="5.97171">
        <ele>1302</ele>
        <time>2013-09-30T11:52:59Z</time>
      </trkpt>
      <trkpt lat="44.4993" lon="5.97156">
        <ele>1314</ele>
        <time>2013-09-30T11:53:03Z</time>
      </trkpt>
      <trkpt lat="44.49909" lon="5.97146">
        <ele>1306</ele>
        <time>2013-09-30T11:53:07Z</time>
      </trkpt>
      <trkpt lat="44.49891" lon="5.97134">
        <ele>1306</ele>
        <time>2013-09-30T11:53:11Z</time>
      </trkpt>
      <trkpt lat="44.49876" lon="5.97119">
        <ele>1307</ele>
        <time>2013-09-30T11:53:15Z</time>
      </trkpt>
      <trkpt lat="44.49857" lon="5.97094">
        <ele>1306</ele>
        <time>2013-09-30T11:53:21Z</time>
      </trkpt>
      <trkpt lat="44.49846" lon="5.97074">
        <ele>1315</ele>
        <time>2013-09-30T11:53:26Z</time>
      </trkpt>
      <trkpt lat="44.49841" lon="5.97049">
        <ele>1321</ele>
        <time>2013-09-30T11:53:32Z</time>
      </trkpt>
      <trkpt lat="44.49832" lon="5.97027">
        <ele>1307</ele>
        <time>2013-09-30T11:53:37Z</time>
      </trkpt>
      <trkpt lat="44.4983" lon="5.97002">
        <ele>1318</ele>
        <time>2013-09-30T11:53:49Z</time>
      </trkpt>
      <trkpt lat="44.49824" lon="5.96976">
        <ele>1318</ele>
        <time>2013-09-30T11:54:03Z</time>
      </trkpt>
      <trkpt lat="44.49815" lon="5.96952">
        <ele>1320</ele>
        <time>2013-09-30T11:54:10Z</time>
      </trkpt>
      <trkpt lat="44.49804" lon="5.96928">
        <ele>1321</ele>
        <time>2013-09-30T11:54:18Z</time>
      </trkpt>
      <trkpt lat="44.49793" lon="5.96907">
        <ele>1332</ele>
        <time>2013-09-30T11:54:27Z</time>
      </trkpt>
      <trkpt lat="44.49781" lon="5.96885">
        <ele>1331</ele>
        <time>2013-09-30T11:54:35Z</time>
      </trkpt>
      <trkpt lat="44.49769" lon="5.96864">
        <ele>1333</ele>
        <time>2013-09-30T11:54:43Z</time>
      </trkpt>
      <trkpt lat="44.49753" lon="5.96847">
        <ele>1332</ele>
        <time>2013-09-30T11:54:54Z</time>
      </trkpt>
      <trkpt lat="44.49735" lon="5.96836">
        <ele>1321</ele>
        <time>2013-09-30T11:55:02Z</time>
      </trkpt>
      <trkpt lat="44.49717" lon="5.96828">
        <ele>1334</ele>
        <time>2013-09-30T11:55:12Z</time>
      </trkpt>
      <trkpt lat="44.49699" lon="5.96825">
        <ele>1332</ele>
        <time>2013-09-30T11:55:20Z</time>
      </trkpt>
      <trkpt lat="44.49679" lon="5.96821">
        <ele>1327</ele>
        <time>2013-09-30T11:55:27Z</time>
      </trkpt>
      <trkpt lat="44.49662" lon="5.96812">
        <ele>1321</ele>
        <time>2013-09-30T11:55:33Z</time>
      </trkpt>
      <trkpt lat="44.49644" lon="5.96803">
        <ele>1323</ele>
        <time>2013-09-30T11:55:39Z</time>
      </trkpt>
      <trkpt lat="44.49624" lon="5.96786">
        <ele>1324</ele>
        <time>2013-09-30T11:55:44Z</time>
      </trkpt>
      <trkpt lat="44.49608" lon="5.96772">
        <ele>1325</ele>
        <time>2013-09-30T11:55:48Z</time>
      </trkpt>
      <trkpt lat="44.4959" lon="5.96761">
        <ele>1327</ele>
        <time>2013-09-30T11:55:51Z</time>
      </trkpt>
      <trkpt lat="44.4957" lon="5.9675">
        <ele>1330</ele>
        <time>2013-09-30T11:55:55Z</time>
      </trkpt>
      <trkpt lat="44.49549" lon="5.96745">
        <ele>1330</ele>
        <time>2013-09-30T11:56:02Z</time>
      </trkpt>
      <trkpt lat="44.49531" lon="5.96739">
        <ele>1329</ele>
        <time>2013-09-30T11:56:09Z</time>
      </trkpt>
      <trkpt lat="44.49515" lon="5.96723">
        <ele>1329</ele>
        <time>2013-09-30T11:56:17Z</time>
      </trkpt>
      <trkpt lat="44.49499" lon="5.96705">
        <ele>1327</ele>
        <time>2013-09-30T11:56:27Z</time>
      </trkpt>
      <trkpt lat="44.49484" lon="5.96693">
        <ele>1328</ele>
        <time>2013-09-30T11:56:33Z</time>
      </trkpt>
      <trkpt lat="44.49467" lon="5.96679">
        <ele>1328</ele>
        <time>2013-09-30T11:56:42Z</time>
      </trkpt>
      <trkpt lat="44.49453" lon="5.96661">
        <ele>1334</ele>
        <time>2013-09-30T11:56:52Z</time>
      </trkpt>
      <trkpt lat="44.49441" lon="5.96641">
        <ele>1334</ele>
        <time>2013-09-30T11:57:03Z</time>
      </trkpt>
      <trkpt lat="44.49431" lon="5.96617">
        <ele>1335</ele>
        <time>2013-09-30T11:57:17Z</time>
      </trkpt>
      <trkpt lat="44.49421" lon="5.96594">
        <ele>1335</ele>
        <time>2013-09-30T11:57:29Z</time>
      </trkpt>
      <trkpt lat="44.49421" lon="5.96569">
        <ele>1339</ele>
        <time>2013-09-30T11:57:48Z</time>
      </trkpt>
      <trkpt lat="44.49417" lon="5.96543">
        <ele>1343</ele>
        <time>2013-09-30T11:58:01Z</time>
      </trkpt>
      <trkpt lat="44.49405" lon="5.96521">
        <ele>1339</ele>
        <time>2013-09-30T11:58:09Z</time>
      </trkpt>
      <trkpt lat="44.49398" lon="5.96496">
        <ele>1344</ele>
        <time>2013-09-30T11:58:22Z</time>
      </trkpt>
      <trkpt lat="44.49387" lon="5.9647">
        <ele>1345</ele>
        <time>2013-09-30T11:58:33Z</time>
      </trkpt>
      <trkpt lat="44.49374" lon="5.96451">
        <ele>1345</ele>
        <time>2013-09-30T11:58:38Z</time>
      </trkpt>
      <trkpt lat="44.49358" lon="5.96433">
        <ele>1345</ele>
        <time>2013-09-30T11:58:45Z</time>
      </trkpt>
      <trkpt lat="44.49344" lon="5.96415">
        <ele>1351</ele>
        <time>2013-09-30T11:58:56Z</time>
      </trkpt>
      <trkpt lat="44.49325" lon="5.96411">
        <ele>1344</ele>
        <time>2013-09-30T11:59:08Z</time>
      </trkpt>
      <trkpt lat="44.49309" lon="5.96395">
        <ele>1344</ele>
        <time>2013-09-30T11:59:18Z</time>
      </trkpt>
      <trkpt lat="44.49297" lon="5.96377">
        <ele>1345</ele>
        <time>2013-09-30T11:59:30Z</time>
      </trkpt>
      <trkpt lat="44.49285" lon="5.96355">
        <ele>1346</ele>
        <time>2013-09-30T11:59:42Z</time>
      </trkpt>
      <trkpt lat="44.4928" lon="5.96327">
        <ele>1358</ele>
        <time>2013-09-30T11:59:51Z</time>
      </trkpt>
      <trkpt lat="44.49275" lon="5.96303">
        <ele>1361</ele>
        <time>2013-09-30T11:59:59Z</time>
      </trkpt>
      <trkpt lat="44.49264" lon="5.96282">
        <ele>1362</ele>
        <time>2013-09-30T12:00:06Z</time>
      </trkpt>
      <trkpt lat="44.49248" lon="5.96269">
        <ele>1348</ele>
        <time>2013-09-30T12:00:16Z</time>
      </trkpt>
      <trkpt lat="44.4923" lon="5.96259">
        <ele>1347</ele>
        <time>2013-09-30T12:00:25Z</time>
      </trkpt>
      <trkpt lat="44.49215" lon="5.96243">
        <ele>1351</ele>
        <time>2013-09-30T12:00:35Z</time>
      </trkpt>
      <trkpt lat="44.49212" lon="5.96217">
        <ele>1352</ele>
        <time>2013-09-30T12:00:47Z</time>
      </trkpt>
      <trkpt lat="44.49214" lon="5.96192">
        <ele>1354</ele>
        <time>2013-09-30T12:01:27Z</time>
      </trkpt>
      <trkpt lat="44.49222" lon="5.96167">
        <ele>1359</ele>
        <time>2013-09-30T12:01:39Z</time>
      </trkpt>
      <trkpt lat="44.4923" lon="5.96143">
        <ele>1369</ele>
        <time>2013-09-30T12:01:53Z</time>
      </trkpt>
      <trkpt lat="44.49225" lon="5.96118">
        <ele>1369</ele>
        <time>2013-09-30T12:02:04Z</time>
      </trkpt>
      <trkpt lat="44.4922" lon="5.96093">
        <ele>1370</ele>
        <time>2013-09-30T12:02:16Z</time>
      </trkpt>
      <trkpt lat="44.49219" lon="5.96068">
        <ele>1375</ele>
        <time>2013-09-30T12:02:26Z</time>
      </trkpt>
      <trkpt lat="44.49217" lon="5.96043">
        <ele>1374</ele>
        <time>2013-09-30T12:02:36Z</time>
      </trkpt>
      <trkpt lat="44.49218" lon="5.96015">
        <ele>1376</ele>
        <time>2013-09-30T12:02:47Z</time>
      </trkpt>
      <trkpt lat="44.49217" lon="5.95987">
        <ele>1380</ele>
        <time>2013-09-30T12:02:58Z</time>
      </trkpt>
      <trkpt lat="44.49213" lon="5.95962">
        <ele>1379</ele>
        <time>2013-09-30T12:03:08Z</time>
      </trkpt>
      <trkpt lat="44.49206" lon="5.95939">
        <ele>1378</ele>
        <time>2013-09-30T12:03:15Z</time>
      </trkpt>
      <trkpt lat="44.49201" lon="5.95914">
        <ele>1380</ele>
        <time>2013-09-30T12:03:21Z</time>
      </trkpt>
      <trkpt lat="44.49197" lon="5.95888">
        <ele>1381</ele>
        <time>2013-09-30T12:03:32Z</time>
      </trkpt>
      <trkpt lat="44.49195" lon="5.95862">
        <ele>1381</ele>
        <time>2013-09-30T12:03:41Z</time>
      </trkpt>
      <trkpt lat="44.49193" lon="5.95837">
        <ele>1379</ele>
        <time>2013-09-30T12:03:52Z</time>
      </trkpt>
      <trkpt lat="44.492" lon="5.95812">
        <ele>1384</ele>
        <time>2013-09-30T12:04:00Z</time>
      </trkpt>
      <trkpt lat="44.49205" lon="5.95786">
        <ele>1385</ele>
        <time>2013-09-30T12:04:08Z</time>
      </trkpt>
      <trkpt lat="44.49209" lon="5.95761">
        <ele>1386</ele>
        <time>2013-09-30T12:05:41Z</time>
      </trkpt>
      <trkpt lat="44.49216" lon="5.95737">
        <ele>1385</ele>
        <time>2013-09-30T12:05:59Z</time>
      </trkpt>
      <trkpt lat="44.49223" lon="5.95713">
        <ele>1385</ele>
        <time>2013-09-30T12:06:14Z</time>
      </trkpt>
      <trkpt lat="44.49228" lon="5.95689">
        <ele>1386</ele>
        <time>2013-09-30T12:06:30Z</time>
      </trkpt>
      <trkpt lat="44.49236" lon="5.95665">
        <ele>1387</ele>
        <time>2013-09-30T12:08:52Z</time>
      </trkpt>
      <trkpt lat="44.49244" lon="5.95642">
        <ele>1382</ele>
        <time>2013-09-30T12:09:04Z</time>
      </trkpt>
      <trkpt lat="44.49252" lon="5.95616">
        <ele>1407</ele>
        <time>2013-09-30T12:09:12Z</time>
      </trkpt>
      <trkpt lat="44.49263" lon="5.95592">
        <ele>1401</ele>
        <time>2013-09-30T12:09:19Z</time>
      </trkpt>
      <trkpt lat="44.49274" lon="5.95569">
        <ele>1402</ele>
        <time>2013-09-30T12:09:26Z</time>
      </trkpt>
      <trkpt lat="44.49277" lon="5.95543">
        <ele>1405</ele>
        <time>2013-09-30T12:09:33Z</time>
      </trkpt>
      <trkpt lat="44.49273" lon="5.95516">
        <ele>1402</ele>
        <time>2013-09-30T12:09:40Z</time>
      </trkpt>
      <trkpt lat="44.49272" lon="5.95491">
        <ele>1401</ele>
        <time>2013-09-30T12:09:49Z</time>
      </trkpt>
      <trkpt lat="44.49278" lon="5.95467">
        <ele>1405</ele>
        <time>2013-09-30T12:09:57Z</time>
      </trkpt>
      <trkpt lat="44.49283" lon="5.95443">
        <ele>1407</ele>
        <time>2013-09-30T12:10:08Z</time>
      </trkpt>
      <trkpt lat="44.4928" lon="5.95417">
        <ele>1405</ele>
        <time>2013-09-30T12:10:21Z</time>
      </trkpt>
      <trkpt lat="44.49284" lon="5.95392">
        <ele>1408</ele>
        <time>2013-09-30T12:10:34Z</time>
      </trkpt>
      <trkpt lat="44.49293" lon="5.95369">
        <ele>1410</ele>
        <time>2013-09-30T12:10:45Z</time>
      </trkpt>
      <trkpt lat="44.49298" lon="5.95342">
        <ele>1412</ele>
        <time>2013-09-30T12:10:51Z</time>
      </trkpt>
      <trkpt lat="44.49299" lon="5.95314">
        <ele>1412</ele>
        <time>2013-09-30T12:10:56Z</time>
      </trkpt>
      <trkpt lat="44.49303" lon="5.95288">
        <ele>1413</ele>
        <time>2013-09-30T12:11:01Z</time>
      </trkpt>
      <trkpt lat="44.49299" lon="5.95261">
        <ele>1413</ele>
        <time>2013-09-30T12:11:06Z</time>
      </trkpt>
      <trkpt lat="44.49293" lon="5.95238">
        <ele>1415</ele>
        <time>2013-09-30T12:12:07Z</time>
      </trkpt>
      <trkpt lat="44.49295" lon="5.95212">
        <ele>1417</ele>
        <time>2013-09-30T12:12:20Z</time>
      </trkpt>
      <trkpt lat="44.4929" lon="5.95188">
        <ele>1417</ele>
        <time>2013-09-30T12:13:24Z</time>
      </trkpt>
      <trkpt lat="44.4928" lon="5.95166">
        <ele>1423</ele>
        <time>2013-09-30T12:13:31Z</time>
      </trkpt>
      <trkpt lat="44.49271" lon="5.95142">
        <ele>1423</ele>
        <time>2013-09-30T12:13:39Z</time>
      </trkpt>
      <trkpt lat="44.49262" lon="5.95119">
        <ele>1425</ele>
        <time>2013-09-30T12:13:48Z</time>
      </trkpt>
      <trkpt lat="44.49256" lon="5.95094">
        <ele>1423</ele>
        <time>2013-09-30T12:13:57Z</time>
      </trkpt>
      <trkpt lat="44.49246" lon="5.9507">
        <ele>1417</ele>
        <time>2013-09-30T12:14:06Z</time>
      </trkpt>
      <trkpt lat="44.49239" lon="5.95047">
        <ele>1417</ele>
        <time>2013-09-30T12:14:19Z</time>
      </trkpt>
      <trkpt lat="44.49234" lon="5.95021">
        <ele>1422</ele>
        <time>2013-09-30T12:14:33Z</time>
      </trkpt>
      <trkpt lat="44.49228" lon="5.94996">
        <ele>1432</ele>
        <time>2013-09-30T12:14:41Z</time>
      </trkpt>
      <trkpt lat="44.49217" lon="5.94974">
        <ele>1431</ele>
        <time>2013-09-30T12:14:50Z</time>
      </trkpt>
      <trkpt lat="44.49207" lon="5.94953">
        <ele>1431</ele>
        <time>2013-09-30T12:14:58Z</time>
      </trkpt>
      <trkpt lat="44.49195" lon="5.94933">
        <ele>1430</ele>
        <time>2013-09-30T12:15:07Z</time>
      </trkpt>
      <trkpt lat="44.49185" lon="5.94912">
        <ele>1437</ele>
        <time>2013-09-30T12:15:15Z</time>
      </trkpt>
      <trkpt lat="44.49174" lon="5.9489">
        <ele>1440</ele>
        <time>2013-09-30T12:15:21Z</time>
      </trkpt>
      <trkpt lat="44.49162" lon="5.94868">
        <ele>1430</ele>
        <time>2013-09-30T12:15:29Z</time>
      </trkpt>
      <trkpt lat="44.49152" lon="5.94846">
        <ele>1434</ele>
        <time>2013-09-30T12:15:39Z</time>
      </trkpt>
      <trkpt lat="44.49132" lon="5.94839">
        <ele>1432</ele>
        <time>2013-09-30T12:15:51Z</time>
      </trkpt>
      <trkpt lat="44.49115" lon="5.9483">
        <ele>1445</ele>
        <time>2013-09-30T12:15:58Z</time>
      </trkpt>
      <trkpt lat="44.49097" lon="5.94829">
        <ele>1441</ele>
        <time>2013-09-30T12:16:07Z</time>
      </trkpt>
      <trkpt lat="44.4908" lon="5.9484">
        <ele>1430</ele>
        <time>2013-09-30T12:16:19Z</time>
      </trkpt>
      <trkpt lat="44.49061" lon="5.9484">
        <ele>1424</ele>
        <time>2013-09-30T12:16:31Z</time>
      </trkpt>
      <trkpt lat="44.49042" lon="5.94844">
        <ele>1421</ele>
        <time>2013-09-30T12:16:43Z</time>
      </trkpt>
      <trkpt lat="44.49023" lon="5.94841">
        <ele>1420</ele>
        <time>2013-09-30T12:16:55Z</time>
      </trkpt>
      <trkpt lat="44.49022" lon="5.94815">
        <ele>1431</ele>
        <time>2013-09-30T12:17:09Z</time>
      </trkpt>
      <trkpt lat="44.49028" lon="5.9479">
        <ele>1432</ele>
        <time>2013-09-30T12:17:18Z</time>
      </trkpt>
      <trkpt lat="44.4904" lon="5.9477">
        <ele>1434</ele>
        <time>2013-09-30T12:17:29Z</time>
      </trkpt>
      <trkpt lat="44.49056" lon="5.94754">
        <ele>1439</ele>
        <time>2013-09-30T12:17:38Z</time>
      </trkpt>
      <trkpt lat="44.49071" lon="5.94738">
        <ele>1444</ele>
        <time>2013-09-30T12:17:48Z</time>
      </trkpt>
      <trkpt lat="44.49082" lon="5.94719">
        <ele>1442</ele>
        <time>2013-09-30T12:17:58Z</time>
      </trkpt>
      <trkpt lat="44.49092" lon="5.94696">
        <ele>1460</ele>
        <time>2013-09-30T12:18:10Z</time>
      </trkpt>
      <trkpt lat="44.491" lon="5.94672">
        <ele>1459</ele>
        <time>2013-09-30T12:18:26Z</time>
      </trkpt>
      <trkpt lat="44.49103" lon="5.94647">
        <ele>1463</ele>
        <time>2013-09-30T12:18:36Z</time>
      </trkpt>
      <trkpt lat="44.49106" lon="5.94622">
        <ele>1465</ele>
        <time>2013-09-30T12:18:49Z</time>
      </trkpt>
      <trkpt lat="44.49104" lon="5.94595">
        <ele>1461</ele>
        <time>2013-09-30T12:19:03Z</time>
      </trkpt>
      <trkpt lat="44.49107" lon="5.9457">
        <ele>1461</ele>
        <time>2013-09-30T12:19:11Z</time>
      </trkpt>
      <trkpt lat="44.49108" lon="5.94545">
        <ele>1464</ele>
        <time>2013-09-30T12:19:19Z</time>
      </trkpt>
      <trkpt lat="44.49112" lon="5.94518">
        <ele>1463</ele>
        <time>2013-09-30T12:19:29Z</time>
      </trkpt>
      <trkpt lat="44.49113" lon="5.94493">
        <ele>1456</ele>
        <time>2013-09-30T12:19:44Z</time>
      </trkpt>
      <trkpt lat="44.49125" lon="5.94474">
        <ele>1457</ele>
        <time>2013-09-30T12:20:10Z</time>
      </trkpt>
      <trkpt lat="44.49144" lon="5.94469">
        <ele>1461</ele>
        <time>2013-09-30T12:23:25Z</time>
      </trkpt>
      <trkpt lat="44.49162" lon="5.9446">
        <ele>1461</ele>
        <time>2013-09-30T12:23:37Z</time>
      </trkpt>
      <trkpt lat="44.4918" lon="5.94452">
        <ele>1481</ele>
        <time>2013-09-30T12:23:50Z</time>
      </trkpt>
      <trkpt lat="44.49196" lon="5.94435">
        <ele>1480</ele>
        <time>2013-09-30T12:24:03Z</time>
      </trkpt>
      <trkpt lat="44.49212" lon="5.94424">
        <ele>1484</ele>
        <time>2013-09-30T12:24:15Z</time>
      </trkpt>
      <trkpt lat="44.49225" lon="5.94405">
        <ele>1473</ele>
        <time>2013-09-30T12:24:27Z</time>
      </trkpt>
      <trkpt lat="44.49234" lon="5.94383">
        <ele>1472</ele>
        <time>2013-09-30T12:24:36Z</time>
      </trkpt>
      <trkpt lat="44.49246" lon="5.94363">
        <ele>1471</ele>
        <time>2013-09-30T12:24:43Z</time>
      </trkpt>
      <trkpt lat="44.49253" lon="5.9434">
        <ele>1484</ele>
        <time>2013-09-30T12:24:52Z</time>
      </trkpt>
      <trkpt lat="44.49261" lon="5.94317">
        <ele>1490</ele>
        <time>2013-09-30T12:25:02Z</time>
      </trkpt>
      <trkpt lat="44.49264" lon="5.94291">
        <ele>1495</ele>
        <time>2013-09-30T12:25:13Z</time>
      </trkpt>
      <trkpt lat="44.49268" lon="5.94265">
        <ele>1492</ele>
        <time>2013-09-30T12:25:24Z</time>
      </trkpt>
      <trkpt lat="44.49272" lon="5.94239">
        <ele>1494</ele>
        <time>2013-09-30T12:25:39Z</time>
      </trkpt>
      <trkpt lat="44.49272" lon="5.94214">
        <ele>1498</ele>
        <time>2013-09-30T12:25:54Z</time>
      </trkpt>
      <trkpt lat="44.49273" lon="5.94187">
        <ele>1497</ele>
        <time>2013-09-30T12:26:09Z</time>
      </trkpt>
      <trkpt lat="44.49271" lon="5.9416">
        <ele>1496</ele>
        <time>2013-09-30T12:26:23Z</time>
      </trkpt>
      <trkpt lat="44.49272" lon="5.94134">
        <ele>1500</ele>
        <time>2013-09-30T12:26:36Z</time>
      </trkpt>
      <trkpt lat="44.49282" lon="5.94112">
        <ele>1503</ele>
        <time>2013-09-30T12:26:50Z</time>
      </trkpt>
      <trkpt lat="44.49283" lon="5.94086">
        <ele>1503</ele>
        <time>2013-09-30T12:27:06Z</time>
      </trkpt>
      <trkpt lat="44.49285" lon="5.94059">
        <ele>1506</ele>
        <time>2013-09-30T12:27:17Z</time>
      </trkpt>
      <trkpt lat="44.49288" lon="5.94032">
        <ele>1507</ele>
        <time>2013-09-30T12:27:26Z</time>
      </trkpt>
      <trkpt lat="44.49291" lon="5.94007">
        <ele>1508</ele>
        <time>2013-09-30T12:27:37Z</time>
      </trkpt>
      <trkpt lat="44.49291" lon="5.93981">
        <ele>1511</ele>
        <time>2013-09-30T12:30:09Z</time>
      </trkpt>
      <trkpt lat="44.49283" lon="5.93956">
        <ele>1510</ele>
        <time>2013-09-30T12:30:25Z</time>
      </trkpt>
      <trkpt lat="44.49281" lon="5.9393">
        <ele>1509</ele>
        <time>2013-09-30T12:30:40Z</time>
      </trkpt>
      <trkpt lat="44.49277" lon="5.93905">
        <ele>1509</ele>
        <time>2013-09-30T12:30:52Z</time>
      </trkpt>
      <trkpt lat="44.49272" lon="5.9388">
        <ele>1510</ele>
        <time>2013-09-30T12:31:02Z</time>
      </trkpt>
      <trkpt lat="44.49277" lon="5.93854">
        <ele>1510</ele>
        <time>2013-09-30T12:32:21Z</time>
      </trkpt>
      <trkpt lat="44.4928" lon="5.93828">
        <ele>1505</ele>
        <time>2013-09-30T12:32:29Z</time>
      </trkpt>
      <trkpt lat="44.4928" lon="5.93802">
        <ele>1504</ele>
        <time>2013-09-30T12:32:37Z</time>
      </trkpt>
      <trkpt lat="44.49287" lon="5.93776">
        <ele>1503</ele>
        <time>2013-09-30T12:32:47Z</time>
      </trkpt>
      <trkpt lat="44.49301" lon="5.9376">
        <ele>1507</ele>
        <time>2013-09-30T12:32:57Z</time>
      </trkpt>
      <trkpt lat="44.49314" lon="5.9374">
        <ele>1500</ele>
        <time>2013-09-30T12:33:07Z</time>
      </trkpt>
      <trkpt lat="44.49329" lon="5.93722">
        <ele>1497</ele>
        <time>2013-09-30T12:33:15Z</time>
      </trkpt>
      <trkpt lat="44.49341" lon="5.93702">
        <ele>1514</ele>
        <time>2013-09-30T12:33:23Z</time>
      </trkpt>
      <trkpt lat="44.49352" lon="5.9368">
        <ele>1510</ele>
        <time>2013-09-30T12:33:32Z</time>
      </trkpt>
      <trkpt lat="44.49366" lon="5.93663">
        <ele>1497</ele>
        <time>2013-09-30T12:33:37Z</time>
      </trkpt>
      <trkpt lat="44.49383" lon="5.93645">
        <ele>1500</ele>
        <time>2013-09-30T12:33:44Z</time>
      </trkpt>
      <trkpt lat="44.49395" lon="5.93624">
        <ele>1498</ele>
        <time>2013-09-30T12:33:50Z</time>
      </trkpt>
      <trkpt lat="44.4941" lon="5.93608">
        <ele>1497</ele>
        <time>2013-09-30T12:33:56Z</time>
      </trkpt>
      <trkpt lat="44.49428" lon="5.93593">
        <ele>1508</ele>
        <time>2013-09-30T12:34:08Z</time>
      </trkpt>
      <trkpt lat="44.49446" lon="5.93588">
        <ele>1515</ele>
        <time>2013-09-30T12:34:17Z</time>
      </trkpt>
      <trkpt lat="44.49465" lon="5.93583">
        <ele>1519</ele>
        <time>2013-09-30T12:34:23Z</time>
      </trkpt>
      <trkpt lat="44.49484" lon="5.93574">
        <ele>1505</ele>
        <time>2013-09-30T12:34:29Z</time>
      </trkpt>
      <trkpt lat="44.49501" lon="5.93559">
        <ele>1517</ele>
        <time>2013-09-30T12:34:36Z</time>
      </trkpt>
      <trkpt lat="44.49516" lon="5.93543">
        <ele>1515</ele>
        <time>2013-09-30T12:34:42Z</time>
      </trkpt>
      <trkpt lat="44.4953" lon="5.93521">
        <ele>1512</ele>
        <time>2013-09-30T12:34:49Z</time>
      </trkpt>
      <trkpt lat="44.49545" lon="5.93505">
        <ele>1514</ele>
        <time>2013-09-30T12:34:57Z</time>
      </trkpt>
      <trkpt lat="44.49563" lon="5.935">
        <ele>1517</ele>
        <time>2013-09-30T12:35:07Z</time>
      </trkpt>
      <trkpt lat="44.49582" lon="5.93494">
        <ele>1513</ele>
        <time>2013-09-30T12:35:19Z</time>
      </trkpt>
      <trkpt lat="44.49597" lon="5.93476">
        <ele>1529</ele>
        <time>2013-09-30T12:35:31Z</time>
      </trkpt>
      <trkpt lat="44.49598" lon="5.9345">
        <ele>1528</ele>
        <time>2013-09-30T12:35:37Z</time>
      </trkpt>
      <trkpt lat="44.49593" lon="5.93424">
        <ele>1517</ele>
        <time>2013-09-30T12:35:42Z</time>
      </trkpt>
      <trkpt lat="44.49593" lon="5.93398">
        <ele>1519</ele>
        <time>2013-09-30T12:35:47Z</time>
      </trkpt>
      <trkpt lat="44.49595" lon="5.9337">
        <ele>1523</ele>
        <time>2013-09-30T12:35:54Z</time>
      </trkpt>
      <trkpt lat="44.49594" lon="5.93341">
        <ele>1515</ele>
        <time>2013-09-30T12:36:01Z</time>
      </trkpt>
      <trkpt lat="44.49594" lon="5.93313">
        <ele>1519</ele>
        <time>2013-09-30T12:36:06Z</time>
      </trkpt>
      <trkpt lat="44.49594" lon="5.93283">
        <ele>1521</ele>
        <time>2013-09-30T12:36:11Z</time>
      </trkpt>
      <trkpt lat="44.49598" lon="5.93256">
        <ele>1515</ele>
        <time>2013-09-30T12:36:16Z</time>
      </trkpt>
      <trkpt lat="44.49597" lon="5.9323">
        <ele>1517</ele>
        <time>2013-09-30T12:36:21Z</time>
      </trkpt>
      <trkpt lat="44.49595" lon="5.93203">
        <ele>1519</ele>
        <time>2013-09-30T12:36:26Z</time>
      </trkpt>
      <trkpt lat="44.49592" lon="5.93175">
        <ele>1512</ele>
        <time>2013-09-30T12:36:32Z</time>
      </trkpt>
      <trkpt lat="44.49588" lon="5.93149">
        <ele>1511</ele>
        <time>2013-09-30T12:36:38Z</time>
      </trkpt>
      <trkpt lat="44.4959" lon="5.9312">
        <ele>1511</ele>
        <time>2013-09-30T12:36:43Z</time>
      </trkpt>
      <trkpt lat="44.49596" lon="5.93092">
        <ele>1506</ele>
        <time>2013-09-30T12:36:48Z</time>
      </trkpt>
      <trkpt lat="44.49609" lon="5.93072">
        <ele>1502</ele>
        <time>2013-09-30T12:36:55Z</time>
      </trkpt>
      <trkpt lat="44.49627" lon="5.9306">
        <ele>1506</ele>
        <time>2013-09-30T12:37:02Z</time>
      </trkpt>
      <trkpt lat="44.49646" lon="5.93054">
        <ele>1509</ele>
        <time>2013-09-30T12:40:05Z</time>
      </trkpt>
      <trkpt lat="44.49653" lon="5.93031">
        <ele>1508</ele>
        <time>2013-09-30T12:40:49Z</time>
      </trkpt>
      <trkpt lat="44.4966" lon="5.93008">
        <ele>1510</ele>
        <time>2013-09-30T12:40:55Z</time>
      </trkpt>
      <trkpt lat="44.49665" lon="5.9298">
        <ele>1500</ele>
        <time>2013-09-30T12:41:03Z</time>
      </trkpt>
      <trkpt lat="44.49674" lon="5.92956">
        <ele>1518</ele>
        <time>2013-09-30T12:41:13Z</time>
      </trkpt>
      <trkpt lat="44.49685" lon="5.92936">
        <ele>1516</ele>
        <time>2013-09-30T12:41:22Z</time>
      </trkpt>
      <trkpt lat="44.49699" lon="5.92918">
        <ele>1518</ele>
        <time>2013-09-30T12:41:31Z</time>
      </trkpt>
      <trkpt lat="44.49713" lon="5.92901">
        <ele>1512</ele>
        <time>2013-09-30T12:41:42Z</time>
      </trkpt>
      <trkpt lat="44.49728" lon="5.92886">
        <ele>1514</ele>
        <time>2013-09-30T12:41:55Z</time>
      </trkpt>
      <trkpt lat="44.49742" lon="5.92868">
        <ele>1514</ele>
        <time>2013-09-30T12:42:07Z</time>
      </trkpt>
      <trkpt lat="44.49753" lon="5.92847">
        <ele>1530</ele>
        <time>2013-09-30T12:42:18Z</time>
      </trkpt>
      <trkpt lat="44.49767" lon="5.92829">
        <ele>1524</ele>
        <time>2013-09-30T12:42:28Z</time>
      </trkpt>
      <trkpt lat="44.49782" lon="5.92812">
        <ele>1527</ele>
        <time>2013-09-30T12:42:40Z</time>
      </trkpt>
      <trkpt lat="44.49793" lon="5.92792">
        <ele>1527</ele>
        <time>2013-09-30T12:42:52Z</time>
      </trkpt>
      <trkpt lat="44.49809" lon="5.92778">
        <ele>1528</ele>
        <time>2013-09-30T12:43:04Z</time>
      </trkpt>
      <trkpt lat="44.49825" lon="5.92765">
        <ele>1530</ele>
        <time>2013-09-30T12:43:15Z</time>
      </trkpt>
      <trkpt lat="44.49842" lon="5.92752">
        <ele>1540</ele>
        <time>2013-09-30T12:43:29Z</time>
      </trkpt>
      <trkpt lat="44.49849" lon="5.92726">
        <ele>1540</ele>
        <time>2013-09-30T12:43:41Z</time>
      </trkpt>
      <trkpt lat="44.49856" lon="5.927">
        <ele>1541</ele>
        <time>2013-09-30T12:43:51Z</time>
      </trkpt>
      <trkpt lat="44.49861" lon="5.92675">
        <ele>1539</ele>
        <time>2013-09-30T12:44:03Z</time>
      </trkpt>
      <trkpt lat="44.4986" lon="5.92649">
        <ele>1535</ele>
        <time>2013-09-30T12:44:14Z</time>
      </trkpt>
      <trkpt lat="44.49856" lon="5.92625">
        <ele>1535</ele>
        <time>2013-09-30T12:44:23Z</time>
      </trkpt>
      <trkpt lat="44.49858" lon="5.92599">
        <ele>1533</ele>
        <time>2013-09-30T12:44:34Z</time>
      </trkpt>
      <trkpt lat="44.49868" lon="5.92575">
        <ele>1532</ele>
        <time>2013-09-30T12:44:44Z</time>
      </trkpt>
      <trkpt lat="44.49874" lon="5.92545">
        <ele>1534</ele>
        <time>2013-09-30T12:44:50Z</time>
      </trkpt>
      <trkpt lat="44.49884" lon="5.92521">
        <ele>1535</ele>
        <time>2013-09-30T12:44:56Z</time>
      </trkpt>
      <trkpt lat="44.49892" lon="5.92498">
        <ele>1535</ele>
        <time>2013-09-30T12:45:37Z</time>
      </trkpt>
      <trkpt lat="44.49905" lon="5.9248">
        <ele>1537</ele>
        <time>2013-09-30T12:46:02Z</time>
      </trkpt>
      <trkpt lat="44.4992" lon="5.92465">
        <ele>1553</ele>
        <time>2013-09-30T12:46:20Z</time>
      </trkpt>
      <trkpt lat="44.49919" lon="5.9249">
        <ele>1552</ele>
        <time>2013-09-30T12:48:03Z</time>
      </trkpt>
      <trkpt lat="44.49921" lon="5.92516">
        <ele>1560</ele>
        <time>2013-09-30T12:48:23Z</time>
      </trkpt>
      <trkpt lat="44.4992" lon="5.92542">
        <ele>1566</ele>
        <time>2013-09-30T12:48:47Z</time>
      </trkpt>
      <trkpt lat="44.49922" lon="5.92568">
        <ele>1564</ele>
        <time>2013-09-30T12:49:11Z</time>
      </trkpt>
      <trkpt lat="44.49918" lon="5.92593">
        <ele>1565</ele>
        <time>2013-09-30T12:49:32Z</time>
      </trkpt>
      <trkpt lat="44.49915" lon="5.92619">
        <ele>1547</ele>
        <time>2013-09-30T12:49:56Z</time>
      </trkpt>
      <trkpt lat="44.49931" lon="5.92605">
        <ele>1572</ele>
        <time>2013-09-30T12:50:25Z</time>
      </trkpt>
      <trkpt lat="44.49946" lon="5.92588">
        <ele>1575</ele>
        <time>2013-09-30T12:50:48Z</time>
      </trkpt>
      <trkpt lat="44.49955" lon="5.92566">
        <ele>1573</ele>
        <time>2013-09-30T12:51:17Z</time>
      </trkpt>
      <trkpt lat="44.49963" lon="5.92542">
        <ele>1574</ele>
        <time>2013-09-30T12:51:43Z</time>
      </trkpt>
      <trkpt lat="44.49962" lon="5.92512">
        <ele>1572</ele>
        <time>2013-09-30T12:51:50Z</time>
      </trkpt>
      <trkpt lat="44.49962" lon="5.92481">
        <ele>1561</ele>
        <time>2013-09-30T12:51:56Z</time>
      </trkpt>
      <trkpt lat="44.49967" lon="5.92453">
        <ele>1559</ele>
        <time>2013-09-30T12:52:02Z</time>
      </trkpt>
      <trkpt lat="44.4997" lon="5.92421">
        <ele>1558</ele>
        <time>2013-09-30T12:52:07Z</time>
      </trkpt>
      <trkpt lat="44.49985" lon="5.92408">
        <ele>1551</ele>
        <time>2013-09-30T12:52:15Z</time>
      </trkpt>
      <trkpt lat="44.50003" lon="5.92409">
        <ele>1562</ele>
        <time>2013-09-30T12:52:28Z</time>
      </trkpt>
      <trkpt lat="44.50018" lon="5.92394">
        <ele>1562</ele>
        <time>2013-09-30T12:57:41Z</time>
      </trkpt>
      <trkpt lat="44.50035" lon="5.92382">
        <ele>1563</ele>
        <time>2013-09-30T12:57:47Z</time>
      </trkpt>
      <trkpt lat="44.50048" lon="5.92361">
        <ele>1561</ele>
        <time>2013-09-30T12:58:01Z</time>
      </trkpt>
      <trkpt lat="44.50054" lon="5.92337">
        <ele>1560</ele>
        <time>2013-09-30T12:58:05Z</time>
      </trkpt>
      <trkpt lat="44.50066" lon="5.92317">
        <ele>1548</ele>
        <time>2013-09-30T12:58:09Z</time>
      </trkpt>
      <trkpt lat="44.50084" lon="5.92308">
        <ele>1560</ele>
        <time>2013-09-30T12:58:17Z</time>
      </trkpt>
      <trkpt lat="44.50101" lon="5.92317">
        <ele>1561</ele>
        <time>2013-09-30T12:58:30Z</time>
      </trkpt>
      <trkpt lat="44.50119" lon="5.92313">
        <ele>1563</ele>
        <time>2013-09-30T12:58:58Z</time>
      </trkpt>
      <trkpt lat="44.50137" lon="5.92311">
        <ele>1565</ele>
        <time>2013-09-30T12:59:24Z</time>
      </trkpt>
      <trkpt lat="44.50156" lon="5.9231">
        <ele>1569</ele>
        <time>2013-09-30T12:59:41Z</time>
      </trkpt>
      <trkpt lat="44.50175" lon="5.92309">
        <ele>1581</ele>
        <time>2013-09-30T13:00:07Z</time>
      </trkpt>
      <trkpt lat="44.50194" lon="5.92298">
        <ele>1580</ele>
        <time>2013-09-30T13:00:14Z</time>
      </trkpt>
      <trkpt lat="44.50207" lon="5.9228">
        <ele>1579</ele>
        <time>2013-09-30T13:00:34Z</time>
      </trkpt>
      <trkpt lat="44.50225" lon="5.92278">
        <ele>1581</ele>
        <time>2013-09-30T13:01:01Z</time>
      </trkpt>
      <trkpt lat="44.50243" lon="5.92269">
        <ele>1581</ele>
        <time>2013-09-30T13:01:42Z</time>
      </trkpt>
      <trkpt lat="44.50244" lon="5.92294">
        <ele>1585</ele>
        <time>2013-09-30T13:02:27Z</time>
      </trkpt>
      <trkpt lat="44.50262" lon="5.92298">
        <ele>1601</ele>
        <time>2013-09-30T13:03:00Z</time>
      </trkpt>
      <trkpt lat="44.50281" lon="5.923">
        <ele>1603</ele>
        <time>2013-09-30T13:03:21Z</time>
      </trkpt>
      <trkpt lat="44.50298" lon="5.92289">
        <ele>1604</ele>
        <time>2013-09-30T13:03:51Z</time>
      </trkpt>
      <trkpt lat="44.50311" lon="5.92269">
        <ele>1604</ele>
        <time>2013-09-30T13:04:16Z</time>
      </trkpt>
      <trkpt lat="44.50321" lon="5.92246">
        <ele>1596</ele>
        <time>2013-09-30T13:04:25Z</time>
      </trkpt>
      <trkpt lat="44.50337" lon="5.92232">
        <ele>1604</ele>
        <time>2013-09-30T13:04:54Z</time>
      </trkpt>
      <trkpt lat="44.50356" lon="5.92226">
        <ele>1605</ele>
        <time>2013-09-30T13:07:47Z</time>
      </trkpt>
      <trkpt lat="44.50374" lon="5.92219">
        <ele>1606</ele>
        <time>2013-09-30T13:08:00Z</time>
      </trkpt>
      <trkpt lat="44.50392" lon="5.92215">
        <ele>1608</ele>
        <time>2013-09-30T13:08:20Z</time>
      </trkpt>
      <trkpt lat="44.5041" lon="5.92212">
        <ele>1609</ele>
        <time>2013-09-30T13:08:43Z</time>
      </trkpt>
      <trkpt lat="44.50429" lon="5.92212">
        <ele>1620</ele>
        <time>2013-09-30T13:09:03Z</time>
      </trkpt>
      <trkpt lat="44.50447" lon="5.9221">
        <ele>1620</ele>
        <time>2013-09-30T13:09:28Z</time>
      </trkpt>
      <trkpt lat="44.50448" lon="5.92235">
        <ele>1624</ele>
        <time>2013-09-30T13:10:17Z</time>
      </trkpt>
      <trkpt lat="44.50434" lon="5.92251">
        <ele>1636</ele>
        <time>2013-09-30T13:10:39Z</time>
      </trkpt>
      <trkpt lat="44.50423" lon="5.92272">
        <ele>1638</ele>
        <time>2013-09-30T13:11:00Z</time>
      </trkpt>
      <trkpt lat="44.50406" lon="5.92283">
        <ele>1629</ele>
        <time>2013-09-30T13:11:31Z</time>
      </trkpt>
      <trkpt lat="44.50424" lon="5.92278">
        <ele>1640</ele>
        <time>2013-09-30T13:11:56Z</time>
      </trkpt>
      <trkpt lat="44.50442" lon="5.92274">
        <ele>1641</ele>
        <time>2013-09-30T13:12:15Z</time>
      </trkpt>
      <trkpt lat="44.50461" lon="5.92276">
        <ele>1644</ele>
        <time>2013-09-30T13:12:36Z</time>
      </trkpt>
      <trkpt lat="44.50479" lon="5.92272">
        <ele>1645</ele>
        <time>2013-09-30T13:12:58Z</time>
      </trkpt>
      <trkpt lat="44.50498" lon="5.92272">
        <ele>1645</ele>
        <time>2013-09-30T13:13:18Z</time>
      </trkpt>
      <trkpt lat="44.50517" lon="5.9227">
        <ele>1651</ele>
        <time>2013-09-30T13:13:39Z</time>
      </trkpt>
      <trkpt lat="44.50535" lon="5.92271">
        <ele>1653</ele>
        <time>2013-09-30T13:14:02Z</time>
      </trkpt>
      <trkpt lat="44.50553" lon="5.92275">
        <ele>1654</ele>
        <time>2013-09-30T13:14:24Z</time>
      </trkpt>
      <trkpt lat="44.50571" lon="5.92281">
        <ele>1655</ele>
        <time>2013-09-30T13:14:46Z</time>
      </trkpt>
      <trkpt lat="44.50588" lon="5.92291">
        <ele>1660</ele>
        <time>2013-09-30T13:15:13Z</time>
      </trkpt>
      <trkpt lat="44.50605" lon="5.92303">
        <ele>1663</ele>
        <time>2013-09-30T13:15:40Z</time>
      </trkpt>
      <trkpt lat="44.50621" lon="5.92315">
        <ele>1664</ele>
        <time>2013-09-30T13:16:02Z</time>
      </trkpt>
      <trkpt lat="44.50638" lon="5.92324">
        <ele>1666</ele>
        <time>2013-09-30T13:16:26Z</time>
      </trkpt>
      <trkpt lat="44.50656" lon="5.92327">
        <ele>1671</ele>
        <time>2013-09-30T13:16:50Z</time>
      </trkpt>
      <trkpt lat="44.50675" lon="5.92329">
        <ele>1673</ele>
        <time>2013-09-30T13:17:13Z</time>
      </trkpt>
      <trkpt lat="44.50693" lon="5.92334">
        <ele>1691</ele>
        <time>2013-09-30T13:17:31Z</time>
      </trkpt>
      <trkpt lat="44.50711" lon="5.92336">
        <ele>1694</ele>
        <time>2013-09-30T13:17:52Z</time>
      </trkpt>
      <trkpt lat="44.5073" lon="5.9234">
        <ele>1694</ele>
        <time>2013-09-30T13:18:25Z</time>
      </trkpt>
      <trkpt lat="44.50748" lon="5.92335">
        <ele>1688</ele>
        <time>2013-09-30T13:18:46Z</time>
      </trkpt>
      <trkpt lat="44.50767" lon="5.92336">
        <ele>1697</ele>
        <time>2013-09-30T13:19:09Z</time>
      </trkpt>
      <trkpt lat="44.50784" lon="5.92329">
        <ele>1682</ele>
        <time>2013-09-30T13:19:35Z</time>
      </trkpt>
      <trkpt lat="44.508" lon="5.92314">
        <ele>1682</ele>
        <time>2013-09-30T13:19:48Z</time>
      </trkpt>
      <trkpt lat="44.50817" lon="5.92301">
        <ele>1681</ele>
        <time>2013-09-30T13:19:56Z</time>
      </trkpt>
      <trkpt lat="44.50833" lon="5.92285">
        <ele>1685</ele>
        <time>2013-09-30T13:20:05Z</time>
      </trkpt>
      <trkpt lat="44.50851" lon="5.92275">
        <ele>1683</ele>
        <time>2013-09-30T13:20:10Z</time>
      </trkpt>
      <trkpt lat="44.50869" lon="5.92282">
        <ele>1686</ele>
        <time>2013-09-30T13:20:24Z</time>
      </trkpt>
      <trkpt lat="44.50887" lon="5.92283">
        <ele>1687</ele>
        <time>2013-09-30T13:21:21Z</time>
      </trkpt>
      <trkpt lat="44.50904" lon="5.9229">
        <ele>1689</ele>
        <time>2013-09-30T13:21:40Z</time>
      </trkpt>
      <trkpt lat="44.50922" lon="5.92296">
        <ele>1695</ele>
        <time>2013-09-30T13:22:05Z</time>
      </trkpt>
      <trkpt lat="44.50939" lon="5.92308">
        <ele>1697</ele>
        <time>2013-09-30T13:22:29Z</time>
      </trkpt>
      <trkpt lat="44.50956" lon="5.92319">
        <ele>1699</ele>
        <time>2013-09-30T13:22:49Z</time>
      </trkpt>
      <trkpt lat="44.5094" lon="5.92331">
        <ele>1700</ele>
        <time>2013-09-30T13:23:20Z</time>
      </trkpt>
      <trkpt lat="44.50923" lon="5.92337">
        <ele>1710</ele>
        <time>2013-09-30T13:23:40Z</time>
      </trkpt>
      <trkpt lat="44.50904" lon="5.92336">
        <ele>1710</ele>
        <time>2013-09-30T13:24:01Z</time>
      </trkpt>
      <trkpt lat="44.50886" lon="5.92344">
        <ele>1712</ele>
        <time>2013-09-30T13:24:21Z</time>
      </trkpt>
      <trkpt lat="44.5087" lon="5.92355">
        <ele>1713</ele>
        <time>2013-09-30T13:24:42Z</time>
      </trkpt>
      <trkpt lat="44.50858" lon="5.92375">
        <ele>1715</ele>
        <time>2013-09-30T13:25:28Z</time>
      </trkpt>
      <trkpt lat="44.5084" lon="5.92383">
        <ele>1717</ele>
        <time>2013-09-30T13:25:52Z</time>
      </trkpt>
      <trkpt lat="44.50824" lon="5.92396">
        <ele>1716</ele>
        <time>2013-09-30T13:26:14Z</time>
      </trkpt>
      <trkpt lat="44.50807" lon="5.92406">
        <ele>1716</ele>
        <time>2013-09-30T13:26:34Z</time>
      </trkpt>
      <trkpt lat="44.50792" lon="5.92419">
        <ele>1732</ele>
        <time>2013-09-30T13:26:54Z</time>
      </trkpt>
      <trkpt lat="44.50774" lon="5.92429">
        <ele>1731</ele>
        <time>2013-09-30T13:27:34Z</time>
      </trkpt>
      <trkpt lat="44.50755" lon="5.92432">
        <ele>1729</ele>
        <time>2013-09-30T13:28:08Z</time>
      </trkpt>
      <trkpt lat="44.50737" lon="5.92437">
        <ele>1729</ele>
        <time>2013-09-30T13:28:17Z</time>
      </trkpt>
      <trkpt lat="44.50719" lon="5.92441">
        <ele>1730</ele>
        <time>2013-09-30T13:28:50Z</time>
      </trkpt>
      <trkpt lat="44.50705" lon="5.9246">
        <ele>1733</ele>
        <time>2013-09-30T13:29:50Z</time>
      </trkpt>
      <trkpt lat="44.507" lon="5.92485">
        <ele>1737</ele>
        <time>2013-09-30T13:30:14Z</time>
      </trkpt>
      <trkpt lat="44.50718" lon="5.92482">
        <ele>1737</ele>
        <time>2013-09-30T13:30:59Z</time>
      </trkpt>
      <trkpt lat="44.50736" lon="5.92481">
        <ele>1739</ele>
        <time>2013-09-30T13:31:06Z</time>
      </trkpt>
      <trkpt lat="44.50756" lon="5.92481">
        <ele>1741</ele>
        <time>2013-09-30T13:31:14Z</time>
      </trkpt>
      <trkpt lat="44.50775" lon="5.92478">
        <ele>1740</ele>
        <time>2013-09-30T13:31:21Z</time>
      </trkpt>
      <trkpt lat="44.50795" lon="5.92474">
        <ele>1739</ele>
        <time>2013-09-30T13:31:29Z</time>
      </trkpt>
      <trkpt lat="44.50815" lon="5.92468">
        <ele>1739</ele>
        <time>2013-09-30T13:31:34Z</time>
      </trkpt>
      <trkpt lat="44.50836" lon="5.92465">
        <ele>1741</ele>
        <time>2013-09-30T13:31:40Z</time>
      </trkpt>
      <trkpt lat="44.50857" lon="5.92464">
        <ele>1741</ele>
        <time>2013-09-30T13:31:48Z</time>
      </trkpt>
      <trkpt lat="44.50876" lon="5.92468">
        <ele>1742</ele>
        <time>2013-09-30T13:31:56Z</time>
      </trkpt>
      <trkpt lat="44.50894" lon="5.92467">
        <ele>1742</ele>
        <time>2013-09-30T13:32:09Z</time>
      </trkpt>
      <trkpt lat="44.50912" lon="5.92466">
        <ele>1743</ele>
        <time>2013-09-30T13:32:38Z</time>
      </trkpt>
      <trkpt lat="44.5093" lon="5.9247">
        <ele>1746</ele>
        <time>2013-09-30T13:33:01Z</time>
      </trkpt>
      <trkpt lat="44.50947" lon="5.92459">
        <ele>1745</ele>
        <time>2013-09-30T13:33:27Z</time>
      </trkpt>
      <trkpt lat="44.50966" lon="5.92463">
        <ele>1746</ele>
        <time>2013-09-30T13:34:56Z</time>
      </trkpt>
      <trkpt lat="44.50985" lon="5.92458">
        <ele>1746</ele>
        <time>2013-09-30T13:35:03Z</time>
      </trkpt>
      <trkpt lat="44.51004" lon="5.92452">
        <ele>1749</ele>
        <time>2013-09-30T13:35:11Z</time>
      </trkpt>
      <trkpt lat="44.51024" lon="5.92448">
        <ele>1749</ele>
        <time>2013-09-30T13:35:21Z</time>
      </trkpt>
      <trkpt lat="44.51041" lon="5.92438">
        <ele>1750</ele>
        <time>2013-09-30T13:35:30Z</time>
      </trkpt>
      <trkpt lat="44.5106" lon="5.92435">
        <ele>1751</ele>
        <time>2013-09-30T13:35:43Z</time>
      </trkpt>
      <trkpt lat="44.51079" lon="5.92433">
        <ele>1752</ele>
        <time>2013-09-30T13:35:55Z</time>
      </trkpt>
      <trkpt lat="44.51097" lon="5.92437">
        <ele>1755</ele>
        <time>2013-09-30T13:36:08Z</time>
      </trkpt>
      <trkpt lat="44.51117" lon="5.92434">
        <ele>1756</ele>
        <time>2013-09-30T13:37:56Z</time>
      </trkpt>
      <trkpt lat="44.51136" lon="5.92431">
        <ele>1756</ele>
        <time>2013-09-30T13:38:04Z</time>
      </trkpt>
      <trkpt lat="44.51154" lon="5.92419">
        <ele>1758</ele>
        <time>2013-09-30T13:38:15Z</time>
      </trkpt>
      <trkpt lat="44.51169" lon="5.92403">
        <ele>1756</ele>
        <time>2013-09-30T13:38:23Z</time>
      </trkpt>
      <trkpt lat="44.51187" lon="5.92395">
        <ele>1754</ele>
        <time>2013-09-30T13:38:45Z</time>
      </trkpt>
      <trkpt lat="44.51209" lon="5.92395">
        <ele>1755</ele>
        <time>2013-09-30T13:41:16Z</time>
      </trkpt>
      <trkpt lat="44.51229" lon="5.92391">
        <ele>1756</ele>
        <time>2013-09-30T13:41:22Z</time>
      </trkpt>
      <trkpt lat="44.51245" lon="5.92377">
        <ele>1755</ele>
        <time>2013-09-30T13:41:29Z</time>
      </trkpt>
      <trkpt lat="44.51264" lon="5.92366">
        <ele>1759</ele>
        <time>2013-09-30T13:41:38Z</time>
      </trkpt>
      <trkpt lat="44.51281" lon="5.92357">
        <ele>1760</ele>
        <time>2013-09-30T13:41:47Z</time>
      </trkpt>
      <trkpt lat="44.51299" lon="5.92349">
        <ele>1760</ele>
        <time>2013-09-30T13:41:56Z</time>
      </trkpt>
      <trkpt lat="44.51315" lon="5.92337">
        <ele>1760</ele>
        <time>2013-09-30T13:42:06Z</time>
      </trkpt>
      <trkpt lat="44.51331" lon="5.92325">
        <ele>1756</ele>
        <time>2013-09-30T13:42:17Z</time>
      </trkpt>
      <trkpt lat="44.51345" lon="5.92308">
        <ele>1759</ele>
        <time>2013-09-30T13:42:45Z</time>
      </trkpt>
      <trkpt lat="44.51363" lon="5.92304">
        <ele>1759</ele>
        <time>2013-09-30T13:42:55Z</time>
      </trkpt>
      <trkpt lat="44.51381" lon="5.92295">
        <ele>1760</ele>
        <time>2013-09-30T13:43:07Z</time>
      </trkpt>
      <trkpt lat="44.51398" lon="5.92283">
        <ele>1760</ele>
        <time>2013-09-30T13:43:17Z</time>
      </trkpt>
      <trkpt lat="44.51417" lon="5.92278">
        <ele>1765</ele>
        <time>2013-09-30T13:43:26Z</time>
      </trkpt>
      <trkpt lat="44.51436" lon="5.92276">
        <ele>1765</ele>
        <time>2013-09-30T13:44:59Z</time>
      </trkpt>
      <trkpt lat="44.51454" lon="5.92273">
        <ele>1766</ele>
        <time>2013-09-30T13:45:15Z</time>
      </trkpt>
      <trkpt lat="44.51471" lon="5.92283">
        <ele>1767</ele>
        <time>2013-09-30T13:45:31Z</time>
      </trkpt>
      <trkpt lat="44.51488" lon="5.92272">
        <ele>1765</ele>
        <time>2013-09-30T13:45:47Z</time>
      </trkpt>
      <trkpt lat="44.51504" lon="5.92261">
        <ele>1766</ele>
        <time>2013-09-30T13:46:04Z</time>
      </trkpt>
      <trkpt lat="44.51521" lon="5.92273">
        <ele>1773</ele>
        <time>2013-09-30T13:46:32Z</time>
      </trkpt>
      <trkpt lat="44.51539" lon="5.92272">
        <ele>1776</ele>
        <time>2013-09-30T13:46:56Z</time>
      </trkpt>
      <trkpt lat="44.51557" lon="5.92265">
        <ele>1776</ele>
        <time>2013-09-30T13:47:17Z</time>
      </trkpt>
      <trkpt lat="44.51573" lon="5.92251">
        <ele>1775</ele>
        <time>2013-09-30T13:47:24Z</time>
      </trkpt>
      <trkpt lat="44.51589" lon="5.92242">
        <ele>1771</ele>
        <time>2013-09-30T13:47:31Z</time>
      </trkpt>
      <trkpt lat="44.51608" lon="5.92234">
        <ele>1769</ele>
        <time>2013-09-30T13:47:37Z</time>
      </trkpt>
      <trkpt lat="44.51627" lon="5.92226">
        <ele>1769</ele>
        <time>2013-09-30T13:47:43Z</time>
      </trkpt>
      <trkpt lat="44.5164" lon="5.92206">
        <ele>1767</ele>
        <time>2013-09-30T13:47:53Z</time>
      </trkpt>
      <trkpt lat="44.51648" lon="5.92182">
        <ele>1765</ele>
        <time>2013-09-30T13:48:04Z</time>
      </trkpt>
      <trkpt lat="44.51655" lon="5.92158">
        <ele>1751</ele>
        <time>2013-09-30T13:48:15Z</time>
      </trkpt>
      <trkpt lat="44.51668" lon="5.92139">
        <ele>1750</ele>
        <time>2013-09-30T13:48:38Z</time>
      </trkpt>
      <trkpt lat="44.51678" lon="5.92161">
        <ele>1756</ele>
        <time>2013-09-30T13:48:58Z</time>
      </trkpt>
      <trkpt lat="44.5169" lon="5.92181">
        <ele>1768</ele>
        <time>2013-09-30T13:49:11Z</time>
      </trkpt>
      <trkpt lat="44.517" lon="5.92203">
        <ele>1770</ele>
        <time>2013-09-30T13:49:24Z</time>
      </trkpt>
      <trkpt lat="44.51713" lon="5.92221">
        <ele>1772</ele>
        <time>2013-09-30T13:49:35Z</time>
      </trkpt>
      <trkpt lat="44.51734" lon="5.92235">
        <ele>1774</ele>
        <time>2013-09-30T13:49:43Z</time>
      </trkpt>
      <trkpt lat="44.51753" lon="5.92245">
        <ele>1774</ele>
        <time>2013-09-30T13:49:47Z</time>
      </trkpt>
      <trkpt lat="44.51771" lon="5.92252">
        <ele>1781</ele>
        <time>2013-09-30T13:50:04Z</time>
      </trkpt>
      <trkpt lat="44.51787" lon="5.92265">
        <ele>1783</ele>
        <time>2013-09-30T13:50:36Z</time>
      </trkpt>
      <trkpt lat="44.51805" lon="5.92269">
        <ele>1781</ele>
        <time>2013-09-30T13:50:58Z</time>
      </trkpt>
      <trkpt lat="44.51824" lon="5.92274">
        <ele>1780</ele>
        <time>2013-09-30T13:51:16Z</time>
      </trkpt>
      <trkpt lat="44.51842" lon="5.92275">
        <ele>1778</ele>
        <time>2013-09-30T13:51:26Z</time>
      </trkpt>
      <trkpt lat="44.51861" lon="5.92277">
        <ele>1781</ele>
        <time>2013-09-30T13:51:36Z</time>
      </trkpt>
      <trkpt lat="44.51879" lon="5.92278">
        <ele>1781</ele>
        <time>2013-09-30T13:51:52Z</time>
      </trkpt>
      <trkpt lat="44.51898" lon="5.92279">
        <ele>1781</ele>
        <time>2013-09-30T13:52:01Z</time>
      </trkpt>
      <trkpt lat="44.51916" lon="5.92277">
        <ele>1779</ele>
        <time>2013-09-30T13:52:11Z</time>
      </trkpt>
      <trkpt lat="44.51936" lon="5.92275">
        <ele>1785</ele>
        <time>2013-09-30T13:52:22Z</time>
      </trkpt>
      <trkpt lat="44.51955" lon="5.9227">
        <ele>1787</ele>
        <time>2013-09-30T13:52:32Z</time>
      </trkpt>
      <trkpt lat="44.51974" lon="5.92261">
        <ele>1787</ele>
        <time>2013-09-30T13:52:42Z</time>
      </trkpt>
      <trkpt lat="44.51992" lon="5.9225">
        <ele>1786</ele>
        <time>2013-09-30T13:53:28Z</time>
      </trkpt>
      <trkpt lat="44.5201" lon="5.92255">
        <ele>1791</ele>
        <time>2013-09-30T13:53:36Z</time>
      </trkpt>
      <trkpt lat="44.52028" lon="5.92255">
        <ele>1797</ele>
        <time>2013-09-30T13:53:47Z</time>
      </trkpt>
      <trkpt lat="44.52047" lon="5.92253">
        <ele>1799</ele>
        <time>2013-09-30T13:53:58Z</time>
      </trkpt>
      <trkpt lat="44.52064" lon="5.92245">
        <ele>1788</ele>
        <time>2013-09-30T13:54:25Z</time>
      </trkpt>
      <trkpt lat="44.52083" lon="5.92242">
        <ele>1794</ele>
        <time>2013-09-30T13:54:35Z</time>
      </trkpt>
      <trkpt lat="44.521" lon="5.92231">
        <ele>1795</ele>
        <time>2013-09-30T13:54:45Z</time>
      </trkpt>
      <trkpt lat="44.52118" lon="5.92224">
        <ele>1795</ele>
        <time>2013-09-30T13:54:55Z</time>
      </trkpt>
      <trkpt lat="44.52136" lon="5.92214">
        <ele>1794</ele>
        <time>2013-09-30T13:55:06Z</time>
      </trkpt>
      <trkpt lat="44.52154" lon="5.92207">
        <ele>1794</ele>
        <time>2013-09-30T13:55:47Z</time>
      </trkpt>
      <trkpt lat="44.52172" lon="5.92198">
        <ele>1797</ele>
        <time>2013-09-30T13:56:08Z</time>
      </trkpt>
      <trkpt lat="44.5219" lon="5.92193">
        <ele>1797</ele>
        <time>2013-09-30T13:56:25Z</time>
      </trkpt>
      <trkpt lat="44.52209" lon="5.92188">
        <ele>1798</ele>
        <time>2013-09-30T13:56:48Z</time>
      </trkpt>
      <trkpt lat="44.52227" lon="5.92184">
        <ele>1798</ele>
        <time>2013-09-30T13:57:06Z</time>
      </trkpt>
      <trkpt lat="44.52245" lon="5.92177">
        <ele>1799</ele>
        <time>2013-09-30T13:57:30Z</time>
      </trkpt>
      <trkpt lat="44.52259" lon="5.92161">
        <ele>1799</ele>
        <time>2013-09-30T14:00:20Z</time>
      </trkpt>
      <trkpt lat="44.52273" lon="5.92145">
        <ele>1798</ele>
        <time>2013-09-30T14:00:37Z</time>
      </trkpt>
      <trkpt lat="44.52288" lon="5.92129">
        <ele>1797</ele>
        <time>2013-09-30T14:00:56Z</time>
      </trkpt>
      <trkpt lat="44.52305" lon="5.92117">
        <ele>1798</ele>
        <time>2013-09-30T14:01:11Z</time>
      </trkpt>
      <trkpt lat="44.52323" lon="5.92121">
        <ele>1799</ele>
        <time>2013-09-30T14:01:46Z</time>
      </trkpt>
      <trkpt lat="44.52312" lon="5.92101">
        <ele>1798</ele>
        <time>2013-09-30T14:12:22Z</time>
      </trkpt>
      <trkpt lat="44.52306" lon="5.92077">
        <ele>1788</ele>
        <time>2013-09-30T14:13:14Z</time>
      </trkpt>
      <trkpt lat="44.52321" lon="5.92063">
        <ele>1789</ele>
        <time>2013-09-30T14:13:34Z</time>
      </trkpt>
      <trkpt lat="44.52337" lon="5.9205">
        <ele>1790</ele>
        <time>2013-09-30T14:13:55Z</time>
      </trkpt>
      <trkpt lat="44.52352" lon="5.92035">
        <ele>1787</ele>
        <time>2013-09-30T14:14:13Z</time>
      </trkpt>
      <trkpt lat="44.52351" lon="5.9201">
        <ele>1785</ele>
        <time>2013-09-30T14:15:16Z</time>
      </trkpt>
      <trkpt lat="44.52357" lon="5.91985">
        <ele>1778</ele>
        <time>2013-09-30T14:15:37Z</time>
      </trkpt>
      <trkpt lat="44.52353" lon="5.9196">
        <ele>1777</ele>
        <time>2013-09-30T14:16:02Z</time>
      </trkpt>
      <trkpt lat="44.52371" lon="5.91951">
        <ele>1775</ele>
        <time>2013-09-30T14:18:14Z</time>
      </trkpt>
      <trkpt lat="44.52368" lon="5.91926">
        <ele>1774</ele>
        <time>2013-09-30T14:18:22Z</time>
      </trkpt>
      <trkpt lat="44.52359" lon="5.919">
        <ele>1768</ele>
        <time>2013-09-30T14:18:29Z</time>
      </trkpt>
      <trkpt lat="44.52356" lon="5.91873">
        <ele>1766</ele>
        <time>2013-09-30T14:18:39Z</time>
      </trkpt>
      <trkpt lat="44.52357" lon="5.91845">
        <ele>1765</ele>
        <time>2013-09-30T14:18:44Z</time>
      </trkpt>
      <trkpt lat="44.52359" lon="5.91816">
        <ele>1759</ele>
        <time>2013-09-30T14:18:48Z</time>
      </trkpt>
      <trkpt lat="44.52366" lon="5.91784">
        <ele>1756</ele>
        <time>2013-09-30T14:18:52Z</time>
      </trkpt>
      <trkpt lat="44.52372" lon="5.91755">
        <ele>1755</ele>
        <time>2013-09-30T14:18:55Z</time>
      </trkpt>
      <trkpt lat="44.52376" lon="5.91728">
        <ele>1751</ele>
        <time>2013-09-30T14:18:59Z</time>
      </trkpt>
      <trkpt lat="44.52382" lon="5.91702">
        <ele>1750</ele>
        <time>2013-09-30T14:19:03Z</time>
      </trkpt>
      <trkpt lat="44.52391" lon="5.91676">
        <ele>1750</ele>
        <time>2013-09-30T14:19:09Z</time>
      </trkpt>
      <trkpt lat="44.52399" lon="5.91647">
        <ele>1747</ele>
        <time>2013-09-30T14:19:13Z</time>
      </trkpt>
      <trkpt lat="44.52398" lon="5.91621">
        <ele>1745</ele>
        <time>2013-09-30T14:19:18Z</time>
      </trkpt>
      <trkpt lat="44.52384" lon="5.91597">
        <ele>1744</ele>
        <time>2013-09-30T14:19:23Z</time>
      </trkpt>
      <trkpt lat="44.52367" lon="5.91582">
        <ele>1738</ele>
        <time>2013-09-30T14:19:27Z</time>
      </trkpt>
      <trkpt lat="44.52349" lon="5.91562">
        <ele>1738</ele>
        <time>2013-09-30T14:19:31Z</time>
      </trkpt>
      <trkpt lat="44.52335" lon="5.91543">
        <ele>1737</ele>
        <time>2013-09-30T14:19:35Z</time>
      </trkpt>
      <trkpt lat="44.5232" lon="5.91527">
        <ele>1733</ele>
        <time>2013-09-30T14:19:41Z</time>
      </trkpt>
      <trkpt lat="44.52307" lon="5.9151">
        <ele>1733</ele>
        <time>2013-09-30T14:20:00Z</time>
      </trkpt>
      <trkpt lat="44.52291" lon="5.91494">
        <ele>1734</ele>
        <time>2013-09-30T14:20:19Z</time>
      </trkpt>
      <trkpt lat="44.52277" lon="5.91476">
        <ele>1734</ele>
        <time>2013-09-30T14:20:34Z</time>
      </trkpt>
      <trkpt lat="44.52262" lon="5.9146">
        <ele>1734</ele>
        <time>2013-09-30T14:20:49Z</time>
      </trkpt>
      <trkpt lat="44.52248" lon="5.91441">
        <ele>1734</ele>
        <time>2013-09-30T14:21:09Z</time>
      </trkpt>
      <trkpt lat="44.52235" lon="5.91421">
        <ele>1736</ele>
        <time>2013-09-30T14:21:18Z</time>
      </trkpt>
      <trkpt lat="44.52221" lon="5.91405">
        <ele>1732</ele>
        <time>2013-09-30T14:21:25Z</time>
      </trkpt>
      <trkpt lat="44.52211" lon="5.91382">
        <ele>1729</ele>
        <time>2013-09-30T14:23:32Z</time>
      </trkpt>
      <trkpt lat="44.52203" lon="5.91356">
        <ele>1727</ele>
        <time>2013-09-30T14:23:38Z</time>
      </trkpt>
      <trkpt lat="44.52195" lon="5.91331">
        <ele>1718</ele>
        <time>2013-09-30T14:23:43Z</time>
      </trkpt>
      <trkpt lat="44.52186" lon="5.91305">
        <ele>1717</ele>
        <time>2013-09-30T14:23:48Z</time>
      </trkpt>
      <trkpt lat="44.52179" lon="5.91281">
        <ele>1715</ele>
        <time>2013-09-30T14:23:52Z</time>
      </trkpt>
      <trkpt lat="44.52169" lon="5.91259">
        <ele>1715</ele>
        <time>2013-09-30T14:23:59Z</time>
      </trkpt>
      <trkpt lat="44.52161" lon="5.91235">
        <ele>1704</ele>
        <time>2013-09-30T14:24:05Z</time>
      </trkpt>
      <trkpt lat="44.52156" lon="5.9121">
        <ele>1697</ele>
        <time>2013-09-30T14:24:13Z</time>
      </trkpt>
      <trkpt lat="44.5215" lon="5.91185">
        <ele>1696</ele>
        <time>2013-09-30T14:24:20Z</time>
      </trkpt>
      <trkpt lat="44.52138" lon="5.91162">
        <ele>1689</ele>
        <time>2013-09-30T14:24:26Z</time>
      </trkpt>
      <trkpt lat="44.52126" lon="5.91142">
        <ele>1686</ele>
        <time>2013-09-30T14:24:31Z</time>
      </trkpt>
      <trkpt lat="44.52119" lon="5.91118">
        <ele>1684</ele>
        <time>2013-09-30T14:24:36Z</time>
      </trkpt>
      <trkpt lat="44.52109" lon="5.91092">
        <ele>1683</ele>
        <time>2013-09-30T14:24:42Z</time>
      </trkpt>
      <trkpt lat="44.52097" lon="5.91073">
        <ele>1676</ele>
        <time>2013-09-30T14:24:48Z</time>
      </trkpt>
      <trkpt lat="44.52089" lon="5.91046">
        <ele>1672</ele>
        <time>2013-09-30T14:24:54Z</time>
      </trkpt>
      <trkpt lat="44.52084" lon="5.91019">
        <ele>1670</ele>
        <time>2013-09-30T14:25:01Z</time>
      </trkpt>
      <trkpt lat="44.52079" lon="5.90991">
        <ele>1669</ele>
        <time>2013-09-30T14:25:07Z</time>
      </trkpt>
      <trkpt lat="44.52075" lon="5.90964">
        <ele>1665</ele>
        <time>2013-09-30T14:25:11Z</time>
      </trkpt>
      <trkpt lat="44.52062" lon="5.90944">
        <ele>1663</ele>
        <time>2013-09-30T14:25:14Z</time>
      </trkpt>
      <trkpt lat="44.52048" lon="5.90921">
        <ele>1663</ele>
        <time>2013-09-30T14:25:18Z</time>
      </trkpt>
      <trkpt lat="44.52034" lon="5.9089">
        <ele>1653</ele>
        <time>2013-09-30T14:25:21Z</time>
      </trkpt>
      <trkpt lat="44.52028" lon="5.90865">
        <ele>1651</ele>
        <time>2013-09-30T14:25:25Z</time>
      </trkpt>
      <trkpt lat="44.52012" lon="5.90849">
        <ele>1650</ele>
        <time>2013-09-30T14:25:51Z</time>
      </trkpt>
      <trkpt lat="44.52022" lon="5.90823">
        <ele>1642</ele>
        <time>2013-09-30T14:26:37Z</time>
      </trkpt>
      <trkpt lat="44.52041" lon="5.90811">
        <ele>1639</ele>
        <time>2013-09-30T14:26:43Z</time>
      </trkpt>
      <trkpt lat="44.52061" lon="5.90811">
        <ele>1638</ele>
        <time>2013-09-30T14:26:48Z</time>
      </trkpt>
      <trkpt lat="44.52082" lon="5.90813">
        <ele>1638</ele>
        <time>2013-09-30T14:26:53Z</time>
      </trkpt>
      <trkpt lat="44.52104" lon="5.90815">
        <ele>1627</ele>
        <time>2013-09-30T14:26:58Z</time>
      </trkpt>
      <trkpt lat="44.52125" lon="5.90819">
        <ele>1622</ele>
        <time>2013-09-30T14:27:03Z</time>
      </trkpt>
      <trkpt lat="44.52147" lon="5.90824">
        <ele>1616</ele>
        <time>2013-09-30T14:27:07Z</time>
      </trkpt>
      <trkpt lat="44.52168" lon="5.9083">
        <ele>1603</ele>
        <time>2013-09-30T14:27:11Z</time>
      </trkpt>
      <trkpt lat="44.52186" lon="5.9084">
        <ele>1599</ele>
        <time>2013-09-30T14:27:17Z</time>
      </trkpt>
      <trkpt lat="44.52207" lon="5.90847">
        <ele>1595</ele>
        <time>2013-09-30T14:27:56Z</time>
      </trkpt>
      <trkpt lat="44.5223" lon="5.90851">
        <ele>1589</ele>
        <time>2013-09-30T14:28:00Z</time>
      </trkpt>
      <trkpt lat="44.52251" lon="5.90856">
        <ele>1571</ele>
        <time>2013-09-30T14:28:05Z</time>
      </trkpt>
      <trkpt lat="44.5227" lon="5.9086">
        <ele>1569</ele>
        <time>2013-09-30T14:28:12Z</time>
      </trkpt>
      <trkpt lat="44.5229" lon="5.90865">
        <ele>1566</ele>
        <time>2013-09-30T14:28:18Z</time>
      </trkpt>
      <trkpt lat="44.52308" lon="5.90878">
        <ele>1563</ele>
        <time>2013-09-30T14:28:22Z</time>
      </trkpt>
      <trkpt lat="44.52327" lon="5.90883">
        <ele>1561</ele>
        <time>2013-09-30T14:28:27Z</time>
      </trkpt>
      <trkpt lat="44.52348" lon="5.90886">
        <ele>1541</ele>
        <time>2013-09-30T14:28:32Z</time>
      </trkpt>
      <trkpt lat="44.52367" lon="5.90898">
        <ele>1539</ele>
        <time>2013-09-30T14:28:38Z</time>
      </trkpt>
      <trkpt lat="44.52386" lon="5.90908">
        <ele>1534</ele>
        <time>2013-09-30T14:28:44Z</time>
      </trkpt>
      <trkpt lat="44.52405" lon="5.90912">
        <ele>1530</ele>
        <time>2013-09-30T14:28:49Z</time>
      </trkpt>
      <trkpt lat="44.52423" lon="5.90927">
        <ele>1526</ele>
        <time>2013-09-30T14:28:55Z</time>
      </trkpt>
      <trkpt lat="44.52443" lon="5.90933">
        <ele>1524</ele>
        <time>2013-09-30T14:29:00Z</time>
      </trkpt>
      <trkpt lat="44.52463" lon="5.90932">
        <ele>1520</ele>
        <time>2013-09-30T14:29:04Z</time>
      </trkpt>
      <trkpt lat="44.52479" lon="5.90945">
        <ele>1519</ele>
        <time>2013-09-30T14:29:11Z</time>
      </trkpt>
      <trkpt lat="44.52497" lon="5.90949">
        <ele>1518</ele>
        <time>2013-09-30T14:29:18Z</time>
      </trkpt>
      <trkpt lat="44.52506" lon="5.90926">
        <ele>1500</ele>
        <time>2013-09-30T14:29:31Z</time>
      </trkpt>
      <trkpt lat="44.52497" lon="5.90902">
        <ele>1503</ele>
        <time>2013-09-30T14:29:40Z</time>
      </trkpt>
      <trkpt lat="44.52495" lon="5.90874">
        <ele>1500</ele>
        <time>2013-09-30T14:29:45Z</time>
      </trkpt>
      <trkpt lat="44.52493" lon="5.90848">
        <ele>1493</ele>
        <time>2013-09-30T14:29:50Z</time>
      </trkpt>
      <trkpt lat="44.52489" lon="5.90823">
        <ele>1488</ele>
        <time>2013-09-30T14:29:54Z</time>
      </trkpt>
      <trkpt lat="44.52493" lon="5.90794">
        <ele>1490</ele>
        <time>2013-09-30T14:29:59Z</time>
      </trkpt>
      <trkpt lat="44.5251" lon="5.90781">
        <ele>1470</ele>
        <time>2013-09-30T14:30:19Z</time>
      </trkpt>
      <trkpt lat="44.52528" lon="5.90792">
        <ele>1468</ele>
        <time>2013-09-30T14:30:25Z</time>
      </trkpt>
      <trkpt lat="44.52537" lon="5.90814">
        <ele>1467</ele>
        <time>2013-09-30T14:30:30Z</time>
      </trkpt>
      <trkpt lat="44.52549" lon="5.90834">
        <ele>1474</ele>
        <time>2013-09-30T14:30:35Z</time>
      </trkpt>
      <trkpt lat="44.5257" lon="5.90838">
        <ele>1466</ele>
        <time>2013-09-30T14:30:40Z</time>
      </trkpt>
      <trkpt lat="44.52592" lon="5.90848">
        <ele>1455</ele>
        <time>2013-09-30T14:30:45Z</time>
      </trkpt>
      <trkpt lat="44.52608" lon="5.90865">
        <ele>1453</ele>
        <time>2013-09-30T14:30:49Z</time>
      </trkpt>
      <trkpt lat="44.52625" lon="5.90881">
        <ele>1452</ele>
        <time>2013-09-30T14:30:53Z</time>
      </trkpt>
      <trkpt lat="44.52641" lon="5.90901">
        <ele>1451</ele>
        <time>2013-09-30T14:30:57Z</time>
      </trkpt>
      <trkpt lat="44.52656" lon="5.90922">
        <ele>1456</ele>
        <time>2013-09-30T14:31:02Z</time>
      </trkpt>
      <trkpt lat="44.52671" lon="5.90936">
        <ele>1447</ele>
        <time>2013-09-30T14:31:14Z</time>
      </trkpt>
      <trkpt lat="44.52689" lon="5.90944">
        <ele>1447</ele>
        <time>2013-09-30T14:32:07Z</time>
      </trkpt>
      <trkpt lat="44.52706" lon="5.90955">
        <ele>1447</ele>
        <time>2013-09-30T14:32:26Z</time>
      </trkpt>
      <trkpt lat="44.52726" lon="5.90952">
        <ele>1444</ele>
        <time>2013-09-30T14:32:37Z</time>
      </trkpt>
      <trkpt lat="44.52747" lon="5.90947">
        <ele>1441</ele>
        <time>2013-09-30T14:32:41Z</time>
      </trkpt>
      <trkpt lat="44.52766" lon="5.90949">
        <ele>1431</ele>
        <time>2013-09-30T14:32:46Z</time>
      </trkpt>
      <trkpt lat="44.52786" lon="5.90952">
        <ele>1431</ele>
        <time>2013-09-30T14:32:53Z</time>
      </trkpt>
      <trkpt lat="44.52804" lon="5.90946">
        <ele>1428</ele>
        <time>2013-09-30T14:33:12Z</time>
      </trkpt>
      <trkpt lat="44.52787" lon="5.9093">
        <ele>1427</ele>
        <time>2013-09-30T14:33:30Z</time>
      </trkpt>
      <trkpt lat="44.5277" lon="5.90922">
        <ele>1426</ele>
        <time>2013-09-30T14:33:33Z</time>
      </trkpt>
      <trkpt lat="44.52752" lon="5.90912">
        <ele>1419</ele>
        <time>2013-09-30T14:33:36Z</time>
      </trkpt>
      <trkpt lat="44.52733" lon="5.90907">
        <ele>1423</ele>
        <time>2013-09-30T14:33:40Z</time>
      </trkpt>
      <trkpt lat="44.52723" lon="5.90879">
        <ele>1422</ele>
        <time>2013-09-30T14:33:44Z</time>
      </trkpt>
      <trkpt lat="44.52719" lon="5.90854">
        <ele>1418</ele>
        <time>2013-09-30T14:33:48Z</time>
      </trkpt>
      <trkpt lat="44.52721" lon="5.90829">
        <ele>1406</ele>
        <time>2013-09-30T14:33:54Z</time>
      </trkpt>
      <trkpt lat="44.52706" lon="5.90815">
        <ele>1410</ele>
        <time>2013-09-30T14:34:28Z</time>
      </trkpt>
      <trkpt lat="44.5269" lon="5.908">
        <ele>1412</ele>
        <time>2013-09-30T14:34:45Z</time>
      </trkpt>
      <trkpt lat="44.5267" lon="5.90792">
        <ele>1414</ele>
        <time>2013-09-30T14:34:54Z</time>
      </trkpt>
      <trkpt lat="44.5266" lon="5.90768">
        <ele>1428</ele>
        <time>2013-09-30T14:34:59Z</time>
      </trkpt>
      <trkpt lat="44.52662" lon="5.9074">
        <ele>1426</ele>
        <time>2013-09-30T14:35:06Z</time>
      </trkpt>
      <trkpt lat="44.5267" lon="5.90716">
        <ele>1416</ele>
        <time>2013-09-30T14:35:13Z</time>
      </trkpt>
      <trkpt lat="44.52685" lon="5.90694">
        <ele>1417</ele>
        <time>2013-09-30T14:35:19Z</time>
      </trkpt>
      <trkpt lat="44.52701" lon="5.9068">
        <ele>1416</ele>
        <time>2013-09-30T14:35:24Z</time>
      </trkpt>
      <trkpt lat="44.52717" lon="5.90668">
        <ele>1413</ele>
        <time>2013-09-30T14:35:30Z</time>
      </trkpt>
      <trkpt lat="44.5273" lon="5.9065">
        <ele>1424</ele>
        <time>2013-09-30T14:35:37Z</time>
      </trkpt>
      <trkpt lat="44.52745" lon="5.90634">
        <ele>1427</ele>
        <time>2013-09-30T14:35:43Z</time>
      </trkpt>
      <trkpt lat="44.5276" lon="5.90616">
        <ele>1414</ele>
        <time>2013-09-30T14:35:49Z</time>
      </trkpt>
      <trkpt lat="44.52775" lon="5.90596">
        <ele>1416</ele>
        <time>2013-09-30T14:35:57Z</time>
      </trkpt>
      <trkpt lat="44.52791" lon="5.90583">
        <ele>1413</ele>
        <time>2013-09-30T14:36:02Z</time>
      </trkpt>
      <trkpt lat="44.52808" lon="5.90569">
        <ele>1427</ele>
        <time>2013-09-30T14:36:08Z</time>
      </trkpt>
      <trkpt lat="44.52823" lon="5.90554">
        <ele>1428</ele>
        <time>2013-09-30T14:36:14Z</time>
      </trkpt>
      <trkpt lat="44.52838" lon="5.90534">
        <ele>1417</ele>
        <time>2013-09-30T14:36:21Z</time>
      </trkpt>
      <trkpt lat="44.52854" lon="5.90521">
        <ele>1419</ele>
        <time>2013-09-30T14:36:27Z</time>
      </trkpt>
      <trkpt lat="44.52871" lon="5.905">
        <ele>1417</ele>
        <time>2013-09-30T14:36:34Z</time>
      </trkpt>
      <trkpt lat="44.52888" lon="5.90491">
        <ele>1434</ele>
        <time>2013-09-30T14:36:38Z</time>
      </trkpt>
      <trkpt lat="44.52907" lon="5.90486">
        <ele>1428</ele>
        <time>2013-09-30T14:36:43Z</time>
      </trkpt>
      <trkpt lat="44.52927" lon="5.90482">
        <ele>1419</ele>
        <time>2013-09-30T14:36:47Z</time>
      </trkpt>
      <trkpt lat="44.52948" lon="5.90479">
        <ele>1419</ele>
        <time>2013-09-30T14:36:52Z</time>
      </trkpt>
      <trkpt lat="44.52969" lon="5.90473">
        <ele>1418</ele>
        <time>2013-09-30T14:36:58Z</time>
      </trkpt>
      <trkpt lat="44.52988" lon="5.90466">
        <ele>1417</ele>
        <time>2013-09-30T14:37:03Z</time>
      </trkpt>
      <trkpt lat="44.53007" lon="5.90457">
        <ele>1406</ele>
        <time>2013-09-30T14:37:08Z</time>
      </trkpt>
      <trkpt lat="44.53026" lon="5.90449">
        <ele>1406</ele>
        <time>2013-09-30T14:37:13Z</time>
      </trkpt>
      <trkpt lat="44.53042" lon="5.90434">
        <ele>1406</ele>
        <time>2013-09-30T14:37:21Z</time>
      </trkpt>
      <trkpt lat="44.53052" lon="5.90409">
        <ele>1426</ele>
        <time>2013-09-30T14:37:27Z</time>
      </trkpt>
      <trkpt lat="44.53058" lon="5.90384">
        <ele>1430</ele>
        <time>2013-09-30T14:37:33Z</time>
      </trkpt>
      <trkpt lat="44.53078" lon="5.90372">
        <ele>1431</ele>
        <time>2013-09-30T14:37:40Z</time>
      </trkpt>
      <trkpt lat="44.53095" lon="5.90364">
        <ele>1415</ele>
        <time>2013-09-30T14:37:44Z</time>
      </trkpt>
      <trkpt lat="44.53114" lon="5.90355">
        <ele>1413</ele>
        <time>2013-09-30T14:37:47Z</time>
      </trkpt>
      <trkpt lat="44.53133" lon="5.90339">
        <ele>1411</ele>
        <time>2013-09-30T14:37:51Z</time>
      </trkpt>
      <trkpt lat="44.53145" lon="5.9032">
        <ele>1431</ele>
        <time>2013-09-30T14:37:56Z</time>
      </trkpt>
      <trkpt lat="44.53165" lon="5.9031">
        <ele>1430</ele>
        <time>2013-09-30T14:38:00Z</time>
      </trkpt>
      <trkpt lat="44.53185" lon="5.90306">
        <ele>1417</ele>
        <time>2013-09-30T14:38:08Z</time>
      </trkpt>
      <trkpt lat="44.53204" lon="5.90301">
        <ele>1416</ele>
        <time>2013-09-30T14:38:15Z</time>
      </trkpt>
      <trkpt lat="44.53224" lon="5.9029">
        <ele>1416</ele>
        <time>2013-09-30T14:38:21Z</time>
      </trkpt>
      <trkpt lat="44.53243" lon="5.90278">
        <ele>1417</ele>
        <time>2013-09-30T14:38:26Z</time>
      </trkpt>
      <trkpt lat="44.5326" lon="5.90268">
        <ele>1408</ele>
        <time>2013-09-30T14:38:31Z</time>
      </trkpt>
      <trkpt lat="44.53279" lon="5.90259">
        <ele>1406</ele>
        <time>2013-09-30T14:38:37Z</time>
      </trkpt>
      <trkpt lat="44.533" lon="5.9025">
        <ele>1403</ele>
        <time>2013-09-30T14:38:42Z</time>
      </trkpt>
      <trkpt lat="44.53318" lon="5.90241">
        <ele>1416</ele>
        <time>2013-09-30T14:38:45Z</time>
      </trkpt>
      <trkpt lat="44.53337" lon="5.90237">
        <ele>1406</ele>
        <time>2013-09-30T14:38:48Z</time>
      </trkpt>
      <trkpt lat="44.53359" lon="5.90225">
        <ele>1405</ele>
        <time>2013-09-30T14:38:52Z</time>
      </trkpt>
      <trkpt lat="44.53379" lon="5.90207">
        <ele>1405</ele>
        <time>2013-09-30T14:38:55Z</time>
      </trkpt>
      <trkpt lat="44.53395" lon="5.90187">
        <ele>1405</ele>
        <time>2013-09-30T14:38:58Z</time>
      </trkpt>
      <trkpt lat="44.53412" lon="5.90174">
        <ele>1404</ele>
        <time>2013-09-30T14:39:02Z</time>
      </trkpt>
      <trkpt lat="44.5343" lon="5.90181">
        <ele>1395</ele>
        <time>2013-09-30T14:39:07Z</time>
      </trkpt>
      <trkpt lat="44.5345" lon="5.90182">
        <ele>1393</ele>
        <time>2013-09-30T14:39:12Z</time>
      </trkpt>
      <trkpt lat="44.53468" lon="5.90175">
        <ele>1392</ele>
        <time>2013-09-30T14:39:16Z</time>
      </trkpt>
      <trkpt lat="44.53487" lon="5.90161">
        <ele>1401</ele>
        <time>2013-09-30T14:39:21Z</time>
      </trkpt>
      <trkpt lat="44.53506" lon="5.90155">
        <ele>1400</ele>
        <time>2013-09-30T14:39:28Z</time>
      </trkpt>
      <trkpt lat="44.53525" lon="5.90148">
        <ele>1401</ele>
        <time>2013-09-30T14:41:06Z</time>
      </trkpt>
      <trkpt lat="44.53541" lon="5.90134">
        <ele>1402</ele>
        <time>2013-09-30T14:41:11Z</time>
      </trkpt>
      <trkpt lat="44.5356" lon="5.90121">
        <ele>1404</ele>
        <time>2013-09-30T14:41:17Z</time>
      </trkpt>
      <trkpt lat="44.53579" lon="5.9012">
        <ele>1404</ele>
        <time>2013-09-30T14:41:21Z</time>
      </trkpt>
      <trkpt lat="44.53597" lon="5.90106">
        <ele>1397</ele>
        <time>2013-09-30T14:41:25Z</time>
      </trkpt>
      <trkpt lat="44.53617" lon="5.90095">
        <ele>1394</ele>
        <time>2013-09-30T14:41:29Z</time>
      </trkpt>
      <trkpt lat="44.53638" lon="5.90084">
        <ele>1392</ele>
        <time>2013-09-30T14:41:33Z</time>
      </trkpt>
      <trkpt lat="44.53661" lon="5.90074">
        <ele>1405</ele>
        <time>2013-09-30T14:41:37Z</time>
      </trkpt>
      <trkpt lat="44.53678" lon="5.90063">
        <ele>1399</ele>
        <time>2013-09-30T14:41:40Z</time>
      </trkpt>
      <trkpt lat="44.53695" lon="5.90051">
        <ele>1401</ele>
        <time>2013-09-30T14:41:43Z</time>
      </trkpt>
      <trkpt lat="44.53712" lon="5.90036">
        <ele>1402</ele>
        <time>2013-09-30T14:41:47Z</time>
      </trkpt>
      <trkpt lat="44.53733" lon="5.90023">
        <ele>1403</ele>
        <time>2013-09-30T14:41:52Z</time>
      </trkpt>
      <trkpt lat="44.53752" lon="5.90012">
        <ele>1396</ele>
        <time>2013-09-30T14:41:55Z</time>
      </trkpt>
      <trkpt lat="44.5377" lon="5.90002">
        <ele>1391</ele>
        <time>2013-09-30T14:41:58Z</time>
      </trkpt>
      <trkpt lat="44.53788" lon="5.89991">
        <ele>1408</ele>
        <time>2013-09-30T14:42:01Z</time>
      </trkpt>
      <trkpt lat="44.53804" lon="5.89977">
        <ele>1406</ele>
        <time>2013-09-30T14:42:04Z</time>
      </trkpt>
      <trkpt lat="44.53823" lon="5.89963">
        <ele>1407</ele>
        <time>2013-09-30T14:42:07Z</time>
      </trkpt>
      <trkpt lat="44.53843" lon="5.89951">
        <ele>1390</ele>
        <time>2013-09-30T14:42:11Z</time>
      </trkpt>
      <trkpt lat="44.53864" lon="5.89935">
        <ele>1390</ele>
        <time>2013-09-30T14:42:16Z</time>
      </trkpt>
      <trkpt lat="44.5388" lon="5.89924">
        <ele>1388</ele>
        <time>2013-09-30T14:42:18Z</time>
      </trkpt>
      <trkpt lat="44.53901" lon="5.89909">
        <ele>1403</ele>
        <time>2013-09-30T14:42:20Z</time>
      </trkpt>
      <trkpt lat="44.53918" lon="5.89891">
        <ele>1391</ele>
        <time>2013-09-30T14:42:22Z</time>
      </trkpt>
      <trkpt lat="44.53939" lon="5.89881">
        <ele>1391</ele>
        <time>2013-09-30T14:42:24Z</time>
      </trkpt>
      <trkpt lat="44.53964" lon="5.89871">
        <ele>1389</ele>
        <time>2013-09-30T14:42:26Z</time>
      </trkpt>
      <trkpt lat="44.53984" lon="5.89867">
        <ele>1387</ele>
        <time>2013-09-30T14:42:28Z</time>
      </trkpt>
      <trkpt lat="44.54008" lon="5.89856">
        <ele>1372</ele>
        <time>2013-09-30T14:42:31Z</time>
      </trkpt>
      <trkpt lat="44.54026" lon="5.89843">
        <ele>1370</ele>
        <time>2013-09-30T14:42:34Z</time>
      </trkpt>
      <trkpt lat="44.54042" lon="5.89825">
        <ele>1391</ele>
        <time>2013-09-30T14:42:37Z</time>
      </trkpt>
      <trkpt lat="44.54062" lon="5.89808">
        <ele>1390</ele>
        <time>2013-09-30T14:42:41Z</time>
      </trkpt>
      <trkpt lat="44.5408" lon="5.89797">
        <ele>1391</ele>
        <time>2013-09-30T14:42:46Z</time>
      </trkpt>
      <trkpt lat="44.54097" lon="5.89785">
        <ele>1375</ele>
        <time>2013-09-30T14:42:51Z</time>
      </trkpt>
      <trkpt lat="44.54114" lon="5.89771">
        <ele>1376</ele>
        <time>2013-09-30T14:42:56Z</time>
      </trkpt>
      <trkpt lat="44.54132" lon="5.89759">
        <ele>1374</ele>
        <time>2013-09-30T14:43:01Z</time>
      </trkpt>
      <trkpt lat="44.54149" lon="5.89751">
        <ele>1373</ele>
        <time>2013-09-30T14:43:06Z</time>
      </trkpt>
      <trkpt lat="44.54168" lon="5.89735">
        <ele>1377</ele>
        <time>2013-09-30T14:43:11Z</time>
      </trkpt>
      <trkpt lat="44.54184" lon="5.89722">
        <ele>1378</ele>
        <time>2013-09-30T14:43:15Z</time>
      </trkpt>
      <trkpt lat="44.54202" lon="5.8971">
        <ele>1378</ele>
        <time>2013-09-30T14:43:20Z</time>
      </trkpt>
      <trkpt lat="44.54218" lon="5.897">
        <ele>1377</ele>
        <time>2013-09-30T14:43:25Z</time>
      </trkpt>
      <trkpt lat="44.54238" lon="5.8969">
        <ele>1377</ele>
        <time>2013-09-30T14:43:32Z</time>
      </trkpt>
      <trkpt lat="44.54255" lon="5.89679">
        <ele>1365</ele>
        <time>2013-09-30T14:43:38Z</time>
      </trkpt>
      <trkpt lat="44.5427" lon="5.89665">
        <ele>1382</ele>
        <time>2013-09-30T14:43:44Z</time>
      </trkpt>
      <trkpt lat="44.54289" lon="5.89652">
        <ele>1381</ele>
        <time>2013-09-30T14:43:50Z</time>
      </trkpt>
      <trkpt lat="44.54306" lon="5.89638">
        <ele>1380</ele>
        <time>2013-09-30T14:43:56Z</time>
      </trkpt>
      <trkpt lat="44.54325" lon="5.89625">
        <ele>1382</ele>
        <time>2013-09-30T14:44:01Z</time>
      </trkpt>
      <trkpt lat="44.54342" lon="5.89609">
        <ele>1366</ele>
        <time>2013-09-30T14:44:05Z</time>
      </trkpt>
      <trkpt lat="44.5436" lon="5.89594">
        <ele>1366</ele>
        <time>2013-09-30T14:44:10Z</time>
      </trkpt>
      <trkpt lat="44.54377" lon="5.8958">
        <ele>1386</ele>
        <time>2013-09-30T14:44:16Z</time>
      </trkpt>
      <trkpt lat="44.54392" lon="5.89563">
        <ele>1384</ele>
        <time>2013-09-30T14:44:23Z</time>
      </trkpt>
      <trkpt lat="44.54409" lon="5.89548">
        <ele>1386</ele>
        <time>2013-09-30T14:44:30Z</time>
      </trkpt>
      <trkpt lat="44.54427" lon="5.89535">
        <ele>1366</ele>
        <time>2013-09-30T14:44:35Z</time>
      </trkpt>
      <trkpt lat="44.54443" lon="5.89521">
        <ele>1368</ele>
        <time>2013-09-30T14:44:40Z</time>
      </trkpt>
      <trkpt lat="44.5446" lon="5.89511">
        <ele>1364</ele>
        <time>2013-09-30T14:44:45Z</time>
      </trkpt>
      <trkpt lat="44.54478" lon="5.89495">
        <ele>1384</ele>
        <time>2013-09-30T14:44:51Z</time>
      </trkpt>
      <trkpt lat="44.54496" lon="5.89482">
        <ele>1381</ele>
        <time>2013-09-30T14:44:58Z</time>
      </trkpt>
      <trkpt lat="44.54511" lon="5.89467">
        <ele>1367</ele>
        <time>2013-09-30T14:45:04Z</time>
      </trkpt>
      <trkpt lat="44.54526" lon="5.89451">
        <ele>1369</ele>
        <time>2013-09-30T14:45:10Z</time>
      </trkpt>
      <trkpt lat="44.54542" lon="5.89436">
        <ele>1368</ele>
        <time>2013-09-30T14:45:17Z</time>
      </trkpt>
      <trkpt lat="44.54558" lon="5.89418">
        <ele>1366</ele>
        <time>2013-09-30T14:45:25Z</time>
      </trkpt>
      <trkpt lat="44.54575" lon="5.89406">
        <ele>1375</ele>
        <time>2013-09-30T14:45:31Z</time>
      </trkpt>
      <trkpt lat="44.54591" lon="5.89392">
        <ele>1358</ele>
        <time>2013-09-30T14:45:37Z</time>
      </trkpt>
      <trkpt lat="44.54606" lon="5.89376">
        <ele>1358</ele>
        <time>2013-09-30T14:45:42Z</time>
      </trkpt>
      <trkpt lat="44.54618" lon="5.89355">
        <ele>1358</ele>
        <time>2013-09-30T14:45:48Z</time>
      </trkpt>
      <trkpt lat="44.54632" lon="5.89336">
        <ele>1355</ele>
        <time>2013-09-30T14:45:57Z</time>
      </trkpt>
      <trkpt lat="44.54623" lon="5.89313">
        <ele>1354</ele>
        <time>2013-09-30T14:47:42Z</time>
      </trkpt>
      <trkpt lat="44.54611" lon="5.89288">
        <ele>1353</ele>
        <time>2013-09-30T14:47:46Z</time>
      </trkpt>
      <trkpt lat="44.54594" lon="5.89269">
        <ele>1354</ele>
        <time>2013-09-30T14:47:50Z</time>
      </trkpt>
      <trkpt lat="44.54579" lon="5.89253">
        <ele>1362</ele>
        <time>2013-09-30T14:47:55Z</time>
      </trkpt>
      <trkpt lat="44.54567" lon="5.89232">
        <ele>1352</ele>
        <time>2013-09-30T14:48:00Z</time>
      </trkpt>
      <trkpt lat="44.54551" lon="5.89212">
        <ele>1349</ele>
        <time>2013-09-30T14:48:04Z</time>
      </trkpt>
      <trkpt lat="44.54536" lon="5.89198">
        <ele>1349</ele>
        <time>2013-09-30T14:48:07Z</time>
      </trkpt>
      <trkpt lat="44.54518" lon="5.89179">
        <ele>1347</ele>
        <time>2013-09-30T14:48:12Z</time>
      </trkpt>
      <trkpt lat="44.54503" lon="5.89154">
        <ele>1329</ele>
        <time>2013-09-30T14:48:17Z</time>
      </trkpt>
      <trkpt lat="44.54487" lon="5.89122">
        <ele>1329</ele>
        <time>2013-09-30T14:48:20Z</time>
      </trkpt>
      <trkpt lat="44.54473" lon="5.89103">
        <ele>1325</ele>
        <time>2013-09-30T14:48:22Z</time>
      </trkpt>
      <trkpt lat="44.54462" lon="5.89077">
        <ele>1308</ele>
        <time>2013-09-30T14:48:25Z</time>
      </trkpt>
      <trkpt lat="44.54449" lon="5.8905">
        <ele>1308</ele>
        <time>2013-09-30T14:48:28Z</time>
      </trkpt>
      <trkpt lat="44.5444" lon="5.89019">
        <ele>1307</ele>
        <time>2013-09-30T14:48:32Z</time>
      </trkpt>
      <trkpt lat="44.54438" lon="5.88992">
        <ele>1302</ele>
        <time>2013-09-30T14:48:35Z</time>
      </trkpt>
      <trkpt lat="44.54437" lon="5.88964">
        <ele>1300</ele>
        <time>2013-09-30T14:48:38Z</time>
      </trkpt>
      <trkpt lat="44.54431" lon="5.88925">
        <ele>1302</ele>
        <time>2013-09-30T14:48:41Z</time>
      </trkpt>
      <trkpt lat="44.54425" lon="5.8889">
        <ele>1300</ele>
        <time>2013-09-30T14:48:43Z</time>
      </trkpt>
      <trkpt lat="44.54424" lon="5.88861">
        <ele>1298</ele>
        <time>2013-09-30T14:48:49Z</time>
      </trkpt>
      <trkpt lat="44.54423" lon="5.88833">
        <ele>1300</ele>
        <time>2013-09-30T14:48:57Z</time>
      </trkpt>
      <trkpt lat="44.54424" lon="5.88803">
        <ele>1297</ele>
        <time>2013-09-30T14:49:05Z</time>
      </trkpt>
      <trkpt lat="44.54434" lon="5.88782">
        <ele>1296</ele>
        <time>2013-09-30T14:49:43Z</time>
      </trkpt>
      <trkpt lat="44.54434" lon="5.88751">
        <ele>1297</ele>
        <time>2013-09-30T14:49:50Z</time>
      </trkpt>
      <trkpt lat="44.54441" lon="5.88723">
        <ele>1297</ele>
        <time>2013-09-30T14:49:56Z</time>
      </trkpt>
      <trkpt lat="44.54452" lon="5.887">
        <ele>1296</ele>
        <time>2013-09-30T14:50:01Z</time>
      </trkpt>
      <trkpt lat="44.54467" lon="5.88677">
        <ele>1295</ele>
        <time>2013-09-30T14:50:05Z</time>
      </trkpt>
      <trkpt lat="44.54482" lon="5.88661">
        <ele>1291</ele>
        <time>2013-09-30T14:50:12Z</time>
      </trkpt>
      <trkpt lat="44.54498" lon="5.88642">
        <ele>1290</ele>
        <time>2013-09-30T14:50:27Z</time>
      </trkpt>
      <trkpt lat="44.54518" lon="5.88626">
        <ele>1278</ele>
        <time>2013-09-30T14:50:30Z</time>
      </trkpt>
      <trkpt lat="44.54537" lon="5.88614">
        <ele>1276</ele>
        <time>2013-09-30T14:50:34Z</time>
      </trkpt>
      <trkpt lat="44.54547" lon="5.88588">
        <ele>1276</ele>
        <time>2013-09-30T14:50:38Z</time>
      </trkpt>
      <trkpt lat="44.54554" lon="5.88562">
        <ele>1275</ele>
        <time>2013-09-30T14:50:43Z</time>
      </trkpt>
      <trkpt lat="44.54562" lon="5.88534">
        <ele>1273</ele>
        <time>2013-09-30T14:50:47Z</time>
      </trkpt>
      <trkpt lat="44.54566" lon="5.88504">
        <ele>1271</ele>
        <time>2013-09-30T14:50:51Z</time>
      </trkpt>
      <trkpt lat="44.54572" lon="5.8848">
        <ele>1266</ele>
        <time>2013-09-30T14:51:07Z</time>
      </trkpt>
      <trkpt lat="44.54554" lon="5.88471">
        <ele>1264</ele>
        <time>2013-09-30T14:51:57Z</time>
      </trkpt>
      <trkpt lat="44.54534" lon="5.88464">
        <ele>1263</ele>
        <time>2013-09-30T14:52:02Z</time>
      </trkpt>
      <trkpt lat="44.54516" lon="5.88457">
        <ele>1262</ele>
        <time>2013-09-30T14:52:06Z</time>
      </trkpt>
      <trkpt lat="44.54499" lon="5.88444">
        <ele>1258</ele>
        <time>2013-09-30T14:52:10Z</time>
      </trkpt>
      <trkpt lat="44.54481" lon="5.88428">
        <ele>1257</ele>
        <time>2013-09-30T14:52:15Z</time>
      </trkpt>
      <trkpt lat="44.5447" lon="5.88403">
        <ele>1249</ele>
        <time>2013-09-30T14:52:23Z</time>
      </trkpt>
      <trkpt lat="44.54469" lon="5.88373">
        <ele>1247</ele>
        <time>2013-09-30T14:52:27Z</time>
      </trkpt>
      <trkpt lat="44.5447" lon="5.88343">
        <ele>1245</ele>
        <time>2013-09-30T14:52:32Z</time>
      </trkpt>
      <trkpt lat="44.54467" lon="5.88314">
        <ele>1237</ele>
        <time>2013-09-30T14:52:38Z</time>
      </trkpt>
      <trkpt lat="44.54463" lon="5.88288">
        <ele>1235</ele>
        <time>2013-09-30T14:52:42Z</time>
      </trkpt>
      <trkpt lat="44.54449" lon="5.88263">
        <ele>1234</ele>
        <time>2013-09-30T14:52:46Z</time>
      </trkpt>
      <trkpt lat="44.54427" lon="5.88235">
        <ele>1224</ele>
        <time>2013-09-30T14:52:49Z</time>
      </trkpt>
      <trkpt lat="44.54412" lon="5.88213">
        <ele>1222</ele>
        <time>2013-09-30T14:52:51Z</time>
      </trkpt>
      <trkpt lat="44.54396" lon="5.88196">
        <ele>1219</ele>
        <time>2013-09-30T14:52:55Z</time>
      </trkpt>
      <trkpt lat="44.54384" lon="5.88177">
        <ele>1217</ele>
        <time>2013-09-30T14:53:02Z</time>
      </trkpt>
      <trkpt lat="44.54371" lon="5.88156">
        <ele>1202</ele>
        <time>2013-09-30T14:53:09Z</time>
      </trkpt>
      <trkpt lat="44.54367" lon="5.8813">
        <ele>1199</ele>
        <time>2013-09-30T14:53:16Z</time>
      </trkpt>
      <trkpt lat="44.54364" lon="5.88103">
        <ele>1195</ele>
        <time>2013-09-30T14:53:38Z</time>
      </trkpt>
      <trkpt lat="44.54374" lon="5.88081">
        <ele>1183</ele>
        <time>2013-09-30T14:53:46Z</time>
      </trkpt>
      <trkpt lat="44.54391" lon="5.88073">
        <ele>1184</ele>
        <time>2013-09-30T14:54:18Z</time>
      </trkpt>
      <trkpt lat="44.54385" lon="5.88046">
        <ele>1182</ele>
        <time>2013-09-30T14:54:40Z</time>
      </trkpt>
      <trkpt lat="44.54371" lon="5.88028">
        <ele>1181</ele>
        <time>2013-09-30T14:54:44Z</time>
      </trkpt>
      <trkpt lat="44.54349" lon="5.88032">
        <ele>1180</ele>
        <time>2013-09-30T14:54:50Z</time>
      </trkpt>
      <trkpt lat="44.54332" lon="5.88015">
        <ele>1173</ele>
        <time>2013-09-30T14:54:56Z</time>
      </trkpt>
      <trkpt lat="44.54316" lon="5.87996">
        <ele>1169</ele>
        <time>2013-09-30T14:55:01Z</time>
      </trkpt>
      <trkpt lat="44.54298" lon="5.87982">
        <ele>1167</ele>
        <time>2013-09-30T14:55:05Z</time>
      </trkpt>
      <trkpt lat="44.5428" lon="5.87972">
        <ele>1165</ele>
        <time>2013-09-30T14:55:11Z</time>
      </trkpt>
      <trkpt lat="44.54264" lon="5.87955">
        <ele>1163</ele>
        <time>2013-09-30T14:55:19Z</time>
      </trkpt>
      <trkpt lat="44.54247" lon="5.87935">
        <ele>1151</ele>
        <time>2013-09-30T14:55:24Z</time>
      </trkpt>
      <trkpt lat="44.54231" lon="5.87921">
        <ele>1150</ele>
        <time>2013-09-30T14:55:30Z</time>
      </trkpt>
      <trkpt lat="44.54222" lon="5.87899">
        <ele>1141</ele>
        <time>2013-09-30T14:55:35Z</time>
      </trkpt>
      <trkpt lat="44.54223" lon="5.87873">
        <ele>1140</ele>
        <time>2013-09-30T14:55:40Z</time>
      </trkpt>
      <trkpt lat="44.54217" lon="5.87845">
        <ele>1138</ele>
        <time>2013-09-30T14:55:44Z</time>
      </trkpt>
      <trkpt lat="44.54207" lon="5.87824">
        <ele>1133</ele>
        <time>2013-09-30T14:55:47Z</time>
      </trkpt>
      <trkpt lat="44.54194" lon="5.87799">
        <ele>1131</ele>
        <time>2013-09-30T14:55:51Z</time>
      </trkpt>
      <trkpt lat="44.54192" lon="5.87773">
        <ele>1130</ele>
        <time>2013-09-30T14:55:55Z</time>
      </trkpt>
      <trkpt lat="44.54187" lon="5.87747">
        <ele>1127</ele>
        <time>2013-09-30T14:56:00Z</time>
      </trkpt>
      <trkpt lat="44.54179" lon="5.87724">
        <ele>1127</ele>
        <time>2013-09-30T14:56:06Z</time>
      </trkpt>
      <trkpt lat="44.54167" lon="5.87698">
        <ele>1126</ele>
        <time>2013-09-30T14:56:12Z</time>
      </trkpt>
      <trkpt lat="44.54162" lon="5.87671">
        <ele>1108</ele>
        <time>2013-09-30T14:56:17Z</time>
      </trkpt>
      <trkpt lat="44.54156" lon="5.87647">
        <ele>1099</ele>
        <time>2013-09-30T14:56:21Z</time>
      </trkpt>
      <trkpt lat="44.54153" lon="5.8762">
        <ele>1094</ele>
        <time>2013-09-30T14:56:27Z</time>
      </trkpt>
      <trkpt lat="44.5415" lon="5.87595">
        <ele>1095</ele>
        <time>2013-09-30T14:56:37Z</time>
      </trkpt>
      <trkpt lat="44.54146" lon="5.8757">
        <ele>1086</ele>
        <time>2013-09-30T14:56:44Z</time>
      </trkpt>
      <trkpt lat="44.54147" lon="5.87543">
        <ele>1082</ele>
        <time>2013-09-30T14:56:50Z</time>
      </trkpt>
      <trkpt lat="44.5414" lon="5.87519">
        <ele>1079</ele>
        <time>2013-09-30T14:56:57Z</time>
      </trkpt>
      <trkpt lat="44.54126" lon="5.87498">
        <ele>1066</ele>
        <time>2013-09-30T14:57:10Z</time>
      </trkpt>
      <trkpt lat="44.54114" lon="5.87477">
        <ele>1063</ele>
        <time>2013-09-30T14:57:14Z</time>
      </trkpt>
      <trkpt lat="44.54098" lon="5.87452">
        <ele>1058</ele>
        <time>2013-09-30T14:57:17Z</time>
      </trkpt>
      <trkpt lat="44.54085" lon="5.8743">
        <ele>1052</ele>
        <time>2013-09-30T14:57:20Z</time>
      </trkpt>
      <trkpt lat="44.54065" lon="5.87411">
        <ele>1040</ele>
        <time>2013-09-30T14:57:23Z</time>
      </trkpt>
      <trkpt lat="44.54046" lon="5.87394">
        <ele>1037</ele>
        <time>2013-09-30T14:57:26Z</time>
      </trkpt>
      <trkpt lat="44.54032" lon="5.87375">
        <ele>1036</ele>
        <time>2013-09-30T14:57:29Z</time>
      </trkpt>
      <trkpt lat="44.54018" lon="5.87348">
        <ele>1033</ele>
        <time>2013-09-30T14:57:32Z</time>
      </trkpt>
      <trkpt lat="44.54007" lon="5.87327">
        <ele>1028</ele>
        <time>2013-09-30T14:57:35Z</time>
      </trkpt>
      <trkpt lat="44.53998" lon="5.87302">
        <ele>1025</ele>
        <time>2013-09-30T14:57:38Z</time>
      </trkpt>
      <trkpt lat="44.53987" lon="5.87278">
        <ele>1023</ele>
        <time>2013-09-30T14:57:41Z</time>
      </trkpt>
      <trkpt lat="44.53977" lon="5.87253">
        <ele>1023</ele>
        <time>2013-09-30T14:57:45Z</time>
      </trkpt>
      <trkpt lat="44.5397" lon="5.87226">
        <ele>1019</ele>
        <time>2013-09-30T14:57:49Z</time>
      </trkpt>
      <trkpt lat="44.53969" lon="5.87195">
        <ele>1018</ele>
        <time>2013-09-30T14:57:53Z</time>
      </trkpt>
      <trkpt lat="44.53969" lon="5.87169">
        <ele>1018</ele>
        <time>2013-09-30T14:57:56Z</time>
      </trkpt>
      <trkpt lat="44.53968" lon="5.87134">
        <ele>1015</ele>
        <time>2013-09-30T14:57:59Z</time>
      </trkpt>
      <trkpt lat="44.5397" lon="5.87108">
        <ele>1015</ele>
        <time>2013-09-30T14:58:01Z</time>
      </trkpt>
      <trkpt lat="44.53976" lon="5.87084">
        <ele>1014</ele>
        <time>2013-09-30T14:58:03Z</time>
      </trkpt>
      <trkpt lat="44.53995" lon="5.87072">
        <ele>1014</ele>
        <time>2013-09-30T14:58:06Z</time>
      </trkpt>
      <trkpt lat="44.54017" lon="5.87064">
        <ele>1012</ele>
        <time>2013-09-30T14:58:09Z</time>
      </trkpt>
      <trkpt lat="44.54036" lon="5.8706">
        <ele>1012</ele>
        <time>2013-09-30T14:58:12Z</time>
      </trkpt>
      <trkpt lat="44.54059" lon="5.87057">
        <ele>1011</ele>
        <time>2013-09-30T14:58:15Z</time>
      </trkpt>
      <trkpt lat="44.54085" lon="5.87052">
        <ele>1008</ele>
        <time>2013-09-30T14:58:19Z</time>
      </trkpt>
      <trkpt lat="44.54108" lon="5.87048">
        <ele>1008</ele>
        <time>2013-09-30T14:58:22Z</time>
      </trkpt>
      <trkpt lat="44.54128" lon="5.87044">
        <ele>1008</ele>
        <time>2013-09-30T14:58:25Z</time>
      </trkpt>
      <trkpt lat="44.54151" lon="5.87039">
        <ele>1007</ele>
        <time>2013-09-30T14:58:28Z</time>
      </trkpt>
      <trkpt lat="44.54174" lon="5.8703">
        <ele>1008</ele>
        <time>2013-09-30T14:58:31Z</time>
      </trkpt>
      <trkpt lat="44.54194" lon="5.87015">
        <ele>1008</ele>
        <time>2013-09-30T14:58:34Z</time>
      </trkpt>
      <trkpt lat="44.54215" lon="5.87">
        <ele>1008</ele>
        <time>2013-09-30T14:58:37Z</time>
      </trkpt>
      <trkpt lat="44.54236" lon="5.86986">
        <ele>1003</ele>
        <time>2013-09-30T14:58:40Z</time>
      </trkpt>
      <trkpt lat="44.54258" lon="5.86971">
        <ele>1011</ele>
        <time>2013-09-30T14:58:43Z</time>
      </trkpt>
      <trkpt lat="44.54278" lon="5.86956">
        <ele>1012</ele>
        <time>2013-09-30T14:58:46Z</time>
      </trkpt>
      <trkpt lat="44.54291" lon="5.86934">
        <ele>1012</ele>
        <time>2013-09-30T14:58:50Z</time>
      </trkpt>
    </trkseg>
  </trk>
</gpx>